<?xml version="1.0" encoding="UTF-8" standalone="no" ?>
<gpx xmlns="http://www.topografix.com/GPX/1/1" xmlns:xsi="http://www.w3.org/2001/XMLSchema-instance" xsi:schemaLocation="http://www.topografix.com/GPX/1/1 http://www.topografix.com/GPX/1/1/gpx.xsd" version="1.1" creator="VisuGPX - https://www.visugpx.com">
  <metadata>
    <name>Boucle Seillons-Valensole- Laval-Les Pallières</name>
    <desc><![CDATA[Parcours sans grande difficulté, souvent roulant, passant par l'étonnant hameau de Laval]]></desc>
  </metadata>
  <trk>
    <name><![CDATA[20180610211516-snaRJ]]></name>
    <trkseg>
      <trkpt lat="43.50369" lon="5.88697">
        <ele>309</ele>
        <time>2018-06-10T05:00:51Z</time>
      </trkpt>
      <trkpt lat="43.50362" lon="5.88664">
        <ele>310</ele>
      </trkpt>
      <trkpt lat="43.50379" lon="5.88649">
        <ele>312</ele>
        <time>2018-06-10T05:29:05Z</time>
      </trkpt>
      <trkpt lat="43.50395" lon="5.88634">
        <ele>312</ele>
        <time>2018-06-10T05:29:12Z</time>
      </trkpt>
      <trkpt lat="43.50414" lon="5.88621">
        <ele>313</ele>
        <time>2018-06-10T05:29:19Z</time>
      </trkpt>
      <trkpt lat="43.50431" lon="5.88611">
        <ele>317</ele>
        <time>2018-06-10T05:29:24Z</time>
      </trkpt>
      <trkpt lat="43.50449" lon="5.88604">
        <ele>317</ele>
        <time>2018-06-10T05:29:29Z</time>
      </trkpt>
      <trkpt lat="43.50467" lon="5.88594">
        <ele>317</ele>
        <time>2018-06-10T05:29:34Z</time>
      </trkpt>
      <trkpt lat="43.50486" lon="5.88579">
        <ele>318</ele>
        <time>2018-06-10T05:29:40Z</time>
      </trkpt>
      <trkpt lat="43.50503" lon="5.88564">
        <ele>319</ele>
        <time>2018-06-10T05:29:46Z</time>
      </trkpt>
      <trkpt lat="43.50519" lon="5.88549">
        <ele>321</ele>
        <time>2018-06-10T05:29:52Z</time>
      </trkpt>
      <trkpt lat="43.50532" lon="5.88529">
        <ele>322</ele>
        <time>2018-06-10T05:29:58Z</time>
      </trkpt>
      <trkpt lat="43.50545" lon="5.88512">
        <ele>322</ele>
        <time>2018-06-10T05:30:03Z</time>
      </trkpt>
      <trkpt lat="43.5056" lon="5.88494">
        <ele>325</ele>
        <time>2018-06-10T05:30:09Z</time>
      </trkpt>
      <trkpt lat="43.50575" lon="5.88478">
        <ele>325</ele>
        <time>2018-06-10T05:30:15Z</time>
      </trkpt>
      <trkpt lat="43.50592" lon="5.88463">
        <ele>324</ele>
        <time>2018-06-10T05:30:21Z</time>
      </trkpt>
      <trkpt lat="43.50612" lon="5.88457">
        <ele>324</ele>
        <time>2018-06-10T05:30:28Z</time>
      </trkpt>
      <trkpt lat="43.50631" lon="5.88452">
        <ele>324</ele>
        <time>2018-06-10T05:30:34Z</time>
      </trkpt>
      <trkpt lat="43.50649" lon="5.88443">
        <ele>323</ele>
        <time>2018-06-10T05:30:41Z</time>
      </trkpt>
      <trkpt lat="43.50669" lon="5.88434">
        <ele>325</ele>
        <time>2018-06-10T05:30:47Z</time>
      </trkpt>
      <trkpt lat="43.50684" lon="5.88418">
        <ele>325</ele>
        <time>2018-06-10T05:30:54Z</time>
      </trkpt>
      <trkpt lat="43.50695" lon="5.88398">
        <ele>327</ele>
        <time>2018-06-10T05:31:01Z</time>
      </trkpt>
      <trkpt lat="43.50709" lon="5.88382">
        <ele>328</ele>
        <time>2018-06-10T05:31:08Z</time>
      </trkpt>
      <trkpt lat="43.50722" lon="5.88362">
        <ele>328</ele>
        <time>2018-06-10T05:31:14Z</time>
      </trkpt>
      <trkpt lat="43.50732" lon="5.88339">
        <ele>328</ele>
        <time>2018-06-10T05:31:20Z</time>
      </trkpt>
      <trkpt lat="43.50741" lon="5.88317">
        <ele>332</ele>
        <time>2018-06-10T05:31:26Z</time>
      </trkpt>
      <trkpt lat="43.50755" lon="5.88299">
        <ele>334</ele>
        <time>2018-06-10T05:31:32Z</time>
      </trkpt>
      <trkpt lat="43.50774" lon="5.8829">
        <ele>335</ele>
        <time>2018-06-10T05:31:38Z</time>
      </trkpt>
      <trkpt lat="43.50793" lon="5.88292">
        <ele>336</ele>
        <time>2018-06-10T05:31:46Z</time>
      </trkpt>
      <trkpt lat="43.50806" lon="5.88315">
        <ele>334</ele>
        <time>2018-06-10T05:31:56Z</time>
      </trkpt>
      <trkpt lat="43.50807" lon="5.88342">
        <ele>329</ele>
        <time>2018-06-10T05:32:04Z</time>
      </trkpt>
      <trkpt lat="43.50817" lon="5.88364">
        <ele>329</ele>
        <time>2018-06-10T05:32:09Z</time>
      </trkpt>
      <trkpt lat="43.5083" lon="5.88383">
        <ele>329</ele>
        <time>2018-06-10T05:32:13Z</time>
      </trkpt>
      <trkpt lat="43.50841" lon="5.88405">
        <ele>331</ele>
        <time>2018-06-10T05:32:22Z</time>
      </trkpt>
      <trkpt lat="43.50857" lon="5.88419">
        <ele>334</ele>
        <time>2018-06-10T05:32:33Z</time>
      </trkpt>
      <trkpt lat="43.50872" lon="5.88435">
        <ele>336</ele>
        <time>2018-06-10T05:32:48Z</time>
      </trkpt>
      <trkpt lat="43.50886" lon="5.88451">
        <ele>338</ele>
        <time>2018-06-10T05:32:57Z</time>
      </trkpt>
      <trkpt lat="43.509" lon="5.88469">
        <ele>339</ele>
        <time>2018-06-10T05:33:12Z</time>
      </trkpt>
      <trkpt lat="43.50919" lon="5.88472">
        <ele>340</ele>
        <time>2018-06-10T05:33:18Z</time>
      </trkpt>
      <trkpt lat="43.5094" lon="5.88479">
        <ele>341</ele>
        <time>2018-06-10T05:33:23Z</time>
      </trkpt>
      <trkpt lat="43.50958" lon="5.88482">
        <ele>341</ele>
        <time>2018-06-10T05:33:31Z</time>
      </trkpt>
      <trkpt lat="43.50977" lon="5.88479">
        <ele>341</ele>
        <time>2018-06-10T05:33:41Z</time>
      </trkpt>
      <trkpt lat="43.50996" lon="5.88482">
        <ele>341</ele>
        <time>2018-06-10T05:33:52Z</time>
      </trkpt>
      <trkpt lat="43.51013" lon="5.88493">
        <ele>343</ele>
        <time>2018-06-10T05:34:02Z</time>
      </trkpt>
      <trkpt lat="43.51029" lon="5.88507">
        <ele>348</ele>
        <time>2018-06-10T05:34:16Z</time>
      </trkpt>
      <trkpt lat="43.51041" lon="5.88526">
        <ele>350</ele>
        <time>2018-06-10T05:34:25Z</time>
      </trkpt>
      <trkpt lat="43.51054" lon="5.88545">
        <ele>351</ele>
        <time>2018-06-10T05:34:33Z</time>
      </trkpt>
      <trkpt lat="43.51061" lon="5.88568">
        <ele>352</ele>
        <time>2018-06-10T05:34:42Z</time>
      </trkpt>
      <trkpt lat="43.51069" lon="5.88592">
        <ele>357</ele>
        <time>2018-06-10T05:34:50Z</time>
      </trkpt>
      <trkpt lat="43.51081" lon="5.88612">
        <ele>358</ele>
        <time>2018-06-10T05:34:57Z</time>
      </trkpt>
      <trkpt lat="43.51096" lon="5.88633">
        <ele>358</ele>
        <time>2018-06-10T05:35:03Z</time>
      </trkpt>
      <trkpt lat="43.51108" lon="5.88652">
        <ele>358</ele>
        <time>2018-06-10T05:35:23Z</time>
      </trkpt>
      <trkpt lat="43.51123" lon="5.8867">
        <ele>361</ele>
        <time>2018-06-10T05:35:33Z</time>
      </trkpt>
      <trkpt lat="43.51139" lon="5.88684">
        <ele>361</ele>
        <time>2018-06-10T05:35:45Z</time>
      </trkpt>
      <trkpt lat="43.51157" lon="5.88682">
        <ele>360</ele>
        <time>2018-06-10T05:35:57Z</time>
      </trkpt>
      <trkpt lat="43.51174" lon="5.88695">
        <ele>360</ele>
        <time>2018-06-10T05:36:07Z</time>
      </trkpt>
      <trkpt lat="43.51195" lon="5.88703">
        <ele>360</ele>
        <time>2018-06-10T05:36:15Z</time>
      </trkpt>
      <trkpt lat="43.51213" lon="5.8871">
        <ele>360</ele>
        <time>2018-06-10T05:36:22Z</time>
      </trkpt>
      <trkpt lat="43.51229" lon="5.88722">
        <ele>360</ele>
        <time>2018-06-10T05:36:33Z</time>
      </trkpt>
      <trkpt lat="43.51246" lon="5.88733">
        <ele>359</ele>
        <time>2018-06-10T05:36:48Z</time>
      </trkpt>
      <trkpt lat="43.51262" lon="5.88746">
        <ele>361</ele>
        <time>2018-06-10T05:37:06Z</time>
      </trkpt>
      <trkpt lat="43.51274" lon="5.88767">
        <ele>363</ele>
        <time>2018-06-10T05:37:20Z</time>
      </trkpt>
      <trkpt lat="43.51279" lon="5.88791">
        <ele>365</ele>
        <time>2018-06-10T05:37:33Z</time>
      </trkpt>
      <trkpt lat="43.51294" lon="5.88809">
        <ele>365</ele>
        <time>2018-06-10T05:37:52Z</time>
      </trkpt>
      <trkpt lat="43.51309" lon="5.88825">
        <ele>365</ele>
        <time>2018-06-10T05:38:00Z</time>
      </trkpt>
      <trkpt lat="43.51318" lon="5.88846">
        <ele>369</ele>
        <time>2018-06-10T05:38:14Z</time>
      </trkpt>
      <trkpt lat="43.51327" lon="5.88869">
        <ele>371</ele>
        <time>2018-06-10T05:38:27Z</time>
      </trkpt>
      <trkpt lat="43.51332" lon="5.88893">
        <ele>372</ele>
        <time>2018-06-10T05:38:38Z</time>
      </trkpt>
      <trkpt lat="43.51332" lon="5.88919">
        <ele>374</ele>
        <time>2018-06-10T05:38:49Z</time>
      </trkpt>
      <trkpt lat="43.51323" lon="5.88941">
        <ele>378</ele>
        <time>2018-06-10T05:39:01Z</time>
      </trkpt>
      <trkpt lat="43.51316" lon="5.88964">
        <ele>381</ele>
        <time>2018-06-10T05:39:15Z</time>
      </trkpt>
      <trkpt lat="43.51303" lon="5.88982">
        <ele>382</ele>
        <time>2018-06-10T05:39:27Z</time>
      </trkpt>
      <trkpt lat="43.51299" lon="5.89011">
        <ele>387</ele>
        <time>2018-06-10T05:39:40Z</time>
      </trkpt>
      <trkpt lat="43.51287" lon="5.89031">
        <ele>388</ele>
        <time>2018-06-10T05:39:53Z</time>
      </trkpt>
      <trkpt lat="43.51273" lon="5.89047">
        <ele>388</ele>
        <time>2018-06-10T05:40:05Z</time>
      </trkpt>
      <trkpt lat="43.51257" lon="5.89061">
        <ele>389</ele>
        <time>2018-06-10T05:40:17Z</time>
      </trkpt>
      <trkpt lat="43.51244" lon="5.89079">
        <ele>390</ele>
        <time>2018-06-10T05:40:31Z</time>
      </trkpt>
      <trkpt lat="43.51228" lon="5.89092">
        <ele>392</ele>
        <time>2018-06-10T05:40:41Z</time>
      </trkpt>
      <trkpt lat="43.51212" lon="5.89111">
        <ele>393</ele>
        <time>2018-06-10T05:40:53Z</time>
      </trkpt>
      <trkpt lat="43.51198" lon="5.8913">
        <ele>394</ele>
        <time>2018-06-10T05:41:07Z</time>
      </trkpt>
      <trkpt lat="43.51183" lon="5.89144">
        <ele>394</ele>
        <time>2018-06-10T05:41:19Z</time>
      </trkpt>
      <trkpt lat="43.51166" lon="5.89153">
        <ele>396</ele>
        <time>2018-06-10T05:41:28Z</time>
      </trkpt>
      <trkpt lat="43.5115" lon="5.89166">
        <ele>396</ele>
        <time>2018-06-10T05:41:40Z</time>
      </trkpt>
      <trkpt lat="43.51136" lon="5.89183">
        <ele>399</ele>
        <time>2018-06-10T05:41:52Z</time>
      </trkpt>
      <trkpt lat="43.51122" lon="5.89199">
        <ele>399</ele>
        <time>2018-06-10T05:42:03Z</time>
      </trkpt>
      <trkpt lat="43.51109" lon="5.89218">
        <ele>400</ele>
        <time>2018-06-10T05:42:13Z</time>
      </trkpt>
      <trkpt lat="43.511" lon="5.89243">
        <ele>401</ele>
        <time>2018-06-10T05:42:24Z</time>
      </trkpt>
      <trkpt lat="43.51094" lon="5.89266">
        <ele>403</ele>
        <time>2018-06-10T05:42:34Z</time>
      </trkpt>
      <trkpt lat="43.51084" lon="5.89288">
        <ele>404</ele>
        <time>2018-06-10T05:43:45Z</time>
      </trkpt>
      <trkpt lat="43.51103" lon="5.89291">
        <ele>404</ele>
        <time>2018-06-10T05:45:55Z</time>
      </trkpt>
      <trkpt lat="43.5112" lon="5.89298">
        <ele>404</ele>
        <time>2018-06-10T05:46:04Z</time>
      </trkpt>
      <trkpt lat="43.51139" lon="5.89305">
        <ele>405</ele>
        <time>2018-06-10T05:46:12Z</time>
      </trkpt>
      <trkpt lat="43.51158" lon="5.89308">
        <ele>405</ele>
        <time>2018-06-10T05:46:20Z</time>
      </trkpt>
      <trkpt lat="43.51177" lon="5.89311">
        <ele>406</ele>
        <time>2018-06-10T05:46:29Z</time>
      </trkpt>
      <trkpt lat="43.51195" lon="5.89319">
        <ele>406</ele>
        <time>2018-06-10T05:46:39Z</time>
      </trkpt>
      <trkpt lat="43.51209" lon="5.89336">
        <ele>408</ele>
        <time>2018-06-10T05:46:49Z</time>
      </trkpt>
      <trkpt lat="43.51223" lon="5.89352">
        <ele>408</ele>
        <time>2018-06-10T05:46:59Z</time>
      </trkpt>
      <trkpt lat="43.51238" lon="5.89366">
        <ele>409</ele>
        <time>2018-06-10T05:47:11Z</time>
      </trkpt>
      <trkpt lat="43.51252" lon="5.89383">
        <ele>410</ele>
        <time>2018-06-10T05:47:19Z</time>
      </trkpt>
      <trkpt lat="43.51264" lon="5.89402">
        <ele>411</ele>
        <time>2018-06-10T05:47:27Z</time>
      </trkpt>
      <trkpt lat="43.51278" lon="5.8942">
        <ele>412</ele>
        <time>2018-06-10T05:47:37Z</time>
      </trkpt>
      <trkpt lat="43.51293" lon="5.89434">
        <ele>412</ele>
        <time>2018-06-10T05:47:49Z</time>
      </trkpt>
      <trkpt lat="43.51313" lon="5.89437">
        <ele>412</ele>
        <time>2018-06-10T05:47:55Z</time>
      </trkpt>
      <trkpt lat="43.51333" lon="5.89439">
        <ele>412</ele>
        <time>2018-06-10T05:48:02Z</time>
      </trkpt>
      <trkpt lat="43.51352" lon="5.8944">
        <ele>411</ele>
        <time>2018-06-10T05:48:08Z</time>
      </trkpt>
      <trkpt lat="43.5137" lon="5.89444">
        <ele>410</ele>
        <time>2018-06-10T05:48:14Z</time>
      </trkpt>
      <trkpt lat="43.51387" lon="5.89453">
        <ele>410</ele>
        <time>2018-06-10T05:48:23Z</time>
      </trkpt>
      <trkpt lat="43.51407" lon="5.89468">
        <ele>409</ele>
        <time>2018-06-10T05:48:29Z</time>
      </trkpt>
      <trkpt lat="43.51424" lon="5.89485">
        <ele>406</ele>
        <time>2018-06-10T05:48:34Z</time>
      </trkpt>
      <trkpt lat="43.51441" lon="5.89497">
        <ele>406</ele>
        <time>2018-06-10T05:48:38Z</time>
      </trkpt>
      <trkpt lat="43.51458" lon="5.89505">
        <ele>402</ele>
        <time>2018-06-10T05:48:41Z</time>
      </trkpt>
      <trkpt lat="43.51482" lon="5.89513">
        <ele>402</ele>
        <time>2018-06-10T05:48:45Z</time>
      </trkpt>
      <trkpt lat="43.51501" lon="5.89524">
        <ele>400</ele>
        <time>2018-06-10T05:48:49Z</time>
      </trkpt>
      <trkpt lat="43.51519" lon="5.89533">
        <ele>399</ele>
        <time>2018-06-10T05:48:52Z</time>
      </trkpt>
      <trkpt lat="43.5154" lon="5.89539">
        <ele>399</ele>
        <time>2018-06-10T05:48:56Z</time>
      </trkpt>
      <trkpt lat="43.51558" lon="5.89556">
        <ele>398</ele>
        <time>2018-06-10T05:49:00Z</time>
      </trkpt>
      <trkpt lat="43.51576" lon="5.89578">
        <ele>396</ele>
        <time>2018-06-10T05:49:04Z</time>
      </trkpt>
      <trkpt lat="43.51589" lon="5.89601">
        <ele>395</ele>
        <time>2018-06-10T05:49:08Z</time>
      </trkpt>
      <trkpt lat="43.5159" lon="5.89631">
        <ele>394</ele>
        <time>2018-06-10T05:49:13Z</time>
      </trkpt>
      <trkpt lat="43.51602" lon="5.89653">
        <ele>394</ele>
        <time>2018-06-10T05:49:20Z</time>
      </trkpt>
      <trkpt lat="43.51621" lon="5.89656">
        <ele>394</ele>
        <time>2018-06-10T05:49:26Z</time>
      </trkpt>
      <trkpt lat="43.5164" lon="5.89662">
        <ele>394</ele>
        <time>2018-06-10T05:49:31Z</time>
      </trkpt>
      <trkpt lat="43.5166" lon="5.89667">
        <ele>393</ele>
        <time>2018-06-10T05:49:36Z</time>
      </trkpt>
      <trkpt lat="43.51681" lon="5.89672">
        <ele>392</ele>
        <time>2018-06-10T05:49:41Z</time>
      </trkpt>
      <trkpt lat="43.51703" lon="5.89676">
        <ele>392</ele>
        <time>2018-06-10T05:49:46Z</time>
      </trkpt>
      <trkpt lat="43.51724" lon="5.89684">
        <ele>392</ele>
        <time>2018-06-10T05:49:51Z</time>
      </trkpt>
      <trkpt lat="43.51746" lon="5.89694">
        <ele>392</ele>
        <time>2018-06-10T05:49:56Z</time>
      </trkpt>
      <trkpt lat="43.51766" lon="5.89699">
        <ele>390</ele>
        <time>2018-06-10T05:49:59Z</time>
      </trkpt>
      <trkpt lat="43.51789" lon="5.89703">
        <ele>390</ele>
        <time>2018-06-10T05:50:03Z</time>
      </trkpt>
      <trkpt lat="43.51813" lon="5.89704">
        <ele>390</ele>
        <time>2018-06-10T05:50:07Z</time>
      </trkpt>
      <trkpt lat="43.51831" lon="5.89704">
        <ele>390</ele>
        <time>2018-06-10T05:50:10Z</time>
      </trkpt>
      <trkpt lat="43.51853" lon="5.89702">
        <ele>389</ele>
        <time>2018-06-10T05:50:14Z</time>
      </trkpt>
      <trkpt lat="43.51876" lon="5.89697">
        <ele>389</ele>
        <time>2018-06-10T05:50:18Z</time>
      </trkpt>
      <trkpt lat="43.51898" lon="5.89695">
        <ele>389</ele>
        <time>2018-06-10T05:50:22Z</time>
      </trkpt>
      <trkpt lat="43.5192" lon="5.89692">
        <ele>388</ele>
        <time>2018-06-10T05:50:26Z</time>
      </trkpt>
      <trkpt lat="43.51941" lon="5.89684">
        <ele>388</ele>
        <time>2018-06-10T05:50:30Z</time>
      </trkpt>
      <trkpt lat="43.51963" lon="5.89676">
        <ele>387</ele>
        <time>2018-06-10T05:50:34Z</time>
      </trkpt>
      <trkpt lat="43.51984" lon="5.89668">
        <ele>388</ele>
        <time>2018-06-10T05:50:38Z</time>
      </trkpt>
      <trkpt lat="43.52002" lon="5.89662">
        <ele>389</ele>
        <time>2018-06-10T05:50:42Z</time>
      </trkpt>
      <trkpt lat="43.52021" lon="5.89656">
        <ele>390</ele>
        <time>2018-06-10T05:50:46Z</time>
      </trkpt>
      <trkpt lat="43.5204" lon="5.89651">
        <ele>391</ele>
        <time>2018-06-10T05:50:50Z</time>
      </trkpt>
      <trkpt lat="43.52058" lon="5.89644">
        <ele>390</ele>
        <time>2018-06-10T05:50:54Z</time>
      </trkpt>
      <trkpt lat="43.52076" lon="5.89636">
        <ele>391</ele>
        <time>2018-06-10T05:50:58Z</time>
      </trkpt>
      <trkpt lat="43.52094" lon="5.89626">
        <ele>390</ele>
        <time>2018-06-10T05:51:02Z</time>
      </trkpt>
      <trkpt lat="43.52113" lon="5.89619">
        <ele>390</ele>
        <time>2018-06-10T05:51:06Z</time>
      </trkpt>
      <trkpt lat="43.52132" lon="5.89612">
        <ele>390</ele>
        <time>2018-06-10T05:51:10Z</time>
      </trkpt>
      <trkpt lat="43.5215" lon="5.89606">
        <ele>390</ele>
        <time>2018-06-10T05:51:14Z</time>
      </trkpt>
      <trkpt lat="43.52169" lon="5.89598">
        <ele>389</ele>
        <time>2018-06-10T05:51:18Z</time>
      </trkpt>
      <trkpt lat="43.52187" lon="5.89592">
        <ele>387</ele>
        <time>2018-06-10T05:51:22Z</time>
      </trkpt>
      <trkpt lat="43.52208" lon="5.89585">
        <ele>385</ele>
        <time>2018-06-10T05:51:27Z</time>
      </trkpt>
      <trkpt lat="43.5223" lon="5.89575">
        <ele>392</ele>
        <time>2018-06-10T05:51:31Z</time>
      </trkpt>
      <trkpt lat="43.5225" lon="5.89567">
        <ele>390</ele>
        <time>2018-06-10T05:51:34Z</time>
      </trkpt>
      <trkpt lat="43.5227" lon="5.89562">
        <ele>389</ele>
        <time>2018-06-10T05:51:37Z</time>
      </trkpt>
      <trkpt lat="43.52288" lon="5.89562">
        <ele>390</ele>
        <time>2018-06-10T05:51:40Z</time>
      </trkpt>
      <trkpt lat="43.52309" lon="5.89563">
        <ele>389</ele>
        <time>2018-06-10T05:51:44Z</time>
      </trkpt>
      <trkpt lat="43.52328" lon="5.89564">
        <ele>387</ele>
        <time>2018-06-10T05:51:48Z</time>
      </trkpt>
      <trkpt lat="43.52348" lon="5.89563">
        <ele>388</ele>
        <time>2018-06-10T05:51:52Z</time>
      </trkpt>
      <trkpt lat="43.52368" lon="5.89564">
        <ele>389</ele>
        <time>2018-06-10T05:51:56Z</time>
      </trkpt>
      <trkpt lat="43.52386" lon="5.89566">
        <ele>389</ele>
        <time>2018-06-10T05:52:00Z</time>
      </trkpt>
      <trkpt lat="43.52405" lon="5.89566">
        <ele>388</ele>
        <time>2018-06-10T05:52:05Z</time>
      </trkpt>
      <trkpt lat="43.52426" lon="5.89569">
        <ele>389</ele>
        <time>2018-06-10T05:52:10Z</time>
      </trkpt>
      <trkpt lat="43.52447" lon="5.8957">
        <ele>390</ele>
        <time>2018-06-10T05:52:15Z</time>
      </trkpt>
      <trkpt lat="43.52465" lon="5.89572">
        <ele>390</ele>
        <time>2018-06-10T05:52:19Z</time>
      </trkpt>
      <trkpt lat="43.52485" lon="5.89571">
        <ele>388</ele>
        <time>2018-06-10T05:52:23Z</time>
      </trkpt>
      <trkpt lat="43.52506" lon="5.89571">
        <ele>387</ele>
        <time>2018-06-10T05:52:27Z</time>
      </trkpt>
      <trkpt lat="43.52526" lon="5.89573">
        <ele>389</ele>
        <time>2018-06-10T05:52:31Z</time>
      </trkpt>
      <trkpt lat="43.52544" lon="5.89571">
        <ele>389</ele>
        <time>2018-06-10T05:52:34Z</time>
      </trkpt>
      <trkpt lat="43.52567" lon="5.89569">
        <ele>388</ele>
        <time>2018-06-10T05:52:38Z</time>
      </trkpt>
      <trkpt lat="43.52589" lon="5.8957">
        <ele>386</ele>
        <time>2018-06-10T05:52:42Z</time>
      </trkpt>
      <trkpt lat="43.5261" lon="5.89571">
        <ele>387</ele>
        <time>2018-06-10T05:52:46Z</time>
      </trkpt>
      <trkpt lat="43.52632" lon="5.89571">
        <ele>387</ele>
        <time>2018-06-10T05:52:50Z</time>
      </trkpt>
      <trkpt lat="43.52654" lon="5.8957">
        <ele>385</ele>
        <time>2018-06-10T05:52:54Z</time>
      </trkpt>
      <trkpt lat="43.52677" lon="5.89572">
        <ele>383</ele>
        <time>2018-06-10T05:52:58Z</time>
      </trkpt>
      <trkpt lat="43.52701" lon="5.89574">
        <ele>384</ele>
        <time>2018-06-10T05:53:02Z</time>
      </trkpt>
      <trkpt lat="43.5272" lon="5.89576">
        <ele>383</ele>
        <time>2018-06-10T05:53:05Z</time>
      </trkpt>
      <trkpt lat="43.5274" lon="5.89577">
        <ele>381</ele>
        <time>2018-06-10T05:53:08Z</time>
      </trkpt>
      <trkpt lat="43.52758" lon="5.89577">
        <ele>379</ele>
        <time>2018-06-10T05:53:11Z</time>
      </trkpt>
      <trkpt lat="43.5278" lon="5.89575">
        <ele>380</ele>
        <time>2018-06-10T05:53:15Z</time>
      </trkpt>
      <trkpt lat="43.52798" lon="5.89568">
        <ele>379</ele>
        <time>2018-06-10T05:53:19Z</time>
      </trkpt>
      <trkpt lat="43.52817" lon="5.89561">
        <ele>379</ele>
        <time>2018-06-10T05:53:23Z</time>
      </trkpt>
      <trkpt lat="43.52838" lon="5.89548">
        <ele>377</ele>
        <time>2018-06-10T05:53:27Z</time>
      </trkpt>
      <trkpt lat="43.52857" lon="5.89537">
        <ele>378</ele>
        <time>2018-06-10T05:53:31Z</time>
      </trkpt>
      <trkpt lat="43.52875" lon="5.89526">
        <ele>378</ele>
        <time>2018-06-10T05:53:35Z</time>
      </trkpt>
      <trkpt lat="43.52895" lon="5.89517">
        <ele>378</ele>
        <time>2018-06-10T05:53:39Z</time>
      </trkpt>
      <trkpt lat="43.52913" lon="5.89512">
        <ele>379</ele>
        <time>2018-06-10T05:53:43Z</time>
      </trkpt>
      <trkpt lat="43.52933" lon="5.89505">
        <ele>377</ele>
        <time>2018-06-10T05:53:48Z</time>
      </trkpt>
      <trkpt lat="43.52952" lon="5.89496">
        <ele>383</ele>
        <time>2018-06-10T05:53:53Z</time>
      </trkpt>
      <trkpt lat="43.5297" lon="5.8949">
        <ele>383</ele>
        <time>2018-06-10T05:53:58Z</time>
      </trkpt>
      <trkpt lat="43.52987" lon="5.89482">
        <ele>382</ele>
        <time>2018-06-10T05:54:03Z</time>
      </trkpt>
      <trkpt lat="43.53007" lon="5.89474">
        <ele>380</ele>
        <time>2018-06-10T05:54:08Z</time>
      </trkpt>
      <trkpt lat="43.53027" lon="5.89465">
        <ele>381</ele>
        <time>2018-06-10T05:54:13Z</time>
      </trkpt>
      <trkpt lat="43.53045" lon="5.89453">
        <ele>382</ele>
        <time>2018-06-10T05:54:19Z</time>
      </trkpt>
      <trkpt lat="43.53062" lon="5.89438">
        <ele>382</ele>
        <time>2018-06-10T05:54:25Z</time>
      </trkpt>
      <trkpt lat="43.53078" lon="5.89424">
        <ele>383</ele>
        <time>2018-06-10T05:54:30Z</time>
      </trkpt>
      <trkpt lat="43.53093" lon="5.8941">
        <ele>385</ele>
        <time>2018-06-10T05:54:35Z</time>
      </trkpt>
      <trkpt lat="43.53108" lon="5.89393">
        <ele>388</ele>
        <time>2018-06-10T05:54:41Z</time>
      </trkpt>
      <trkpt lat="43.53124" lon="5.89375">
        <ele>389</ele>
        <time>2018-06-10T05:54:48Z</time>
      </trkpt>
      <trkpt lat="43.53142" lon="5.89362">
        <ele>390</ele>
        <time>2018-06-10T05:54:56Z</time>
      </trkpt>
      <trkpt lat="43.5316" lon="5.89359">
        <ele>390</ele>
        <time>2018-06-10T05:55:02Z</time>
      </trkpt>
      <trkpt lat="43.5318" lon="5.89359">
        <ele>387</ele>
        <time>2018-06-10T05:55:07Z</time>
      </trkpt>
      <trkpt lat="43.53203" lon="5.89357">
        <ele>386</ele>
        <time>2018-06-10T05:55:12Z</time>
      </trkpt>
      <trkpt lat="43.53224" lon="5.89356">
        <ele>385</ele>
        <time>2018-06-10T05:55:16Z</time>
      </trkpt>
      <trkpt lat="43.53244" lon="5.89352">
        <ele>385</ele>
        <time>2018-06-10T05:55:21Z</time>
      </trkpt>
      <trkpt lat="43.53263" lon="5.89344">
        <ele>384</ele>
        <time>2018-06-10T05:55:26Z</time>
      </trkpt>
      <trkpt lat="43.53282" lon="5.89336">
        <ele>383</ele>
        <time>2018-06-10T05:55:31Z</time>
      </trkpt>
      <trkpt lat="43.53299" lon="5.89327">
        <ele>388</ele>
        <time>2018-06-10T05:55:36Z</time>
      </trkpt>
      <trkpt lat="43.53318" lon="5.89316">
        <ele>388</ele>
        <time>2018-06-10T05:55:41Z</time>
      </trkpt>
      <trkpt lat="43.53338" lon="5.89307">
        <ele>388</ele>
        <time>2018-06-10T05:55:47Z</time>
      </trkpt>
      <trkpt lat="43.53357" lon="5.89303">
        <ele>388</ele>
        <time>2018-06-10T05:55:52Z</time>
      </trkpt>
      <trkpt lat="43.53373" lon="5.89314">
        <ele>388</ele>
        <time>2018-06-10T05:55:56Z</time>
      </trkpt>
      <trkpt lat="43.53387" lon="5.89335">
        <ele>386</ele>
        <time>2018-06-10T05:56:02Z</time>
      </trkpt>
      <trkpt lat="43.534" lon="5.89352">
        <ele>386</ele>
        <time>2018-06-10T05:56:08Z</time>
      </trkpt>
      <trkpt lat="43.53415" lon="5.89369">
        <ele>386</ele>
        <time>2018-06-10T05:56:14Z</time>
      </trkpt>
      <trkpt lat="43.5343" lon="5.89385">
        <ele>385</ele>
        <time>2018-06-10T05:56:20Z</time>
      </trkpt>
      <trkpt lat="43.53446" lon="5.89404">
        <ele>384</ele>
        <time>2018-06-10T05:56:26Z</time>
      </trkpt>
      <trkpt lat="43.53467" lon="5.89395">
        <ele>383</ele>
        <time>2018-06-10T05:56:33Z</time>
      </trkpt>
      <trkpt lat="43.53488" lon="5.89376">
        <ele>383</ele>
        <time>2018-06-10T05:56:37Z</time>
      </trkpt>
      <trkpt lat="43.53511" lon="5.89367">
        <ele>380</ele>
        <time>2018-06-10T05:56:40Z</time>
      </trkpt>
      <trkpt lat="43.53529" lon="5.89365">
        <ele>380</ele>
        <time>2018-06-10T05:56:42Z</time>
      </trkpt>
      <trkpt lat="43.53547" lon="5.89364">
        <ele>379</ele>
        <time>2018-06-10T05:56:44Z</time>
      </trkpt>
      <trkpt lat="43.5357" lon="5.89373">
        <ele>378</ele>
        <time>2018-06-10T05:56:47Z</time>
      </trkpt>
      <trkpt lat="43.5359" lon="5.89384">
        <ele>376</ele>
        <time>2018-06-10T05:56:50Z</time>
      </trkpt>
      <trkpt lat="43.53607" lon="5.89395">
        <ele>376</ele>
        <time>2018-06-10T05:56:53Z</time>
      </trkpt>
      <trkpt lat="43.53628" lon="5.89404">
        <ele>376</ele>
        <time>2018-06-10T05:56:56Z</time>
      </trkpt>
      <trkpt lat="43.53649" lon="5.894">
        <ele>377</ele>
        <time>2018-06-10T05:56:59Z</time>
      </trkpt>
      <trkpt lat="43.53669" lon="5.89392">
        <ele>378</ele>
        <time>2018-06-10T05:57:02Z</time>
      </trkpt>
      <trkpt lat="43.53686" lon="5.89382">
        <ele>379</ele>
        <time>2018-06-10T05:57:05Z</time>
      </trkpt>
      <trkpt lat="43.53703" lon="5.89373">
        <ele>379</ele>
        <time>2018-06-10T05:57:08Z</time>
      </trkpt>
      <trkpt lat="43.53724" lon="5.89366">
        <ele>379</ele>
        <time>2018-06-10T05:57:12Z</time>
      </trkpt>
      <trkpt lat="43.53743" lon="5.89356">
        <ele>379</ele>
        <time>2018-06-10T05:57:16Z</time>
      </trkpt>
      <trkpt lat="43.53762" lon="5.89345">
        <ele>380</ele>
        <time>2018-06-10T05:57:20Z</time>
      </trkpt>
      <trkpt lat="43.5378" lon="5.89338">
        <ele>381</ele>
        <time>2018-06-10T05:57:24Z</time>
      </trkpt>
      <trkpt lat="43.538" lon="5.89328">
        <ele>380</ele>
        <time>2018-06-10T05:57:29Z</time>
      </trkpt>
      <trkpt lat="43.5382" lon="5.89317">
        <ele>380</ele>
        <time>2018-06-10T05:57:34Z</time>
      </trkpt>
      <trkpt lat="43.5384" lon="5.89305">
        <ele>380</ele>
        <time>2018-06-10T05:57:40Z</time>
      </trkpt>
      <trkpt lat="43.5386" lon="5.89302">
        <ele>380</ele>
        <time>2018-06-10T05:57:46Z</time>
      </trkpt>
      <trkpt lat="43.53879" lon="5.89304">
        <ele>380</ele>
        <time>2018-06-10T05:57:52Z</time>
      </trkpt>
      <trkpt lat="43.53897" lon="5.89304">
        <ele>380</ele>
        <time>2018-06-10T05:57:58Z</time>
      </trkpt>
      <trkpt lat="43.53916" lon="5.89302">
        <ele>380</ele>
        <time>2018-06-10T05:58:04Z</time>
      </trkpt>
      <trkpt lat="43.53934" lon="5.89306">
        <ele>381</ele>
        <time>2018-06-10T05:58:08Z</time>
      </trkpt>
      <trkpt lat="43.53952" lon="5.89317">
        <ele>381</ele>
        <time>2018-06-10T05:58:12Z</time>
      </trkpt>
      <trkpt lat="43.53968" lon="5.89331">
        <ele>381</ele>
        <time>2018-06-10T05:58:16Z</time>
      </trkpt>
      <trkpt lat="43.53988" lon="5.89338">
        <ele>382</ele>
        <time>2018-06-10T05:58:21Z</time>
      </trkpt>
      <trkpt lat="43.54007" lon="5.89344">
        <ele>382</ele>
        <time>2018-06-10T05:58:28Z</time>
      </trkpt>
      <trkpt lat="43.54027" lon="5.8935">
        <ele>382</ele>
        <time>2018-06-10T05:58:36Z</time>
      </trkpt>
      <trkpt lat="43.54046" lon="5.89357">
        <ele>383</ele>
        <time>2018-06-10T05:58:44Z</time>
      </trkpt>
      <trkpt lat="43.54067" lon="5.89358">
        <ele>383</ele>
        <time>2018-06-10T05:58:51Z</time>
      </trkpt>
      <trkpt lat="43.54089" lon="5.8935">
        <ele>385</ele>
        <time>2018-06-10T05:58:55Z</time>
      </trkpt>
      <trkpt lat="43.54106" lon="5.89342">
        <ele>385</ele>
        <time>2018-06-10T05:58:58Z</time>
      </trkpt>
      <trkpt lat="43.54127" lon="5.8933">
        <ele>389</ele>
        <time>2018-06-10T05:59:02Z</time>
      </trkpt>
      <trkpt lat="43.54146" lon="5.89319">
        <ele>389</ele>
        <time>2018-06-10T05:59:06Z</time>
      </trkpt>
      <trkpt lat="43.54165" lon="5.89315">
        <ele>389</ele>
        <time>2018-06-10T05:59:10Z</time>
      </trkpt>
      <trkpt lat="43.54185" lon="5.89318">
        <ele>390</ele>
        <time>2018-06-10T05:59:14Z</time>
      </trkpt>
      <trkpt lat="43.54204" lon="5.89323">
        <ele>390</ele>
        <time>2018-06-10T05:59:18Z</time>
      </trkpt>
      <trkpt lat="43.54223" lon="5.89332">
        <ele>389</ele>
        <time>2018-06-10T05:59:23Z</time>
      </trkpt>
      <trkpt lat="43.5424" lon="5.89342">
        <ele>385</ele>
        <time>2018-06-10T05:59:28Z</time>
      </trkpt>
      <trkpt lat="43.54259" lon="5.89346">
        <ele>385</ele>
        <time>2018-06-10T05:59:35Z</time>
      </trkpt>
      <trkpt lat="43.54277" lon="5.89344">
        <ele>386</ele>
        <time>2018-06-10T05:59:42Z</time>
      </trkpt>
      <trkpt lat="43.54296" lon="5.89347">
        <ele>386</ele>
        <time>2018-06-10T05:59:49Z</time>
      </trkpt>
      <trkpt lat="43.54317" lon="5.89352">
        <ele>386</ele>
        <time>2018-06-10T05:59:56Z</time>
      </trkpt>
      <trkpt lat="43.54337" lon="5.89357">
        <ele>388</ele>
        <time>2018-06-10T06:00:03Z</time>
      </trkpt>
      <trkpt lat="43.54358" lon="5.89358">
        <ele>388</ele>
        <time>2018-06-10T06:00:09Z</time>
      </trkpt>
      <trkpt lat="43.54379" lon="5.8936">
        <ele>388</ele>
        <time>2018-06-10T06:00:15Z</time>
      </trkpt>
      <trkpt lat="43.54401" lon="5.89356">
        <ele>389</ele>
        <time>2018-06-10T06:00:20Z</time>
      </trkpt>
      <trkpt lat="43.54421" lon="5.89351">
        <ele>392</ele>
        <time>2018-06-10T06:00:25Z</time>
      </trkpt>
      <trkpt lat="43.54416" lon="5.89378">
        <ele>388</ele>
        <time>2018-06-10T06:00:33Z</time>
      </trkpt>
      <trkpt lat="43.54408" lon="5.89402">
        <ele>388</ele>
        <time>2018-06-10T06:00:40Z</time>
      </trkpt>
      <trkpt lat="43.54416" lon="5.89425">
        <ele>389</ele>
        <time>2018-06-10T06:00:49Z</time>
      </trkpt>
      <trkpt lat="43.54423" lon="5.89449">
        <ele>396</ele>
        <time>2018-06-10T06:00:57Z</time>
      </trkpt>
      <trkpt lat="43.5443" lon="5.89475">
        <ele>397</ele>
        <time>2018-06-10T06:01:05Z</time>
      </trkpt>
      <trkpt lat="43.54432" lon="5.89503">
        <ele>397</ele>
        <time>2018-06-10T06:01:12Z</time>
      </trkpt>
      <trkpt lat="43.5443" lon="5.8953">
        <ele>399</ele>
        <time>2018-06-10T06:01:18Z</time>
      </trkpt>
      <trkpt lat="43.54424" lon="5.89557">
        <ele>399</ele>
        <time>2018-06-10T06:01:24Z</time>
      </trkpt>
      <trkpt lat="43.54416" lon="5.89583">
        <ele>395</ele>
        <time>2018-06-10T06:01:30Z</time>
      </trkpt>
      <trkpt lat="43.54403" lon="5.89605">
        <ele>397</ele>
        <time>2018-06-10T06:01:36Z</time>
      </trkpt>
      <trkpt lat="43.54393" lon="5.89629">
        <ele>398</ele>
        <time>2018-06-10T06:01:42Z</time>
      </trkpt>
      <trkpt lat="43.5438" lon="5.89649">
        <ele>398</ele>
        <time>2018-06-10T06:01:48Z</time>
      </trkpt>
      <trkpt lat="43.54372" lon="5.89675">
        <ele>400</ele>
        <time>2018-06-10T06:01:55Z</time>
      </trkpt>
      <trkpt lat="43.54374" lon="5.89701">
        <ele>400</ele>
        <time>2018-06-10T06:02:01Z</time>
      </trkpt>
      <trkpt lat="43.54387" lon="5.89718">
        <ele>400</ele>
        <time>2018-06-10T06:02:08Z</time>
      </trkpt>
      <trkpt lat="43.54405" lon="5.89729">
        <ele>399</ele>
        <time>2018-06-10T06:02:14Z</time>
      </trkpt>
      <trkpt lat="43.54425" lon="5.89733">
        <ele>399</ele>
        <time>2018-06-10T06:02:20Z</time>
      </trkpt>
      <trkpt lat="43.54444" lon="5.89737">
        <ele>400</ele>
        <time>2018-06-10T06:02:26Z</time>
      </trkpt>
      <trkpt lat="43.54463" lon="5.89744">
        <ele>401</ele>
        <time>2018-06-10T06:02:34Z</time>
      </trkpt>
      <trkpt lat="43.54477" lon="5.89727">
        <ele>402</ele>
        <time>2018-06-10T06:02:40Z</time>
      </trkpt>
      <trkpt lat="43.54492" lon="5.89711">
        <ele>402</ele>
        <time>2018-06-10T06:02:46Z</time>
      </trkpt>
      <trkpt lat="43.54508" lon="5.89695">
        <ele>405</ele>
        <time>2018-06-10T06:02:52Z</time>
      </trkpt>
      <trkpt lat="43.54525" lon="5.89681">
        <ele>405</ele>
        <time>2018-06-10T06:02:58Z</time>
      </trkpt>
      <trkpt lat="43.54543" lon="5.89672">
        <ele>405</ele>
        <time>2018-06-10T06:03:09Z</time>
      </trkpt>
      <trkpt lat="43.54559" lon="5.89659">
        <ele>405</ele>
        <time>2018-06-10T06:03:16Z</time>
      </trkpt>
      <trkpt lat="43.54577" lon="5.89645">
        <ele>405</ele>
        <time>2018-06-10T06:03:23Z</time>
      </trkpt>
      <trkpt lat="43.54597" lon="5.89635">
        <ele>405</ele>
        <time>2018-06-10T06:03:30Z</time>
      </trkpt>
      <trkpt lat="43.54615" lon="5.89633">
        <ele>405</ele>
        <time>2018-06-10T06:03:36Z</time>
      </trkpt>
      <trkpt lat="43.54633" lon="5.89642">
        <ele>405</ele>
        <time>2018-06-10T06:03:42Z</time>
      </trkpt>
      <trkpt lat="43.54648" lon="5.89659">
        <ele>404</ele>
        <time>2018-06-10T06:03:50Z</time>
      </trkpt>
      <trkpt lat="43.54654" lon="5.89685">
        <ele>403</ele>
        <time>2018-06-10T06:03:57Z</time>
      </trkpt>
      <trkpt lat="43.54651" lon="5.89712">
        <ele>404</ele>
        <time>2018-06-10T06:04:03Z</time>
      </trkpt>
      <trkpt lat="43.54648" lon="5.89738">
        <ele>404</ele>
        <time>2018-06-10T06:04:09Z</time>
      </trkpt>
      <trkpt lat="43.54645" lon="5.89763">
        <ele>407</ele>
        <time>2018-06-10T06:04:15Z</time>
      </trkpt>
      <trkpt lat="43.54644" lon="5.8979">
        <ele>408</ele>
        <time>2018-06-10T06:04:21Z</time>
      </trkpt>
      <trkpt lat="43.54654" lon="5.89815">
        <ele>407</ele>
        <time>2018-06-10T06:04:28Z</time>
      </trkpt>
      <trkpt lat="43.54667" lon="5.89835">
        <ele>405</ele>
        <time>2018-06-10T06:04:34Z</time>
      </trkpt>
      <trkpt lat="43.54678" lon="5.89856">
        <ele>407</ele>
        <time>2018-06-10T06:04:41Z</time>
      </trkpt>
      <trkpt lat="43.54681" lon="5.89881">
        <ele>407</ele>
        <time>2018-06-10T06:04:48Z</time>
      </trkpt>
      <trkpt lat="43.5469" lon="5.89907">
        <ele>408</ele>
        <time>2018-06-10T06:04:57Z</time>
      </trkpt>
      <trkpt lat="43.54709" lon="5.89917">
        <ele>409</ele>
        <time>2018-06-10T06:05:03Z</time>
      </trkpt>
      <trkpt lat="43.54711" lon="5.89943">
        <ele>410</ele>
        <time>2018-06-10T06:05:10Z</time>
      </trkpt>
      <trkpt lat="43.54715" lon="5.8997">
        <ele>410</ele>
        <time>2018-06-10T06:05:18Z</time>
      </trkpt>
      <trkpt lat="43.54718" lon="5.89997">
        <ele>410</ele>
        <time>2018-06-10T06:05:26Z</time>
      </trkpt>
      <trkpt lat="43.54735" lon="5.90006">
        <ele>412</ele>
        <time>2018-06-10T06:05:37Z</time>
      </trkpt>
      <trkpt lat="43.54753" lon="5.90001">
        <ele>410</ele>
        <time>2018-06-10T06:05:57Z</time>
      </trkpt>
      <trkpt lat="43.54772" lon="5.90002">
        <ele>411</ele>
        <time>2018-06-10T06:06:08Z</time>
      </trkpt>
      <trkpt lat="43.5479" lon="5.89994">
        <ele>413</ele>
        <time>2018-06-10T06:06:21Z</time>
      </trkpt>
      <trkpt lat="43.54808" lon="5.8999">
        <ele>414</ele>
        <time>2018-06-10T06:06:32Z</time>
      </trkpt>
      <trkpt lat="43.54827" lon="5.89985">
        <ele>414</ele>
        <time>2018-06-10T06:06:43Z</time>
      </trkpt>
      <trkpt lat="43.54846" lon="5.89985">
        <ele>418</ele>
        <time>2018-06-10T06:06:54Z</time>
      </trkpt>
      <trkpt lat="43.54865" lon="5.89981">
        <ele>419</ele>
        <time>2018-06-10T06:07:05Z</time>
      </trkpt>
      <trkpt lat="43.54884" lon="5.89977">
        <ele>420</ele>
        <time>2018-06-10T06:07:16Z</time>
      </trkpt>
      <trkpt lat="43.54902" lon="5.89985">
        <ele>421</ele>
        <time>2018-06-10T06:07:26Z</time>
      </trkpt>
      <trkpt lat="43.54914" lon="5.90004">
        <ele>422</ele>
        <time>2018-06-10T06:07:34Z</time>
      </trkpt>
      <trkpt lat="43.54926" lon="5.90023">
        <ele>422</ele>
        <time>2018-06-10T06:07:41Z</time>
      </trkpt>
      <trkpt lat="43.54942" lon="5.90035">
        <ele>422</ele>
        <time>2018-06-10T06:07:47Z</time>
      </trkpt>
      <trkpt lat="43.5496" lon="5.90044">
        <ele>422</ele>
        <time>2018-06-10T06:07:52Z</time>
      </trkpt>
      <trkpt lat="43.54976" lon="5.90055">
        <ele>421</ele>
        <time>2018-06-10T06:07:56Z</time>
      </trkpt>
      <trkpt lat="43.54993" lon="5.90069">
        <ele>421</ele>
        <time>2018-06-10T06:08:01Z</time>
      </trkpt>
      <trkpt lat="43.55013" lon="5.90075">
        <ele>422</ele>
        <time>2018-06-10T06:08:07Z</time>
      </trkpt>
      <trkpt lat="43.55032" lon="5.90074">
        <ele>423</ele>
        <time>2018-06-10T06:08:14Z</time>
      </trkpt>
      <trkpt lat="43.55051" lon="5.90072">
        <ele>423</ele>
        <time>2018-06-10T06:08:21Z</time>
      </trkpt>
      <trkpt lat="43.55069" lon="5.90081">
        <ele>424</ele>
        <time>2018-06-10T06:08:29Z</time>
      </trkpt>
      <trkpt lat="43.55082" lon="5.90102">
        <ele>423</ele>
        <time>2018-06-10T06:08:37Z</time>
      </trkpt>
      <trkpt lat="43.55095" lon="5.90105">
        <ele>425</ele>
        <time>2018-06-10T06:11:05Z</time>
      </trkpt>
      <trkpt lat="43.55115" lon="5.90113">
        <ele>425</ele>
        <time>2018-06-10T06:12:23Z</time>
      </trkpt>
      <trkpt lat="43.55133" lon="5.90116">
        <ele>426</ele>
        <time>2018-06-10T06:12:30Z</time>
      </trkpt>
      <trkpt lat="43.55148" lon="5.90132">
        <ele>426</ele>
        <time>2018-06-10T06:12:39Z</time>
      </trkpt>
      <trkpt lat="43.55164" lon="5.90144">
        <ele>427</ele>
        <time>2018-06-10T06:12:56Z</time>
      </trkpt>
      <trkpt lat="43.55182" lon="5.9014">
        <ele>430</ele>
        <time>2018-06-10T06:13:11Z</time>
      </trkpt>
      <trkpt lat="43.55201" lon="5.90135">
        <ele>430</ele>
        <time>2018-06-10T06:13:26Z</time>
      </trkpt>
      <trkpt lat="43.55219" lon="5.90128">
        <ele>431</ele>
        <time>2018-06-10T06:13:36Z</time>
      </trkpt>
      <trkpt lat="43.55231" lon="5.9011">
        <ele>431</ele>
        <time>2018-06-10T06:13:46Z</time>
      </trkpt>
      <trkpt lat="43.55248" lon="5.90097">
        <ele>431</ele>
        <time>2018-06-10T06:13:55Z</time>
      </trkpt>
      <trkpt lat="43.55266" lon="5.9009">
        <ele>433</ele>
        <time>2018-06-10T06:14:03Z</time>
      </trkpt>
      <trkpt lat="43.55284" lon="5.90084">
        <ele>434</ele>
        <time>2018-06-10T06:14:12Z</time>
      </trkpt>
      <trkpt lat="43.55302" lon="5.90077">
        <ele>435</ele>
        <time>2018-06-10T06:14:22Z</time>
      </trkpt>
      <trkpt lat="43.55319" lon="5.90063">
        <ele>436</ele>
        <time>2018-06-10T06:14:31Z</time>
      </trkpt>
      <trkpt lat="43.55335" lon="5.90049">
        <ele>439</ele>
        <time>2018-06-10T06:14:40Z</time>
      </trkpt>
      <trkpt lat="43.55355" lon="5.90043">
        <ele>439</ele>
        <time>2018-06-10T06:14:49Z</time>
      </trkpt>
      <trkpt lat="43.55373" lon="5.9005">
        <ele>439</ele>
        <time>2018-06-10T06:14:57Z</time>
      </trkpt>
      <trkpt lat="43.5539" lon="5.90065">
        <ele>439</ele>
        <time>2018-06-10T06:15:04Z</time>
      </trkpt>
      <trkpt lat="43.55409" lon="5.90074">
        <ele>438</ele>
        <time>2018-06-10T06:15:10Z</time>
      </trkpt>
      <trkpt lat="43.5543" lon="5.9008">
        <ele>439</ele>
        <time>2018-06-10T06:15:17Z</time>
      </trkpt>
      <trkpt lat="43.55451" lon="5.90085">
        <ele>438</ele>
        <time>2018-06-10T06:15:23Z</time>
      </trkpt>
      <trkpt lat="43.55469" lon="5.90083">
        <ele>439</ele>
        <time>2018-06-10T06:18:31Z</time>
      </trkpt>
      <trkpt lat="43.55487" lon="5.90072">
        <ele>439</ele>
        <time>2018-06-10T06:18:40Z</time>
      </trkpt>
      <trkpt lat="43.55507" lon="5.90077">
        <ele>439</ele>
        <time>2018-06-10T06:18:49Z</time>
      </trkpt>
      <trkpt lat="43.55525" lon="5.90089">
        <ele>439</ele>
        <time>2018-06-10T06:18:56Z</time>
      </trkpt>
      <trkpt lat="43.55532" lon="5.90113">
        <ele>439</ele>
        <time>2018-06-10T06:19:04Z</time>
      </trkpt>
      <trkpt lat="43.55549" lon="5.90127">
        <ele>439</ele>
        <time>2018-06-10T06:19:12Z</time>
      </trkpt>
      <trkpt lat="43.55565" lon="5.90145">
        <ele>439</ele>
        <time>2018-06-10T06:19:17Z</time>
      </trkpt>
      <trkpt lat="43.55577" lon="5.90165">
        <ele>438</ele>
        <time>2018-06-10T06:19:22Z</time>
      </trkpt>
      <trkpt lat="43.55586" lon="5.9019">
        <ele>439</ele>
        <time>2018-06-10T06:19:28Z</time>
      </trkpt>
      <trkpt lat="43.55602" lon="5.90209">
        <ele>440</ele>
        <time>2018-06-10T06:19:34Z</time>
      </trkpt>
      <trkpt lat="43.55619" lon="5.90218">
        <ele>441</ele>
        <time>2018-06-10T06:19:41Z</time>
      </trkpt>
      <trkpt lat="43.55634" lon="5.90238">
        <ele>441</ele>
        <time>2018-06-10T06:19:48Z</time>
      </trkpt>
      <trkpt lat="43.55652" lon="5.90237">
        <ele>442</ele>
        <time>2018-06-10T06:19:55Z</time>
      </trkpt>
      <trkpt lat="43.55671" lon="5.9023">
        <ele>444</ele>
        <time>2018-06-10T06:20:04Z</time>
      </trkpt>
      <trkpt lat="43.55689" lon="5.90241">
        <ele>444</ele>
        <time>2018-06-10T06:20:12Z</time>
      </trkpt>
      <trkpt lat="43.55708" lon="5.9025">
        <ele>445</ele>
        <time>2018-06-10T06:20:20Z</time>
      </trkpt>
      <trkpt lat="43.55723" lon="5.90263">
        <ele>445</ele>
        <time>2018-06-10T06:20:25Z</time>
      </trkpt>
      <trkpt lat="43.55748" lon="5.90284">
        <ele>445</ele>
        <time>2018-06-10T06:23:14Z</time>
      </trkpt>
      <trkpt lat="43.55766" lon="5.90296">
        <ele>445</ele>
        <time>2018-06-10T06:23:20Z</time>
      </trkpt>
      <trkpt lat="43.55785" lon="5.90301">
        <ele>445</ele>
        <time>2018-06-10T06:23:26Z</time>
      </trkpt>
      <trkpt lat="43.55803" lon="5.90307">
        <ele>445</ele>
        <time>2018-06-10T06:23:32Z</time>
      </trkpt>
      <trkpt lat="43.5582" lon="5.90317">
        <ele>445</ele>
        <time>2018-06-10T06:23:37Z</time>
      </trkpt>
      <trkpt lat="43.55839" lon="5.90323">
        <ele>444</ele>
        <time>2018-06-10T06:23:41Z</time>
      </trkpt>
      <trkpt lat="43.55858" lon="5.90325">
        <ele>445</ele>
        <time>2018-06-10T06:23:45Z</time>
      </trkpt>
      <trkpt lat="43.55877" lon="5.90331">
        <ele>444</ele>
        <time>2018-06-10T06:23:51Z</time>
      </trkpt>
      <trkpt lat="43.55895" lon="5.90336">
        <ele>443</ele>
        <time>2018-06-10T06:23:56Z</time>
      </trkpt>
      <trkpt lat="43.55913" lon="5.90332">
        <ele>443</ele>
        <time>2018-06-10T06:24:03Z</time>
      </trkpt>
      <trkpt lat="43.55931" lon="5.90328">
        <ele>445</ele>
        <time>2018-06-10T06:24:10Z</time>
      </trkpt>
      <trkpt lat="43.55949" lon="5.90336">
        <ele>445</ele>
        <time>2018-06-10T06:24:18Z</time>
      </trkpt>
      <trkpt lat="43.55967" lon="5.90342">
        <ele>446</ele>
        <time>2018-06-10T06:24:27Z</time>
      </trkpt>
      <trkpt lat="43.55985" lon="5.90342">
        <ele>447</ele>
        <time>2018-06-10T06:24:35Z</time>
      </trkpt>
      <trkpt lat="43.56003" lon="5.9033">
        <ele>448</ele>
        <time>2018-06-10T06:24:43Z</time>
      </trkpt>
      <trkpt lat="43.56021" lon="5.90324">
        <ele>449</ele>
        <time>2018-06-10T06:24:50Z</time>
      </trkpt>
      <trkpt lat="43.56041" lon="5.90312">
        <ele>450</ele>
        <time>2018-06-10T06:24:57Z</time>
      </trkpt>
      <trkpt lat="43.56059" lon="5.90301">
        <ele>450</ele>
        <time>2018-06-10T06:25:03Z</time>
      </trkpt>
      <trkpt lat="43.56079" lon="5.90294">
        <ele>451</ele>
        <time>2018-06-10T06:25:10Z</time>
      </trkpt>
      <trkpt lat="43.56098" lon="5.90292">
        <ele>453</ele>
        <time>2018-06-10T06:25:17Z</time>
      </trkpt>
      <trkpt lat="43.56117" lon="5.90283">
        <ele>453</ele>
        <time>2018-06-10T06:25:24Z</time>
      </trkpt>
      <trkpt lat="43.56135" lon="5.90275">
        <ele>453</ele>
        <time>2018-06-10T06:25:30Z</time>
      </trkpt>
      <trkpt lat="43.56155" lon="5.90271">
        <ele>454</ele>
        <time>2018-06-10T06:25:39Z</time>
      </trkpt>
      <trkpt lat="43.56175" lon="5.90266">
        <ele>454</ele>
        <time>2018-06-10T06:25:48Z</time>
      </trkpt>
      <trkpt lat="43.56193" lon="5.90252">
        <ele>454</ele>
        <time>2018-06-10T06:25:59Z</time>
      </trkpt>
      <trkpt lat="43.5621" lon="5.90238">
        <ele>454</ele>
        <time>2018-06-10T06:26:05Z</time>
      </trkpt>
      <trkpt lat="43.56228" lon="5.90231">
        <ele>454</ele>
        <time>2018-06-10T06:26:13Z</time>
      </trkpt>
      <trkpt lat="43.56246" lon="5.90221">
        <ele>454</ele>
        <time>2018-06-10T06:26:20Z</time>
      </trkpt>
      <trkpt lat="43.56263" lon="5.90205">
        <ele>455</ele>
        <time>2018-06-10T06:26:26Z</time>
      </trkpt>
      <trkpt lat="43.56283" lon="5.90197">
        <ele>456</ele>
        <time>2018-06-10T06:26:32Z</time>
      </trkpt>
      <trkpt lat="43.56301" lon="5.90188">
        <ele>456</ele>
        <time>2018-06-10T06:26:38Z</time>
      </trkpt>
      <trkpt lat="43.5632" lon="5.90182">
        <ele>456</ele>
        <time>2018-06-10T06:26:44Z</time>
      </trkpt>
      <trkpt lat="43.5634" lon="5.90175">
        <ele>458</ele>
        <time>2018-06-10T06:26:51Z</time>
      </trkpt>
      <trkpt lat="43.5636" lon="5.90169">
        <ele>459</ele>
        <time>2018-06-10T06:26:58Z</time>
      </trkpt>
      <trkpt lat="43.56379" lon="5.90165">
        <ele>460</ele>
        <time>2018-06-10T06:27:05Z</time>
      </trkpt>
      <trkpt lat="43.56397" lon="5.90159">
        <ele>461</ele>
        <time>2018-06-10T06:27:12Z</time>
      </trkpt>
      <trkpt lat="43.56414" lon="5.9015">
        <ele>462</ele>
        <time>2018-06-10T06:27:20Z</time>
      </trkpt>
      <trkpt lat="43.56429" lon="5.90134">
        <ele>465</ele>
        <time>2018-06-10T06:27:29Z</time>
      </trkpt>
      <trkpt lat="43.56448" lon="5.9014">
        <ele>465</ele>
        <time>2018-06-10T06:27:38Z</time>
      </trkpt>
      <trkpt lat="43.56467" lon="5.90145">
        <ele>465</ele>
        <time>2018-06-10T06:27:46Z</time>
      </trkpt>
      <trkpt lat="43.56485" lon="5.90135">
        <ele>466</ele>
        <time>2018-06-10T06:27:54Z</time>
      </trkpt>
      <trkpt lat="43.56504" lon="5.90128">
        <ele>466</ele>
        <time>2018-06-10T06:28:01Z</time>
      </trkpt>
      <trkpt lat="43.56525" lon="5.90125">
        <ele>466</ele>
        <time>2018-06-10T06:28:07Z</time>
      </trkpt>
      <trkpt lat="43.56545" lon="5.90119">
        <ele>466</ele>
        <time>2018-06-10T06:28:14Z</time>
      </trkpt>
      <trkpt lat="43.56564" lon="5.90113">
        <ele>465</ele>
        <time>2018-06-10T06:28:20Z</time>
      </trkpt>
      <trkpt lat="43.56579" lon="5.90093">
        <ele>465</ele>
        <time>2018-06-10T06:28:27Z</time>
      </trkpt>
      <trkpt lat="43.56591" lon="5.90073">
        <ele>463</ele>
        <time>2018-06-10T06:28:32Z</time>
      </trkpt>
      <trkpt lat="43.56598" lon="5.90048">
        <ele>462</ele>
        <time>2018-06-10T06:28:36Z</time>
      </trkpt>
      <trkpt lat="43.56611" lon="5.90025">
        <ele>461</ele>
        <time>2018-06-10T06:28:40Z</time>
      </trkpt>
      <trkpt lat="43.56627" lon="5.90012">
        <ele>461</ele>
        <time>2018-06-10T06:28:46Z</time>
      </trkpt>
      <trkpt lat="43.56645" lon="5.90005">
        <ele>460</ele>
        <time>2018-06-10T06:29:01Z</time>
      </trkpt>
      <trkpt lat="43.56665" lon="5.89997">
        <ele>458</ele>
        <time>2018-06-10T06:29:09Z</time>
      </trkpt>
      <trkpt lat="43.56682" lon="5.8999">
        <ele>458</ele>
        <time>2018-06-10T06:29:15Z</time>
      </trkpt>
      <trkpt lat="43.567" lon="5.89982">
        <ele>457</ele>
        <time>2018-06-10T06:29:22Z</time>
      </trkpt>
      <trkpt lat="43.56714" lon="5.8997">
        <ele>457</ele>
        <time>2018-06-10T06:33:59Z</time>
      </trkpt>
      <trkpt lat="43.56734" lon="5.89972">
        <ele>457</ele>
        <time>2018-06-10T06:34:31Z</time>
      </trkpt>
      <trkpt lat="43.56751" lon="5.89961">
        <ele>458</ele>
        <time>2018-06-10T06:34:39Z</time>
      </trkpt>
      <trkpt lat="43.56768" lon="5.89947">
        <ele>458</ele>
        <time>2018-06-10T06:34:49Z</time>
      </trkpt>
      <trkpt lat="43.56782" lon="5.8993">
        <ele>458</ele>
        <time>2018-06-10T06:34:58Z</time>
      </trkpt>
      <trkpt lat="43.56798" lon="5.89918">
        <ele>459</ele>
        <time>2018-06-10T06:35:08Z</time>
      </trkpt>
      <trkpt lat="43.56814" lon="5.89905">
        <ele>459</ele>
        <time>2018-06-10T06:35:20Z</time>
      </trkpt>
      <trkpt lat="43.56829" lon="5.8989">
        <ele>459</ele>
        <time>2018-06-10T06:35:30Z</time>
      </trkpt>
      <trkpt lat="43.56846" lon="5.89878">
        <ele>465</ele>
        <time>2018-06-10T06:35:41Z</time>
      </trkpt>
      <trkpt lat="43.56861" lon="5.89863">
        <ele>466</ele>
        <time>2018-06-10T06:35:54Z</time>
      </trkpt>
      <trkpt lat="43.56876" lon="5.8985">
        <ele>467</ele>
        <time>2018-06-10T06:36:06Z</time>
      </trkpt>
      <trkpt lat="43.56893" lon="5.89836">
        <ele>469</ele>
        <time>2018-06-10T06:36:19Z</time>
      </trkpt>
      <trkpt lat="43.56911" lon="5.89829">
        <ele>472</ele>
        <time>2018-06-10T06:36:33Z</time>
      </trkpt>
      <trkpt lat="43.56928" lon="5.89819">
        <ele>475</ele>
        <time>2018-06-10T06:36:46Z</time>
      </trkpt>
      <trkpt lat="43.56945" lon="5.89811">
        <ele>476</ele>
        <time>2018-06-10T06:36:57Z</time>
      </trkpt>
      <trkpt lat="43.56961" lon="5.89801">
        <ele>477</ele>
        <time>2018-06-10T06:37:07Z</time>
      </trkpt>
      <trkpt lat="43.56978" lon="5.89788">
        <ele>478</ele>
        <time>2018-06-10T06:37:18Z</time>
      </trkpt>
      <trkpt lat="43.56996" lon="5.89788">
        <ele>478</ele>
        <time>2018-06-10T06:37:31Z</time>
      </trkpt>
      <trkpt lat="43.57015" lon="5.89788">
        <ele>485</ele>
        <time>2018-06-10T06:37:44Z</time>
      </trkpt>
      <trkpt lat="43.57033" lon="5.8979">
        <ele>486</ele>
        <time>2018-06-10T06:37:58Z</time>
      </trkpt>
      <trkpt lat="43.57051" lon="5.89785">
        <ele>488</ele>
        <time>2018-06-10T06:38:12Z</time>
      </trkpt>
      <trkpt lat="43.5707" lon="5.89786">
        <ele>489</ele>
        <time>2018-06-10T06:38:26Z</time>
      </trkpt>
      <trkpt lat="43.57088" lon="5.89786">
        <ele>498</ele>
        <time>2018-06-10T06:38:41Z</time>
      </trkpt>
      <trkpt lat="43.57106" lon="5.89793">
        <ele>499</ele>
        <time>2018-06-10T06:38:55Z</time>
      </trkpt>
      <trkpt lat="43.57124" lon="5.898">
        <ele>500</ele>
        <time>2018-06-10T06:39:11Z</time>
      </trkpt>
      <trkpt lat="43.57142" lon="5.89808">
        <ele>502</ele>
        <time>2018-06-10T06:39:40Z</time>
      </trkpt>
      <trkpt lat="43.57159" lon="5.8982">
        <ele>504</ele>
        <time>2018-06-10T06:39:58Z</time>
      </trkpt>
      <trkpt lat="43.57177" lon="5.89822">
        <ele>510</ele>
        <time>2018-06-10T06:40:17Z</time>
      </trkpt>
      <trkpt lat="43.57195" lon="5.89823">
        <ele>513</ele>
        <time>2018-06-10T06:40:37Z</time>
      </trkpt>
      <trkpt lat="43.57212" lon="5.89832">
        <ele>515</ele>
        <time>2018-06-10T06:41:03Z</time>
      </trkpt>
      <trkpt lat="43.57229" lon="5.89823">
        <ele>517</ele>
        <time>2018-06-10T06:41:20Z</time>
      </trkpt>
      <trkpt lat="43.57248" lon="5.8982">
        <ele>518</ele>
        <time>2018-06-10T06:41:45Z</time>
      </trkpt>
      <trkpt lat="43.57265" lon="5.8983">
        <ele>521</ele>
        <time>2018-06-10T06:42:03Z</time>
      </trkpt>
      <trkpt lat="43.57285" lon="5.89833">
        <ele>521</ele>
        <time>2018-06-10T06:45:00Z</time>
      </trkpt>
      <trkpt lat="43.57304" lon="5.89825">
        <ele>521</ele>
        <time>2018-06-10T06:45:08Z</time>
      </trkpt>
      <trkpt lat="43.5732" lon="5.89808">
        <ele>521</ele>
        <time>2018-06-10T06:45:16Z</time>
      </trkpt>
      <trkpt lat="43.57338" lon="5.89792">
        <ele>517</ele>
        <time>2018-06-10T06:45:23Z</time>
      </trkpt>
      <trkpt lat="43.57357" lon="5.8978">
        <ele>517</ele>
        <time>2018-06-10T06:45:28Z</time>
      </trkpt>
      <trkpt lat="43.57373" lon="5.89766">
        <ele>516</ele>
        <time>2018-06-10T06:45:33Z</time>
      </trkpt>
      <trkpt lat="43.57386" lon="5.89748">
        <ele>518</ele>
        <time>2018-06-10T06:45:38Z</time>
      </trkpt>
      <trkpt lat="43.57398" lon="5.89726">
        <ele>518</ele>
        <time>2018-06-10T06:45:44Z</time>
      </trkpt>
      <trkpt lat="43.57412" lon="5.89704">
        <ele>519</ele>
        <time>2018-06-10T06:45:50Z</time>
      </trkpt>
      <trkpt lat="43.57423" lon="5.89685">
        <ele>516</ele>
        <time>2018-06-10T06:45:55Z</time>
      </trkpt>
      <trkpt lat="43.57435" lon="5.89662">
        <ele>519</ele>
        <time>2018-06-10T06:46:01Z</time>
      </trkpt>
      <trkpt lat="43.57454" lon="5.89654">
        <ele>518</ele>
        <time>2018-06-10T06:46:07Z</time>
      </trkpt>
      <trkpt lat="43.57473" lon="5.89646">
        <ele>516</ele>
        <time>2018-06-10T06:46:14Z</time>
      </trkpt>
      <trkpt lat="43.57492" lon="5.89647">
        <ele>515</ele>
        <time>2018-06-10T06:46:23Z</time>
      </trkpt>
      <trkpt lat="43.5751" lon="5.89653">
        <ele>515</ele>
        <time>2018-06-10T06:46:32Z</time>
      </trkpt>
      <trkpt lat="43.57529" lon="5.89653">
        <ele>517</ele>
        <time>2018-06-10T06:46:43Z</time>
      </trkpt>
      <trkpt lat="43.57547" lon="5.89653">
        <ele>519</ele>
        <time>2018-06-10T06:46:55Z</time>
      </trkpt>
      <trkpt lat="43.57565" lon="5.89647">
        <ele>520</ele>
        <time>2018-06-10T06:47:09Z</time>
      </trkpt>
      <trkpt lat="43.57578" lon="5.89627">
        <ele>520</ele>
        <time>2018-06-10T06:47:25Z</time>
      </trkpt>
      <trkpt lat="43.57585" lon="5.89602">
        <ele>527</ele>
        <time>2018-06-10T06:47:39Z</time>
      </trkpt>
      <trkpt lat="43.57588" lon="5.89576">
        <ele>525</ele>
        <time>2018-06-10T06:47:50Z</time>
      </trkpt>
      <trkpt lat="43.57599" lon="5.89553">
        <ele>527</ele>
        <time>2018-06-10T06:48:01Z</time>
      </trkpt>
      <trkpt lat="43.5761" lon="5.89533">
        <ele>527</ele>
        <time>2018-06-10T06:48:10Z</time>
      </trkpt>
      <trkpt lat="43.57618" lon="5.89509">
        <ele>527</ele>
        <time>2018-06-10T06:48:20Z</time>
      </trkpt>
      <trkpt lat="43.57631" lon="5.89488">
        <ele>526</ele>
        <time>2018-06-10T06:48:29Z</time>
      </trkpt>
      <trkpt lat="43.57647" lon="5.89474">
        <ele>527</ele>
        <time>2018-06-10T06:48:37Z</time>
      </trkpt>
      <trkpt lat="43.57665" lon="5.89462">
        <ele>527</ele>
        <time>2018-06-10T06:48:44Z</time>
      </trkpt>
      <trkpt lat="43.57684" lon="5.89451">
        <ele>533</ele>
        <time>2018-06-10T06:48:51Z</time>
      </trkpt>
      <trkpt lat="43.57704" lon="5.89443">
        <ele>534</ele>
        <time>2018-06-10T06:48:57Z</time>
      </trkpt>
      <trkpt lat="43.5772" lon="5.89428">
        <ele>535</ele>
        <time>2018-06-10T06:49:02Z</time>
      </trkpt>
      <trkpt lat="43.57729" lon="5.89403">
        <ele>534</ele>
        <time>2018-06-10T06:49:08Z</time>
      </trkpt>
      <trkpt lat="43.57715" lon="5.89384">
        <ele>533</ele>
        <time>2018-06-10T06:49:15Z</time>
      </trkpt>
      <trkpt lat="43.57705" lon="5.89362">
        <ele>533</ele>
        <time>2018-06-10T06:49:23Z</time>
      </trkpt>
      <trkpt lat="43.577" lon="5.89336">
        <ele>532</ele>
        <time>2018-06-10T06:49:31Z</time>
      </trkpt>
      <trkpt lat="43.577" lon="5.89308">
        <ele>533</ele>
        <time>2018-06-10T06:49:40Z</time>
      </trkpt>
      <trkpt lat="43.5771" lon="5.89286">
        <ele>534</ele>
        <time>2018-06-10T06:49:48Z</time>
      </trkpt>
      <trkpt lat="43.57728" lon="5.89276">
        <ele>535</ele>
        <time>2018-06-10T06:49:57Z</time>
      </trkpt>
      <trkpt lat="43.57745" lon="5.89265">
        <ele>537</ele>
        <time>2018-06-10T06:50:07Z</time>
      </trkpt>
      <trkpt lat="43.57763" lon="5.89256">
        <ele>540</ele>
        <time>2018-06-10T06:50:17Z</time>
      </trkpt>
      <trkpt lat="43.57781" lon="5.89246">
        <ele>540</ele>
        <time>2018-06-10T06:50:27Z</time>
      </trkpt>
      <trkpt lat="43.57801" lon="5.89239">
        <ele>541</ele>
        <time>2018-06-10T06:50:36Z</time>
      </trkpt>
      <trkpt lat="43.5782" lon="5.89233">
        <ele>542</ele>
        <time>2018-06-10T06:50:44Z</time>
      </trkpt>
      <trkpt lat="43.57837" lon="5.89222">
        <ele>547</ele>
        <time>2018-06-10T06:50:51Z</time>
      </trkpt>
      <trkpt lat="43.57855" lon="5.89209">
        <ele>547</ele>
        <time>2018-06-10T06:51:00Z</time>
      </trkpt>
      <trkpt lat="43.57871" lon="5.89197">
        <ele>548</ele>
        <time>2018-06-10T06:51:11Z</time>
      </trkpt>
      <trkpt lat="43.57887" lon="5.89182">
        <ele>548</ele>
        <time>2018-06-10T06:51:22Z</time>
      </trkpt>
      <trkpt lat="43.57904" lon="5.89172">
        <ele>550</ele>
        <time>2018-06-10T06:51:34Z</time>
      </trkpt>
      <trkpt lat="43.57922" lon="5.8916">
        <ele>552</ele>
        <time>2018-06-10T06:51:44Z</time>
      </trkpt>
      <trkpt lat="43.57942" lon="5.89155">
        <ele>552</ele>
        <time>2018-06-10T06:51:53Z</time>
      </trkpt>
      <trkpt lat="43.5796" lon="5.89158">
        <ele>553</ele>
        <time>2018-06-10T06:52:00Z</time>
      </trkpt>
      <trkpt lat="43.57978" lon="5.89159">
        <ele>554</ele>
        <time>2018-06-10T06:52:07Z</time>
      </trkpt>
      <trkpt lat="43.57993" lon="5.89144">
        <ele>554</ele>
        <time>2018-06-10T06:52:14Z</time>
      </trkpt>
      <trkpt lat="43.58008" lon="5.89126">
        <ele>555</ele>
        <time>2018-06-10T06:52:22Z</time>
      </trkpt>
      <trkpt lat="43.58023" lon="5.89109">
        <ele>555</ele>
        <time>2018-06-10T06:52:28Z</time>
      </trkpt>
      <trkpt lat="43.58036" lon="5.89089">
        <ele>555</ele>
        <time>2018-06-10T06:52:34Z</time>
      </trkpt>
      <trkpt lat="43.58046" lon="5.89065">
        <ele>553</ele>
        <time>2018-06-10T06:52:39Z</time>
      </trkpt>
      <trkpt lat="43.58061" lon="5.89044">
        <ele>553</ele>
        <time>2018-06-10T06:52:44Z</time>
      </trkpt>
      <trkpt lat="43.58082" lon="5.89035">
        <ele>552</ele>
        <time>2018-06-10T06:52:48Z</time>
      </trkpt>
      <trkpt lat="43.58099" lon="5.89026">
        <ele>551</ele>
        <time>2018-06-10T06:52:51Z</time>
      </trkpt>
      <trkpt lat="43.58116" lon="5.89013">
        <ele>550</ele>
        <time>2018-06-10T06:52:54Z</time>
      </trkpt>
      <trkpt lat="43.58135" lon="5.89004">
        <ele>550</ele>
        <time>2018-06-10T06:52:57Z</time>
      </trkpt>
      <trkpt lat="43.58155" lon="5.88996">
        <ele>547</ele>
        <time>2018-06-10T06:53:00Z</time>
      </trkpt>
      <trkpt lat="43.58174" lon="5.88984">
        <ele>546</ele>
        <time>2018-06-10T06:53:03Z</time>
      </trkpt>
      <trkpt lat="43.58193" lon="5.88974">
        <ele>545</ele>
        <time>2018-06-10T06:53:06Z</time>
      </trkpt>
      <trkpt lat="43.58212" lon="5.88965">
        <ele>545</ele>
        <time>2018-06-10T06:53:09Z</time>
      </trkpt>
      <trkpt lat="43.58232" lon="5.88961">
        <ele>544</ele>
        <time>2018-06-10T06:53:13Z</time>
      </trkpt>
      <trkpt lat="43.58251" lon="5.88953">
        <ele>544</ele>
        <time>2018-06-10T06:53:20Z</time>
      </trkpt>
      <trkpt lat="43.58271" lon="5.88949">
        <ele>543</ele>
        <time>2018-06-10T06:53:26Z</time>
      </trkpt>
      <trkpt lat="43.5829" lon="5.88951">
        <ele>544</ele>
        <time>2018-06-10T06:53:31Z</time>
      </trkpt>
      <trkpt lat="43.58307" lon="5.88948">
        <ele>544</ele>
        <time>2018-06-10T06:53:36Z</time>
      </trkpt>
      <trkpt lat="43.58326" lon="5.8895">
        <ele>544</ele>
        <time>2018-06-10T06:53:41Z</time>
      </trkpt>
      <trkpt lat="43.58347" lon="5.88948">
        <ele>544</ele>
        <time>2018-06-10T06:53:47Z</time>
      </trkpt>
      <trkpt lat="43.58365" lon="5.88948">
        <ele>545</ele>
        <time>2018-06-10T06:53:52Z</time>
      </trkpt>
      <trkpt lat="43.58385" lon="5.88947">
        <ele>545</ele>
        <time>2018-06-10T06:53:58Z</time>
      </trkpt>
      <trkpt lat="43.58405" lon="5.88951">
        <ele>545</ele>
        <time>2018-06-10T06:54:04Z</time>
      </trkpt>
      <trkpt lat="43.58424" lon="5.88953">
        <ele>546</ele>
        <time>2018-06-10T06:54:09Z</time>
      </trkpt>
      <trkpt lat="43.58443" lon="5.88957">
        <ele>546</ele>
        <time>2018-06-10T06:54:13Z</time>
      </trkpt>
      <trkpt lat="43.58464" lon="5.88961">
        <ele>546</ele>
        <time>2018-06-10T06:54:18Z</time>
      </trkpt>
      <trkpt lat="43.58484" lon="5.88962">
        <ele>546</ele>
        <time>2018-06-10T06:54:23Z</time>
      </trkpt>
      <trkpt lat="43.58501" lon="5.88975">
        <ele>546</ele>
        <time>2018-06-10T06:54:29Z</time>
      </trkpt>
      <trkpt lat="43.5849" lon="5.88996">
        <ele>548</ele>
        <time>2018-06-10T06:54:38Z</time>
      </trkpt>
      <trkpt lat="43.58473" lon="5.89006">
        <ele>549</ele>
        <time>2018-06-10T06:54:44Z</time>
      </trkpt>
      <trkpt lat="43.58456" lon="5.89019">
        <ele>549</ele>
        <time>2018-06-10T06:54:51Z</time>
      </trkpt>
      <trkpt lat="43.58438" lon="5.89031">
        <ele>549</ele>
        <time>2018-06-10T06:54:58Z</time>
      </trkpt>
      <trkpt lat="43.5842" lon="5.89042">
        <ele>549</ele>
        <time>2018-06-10T06:55:05Z</time>
      </trkpt>
      <trkpt lat="43.58406" lon="5.89058">
        <ele>549</ele>
        <time>2018-06-10T06:55:11Z</time>
      </trkpt>
      <trkpt lat="43.58391" lon="5.89078">
        <ele>549</ele>
        <time>2018-06-10T06:55:17Z</time>
      </trkpt>
      <trkpt lat="43.58375" lon="5.89095">
        <ele>550</ele>
        <time>2018-06-10T06:55:22Z</time>
      </trkpt>
      <trkpt lat="43.58362" lon="5.89114">
        <ele>550</ele>
        <time>2018-06-10T06:55:27Z</time>
      </trkpt>
      <trkpt lat="43.58347" lon="5.89133">
        <ele>550</ele>
        <time>2018-06-10T06:55:33Z</time>
      </trkpt>
      <trkpt lat="43.58332" lon="5.89152">
        <ele>551</ele>
        <time>2018-06-10T06:55:39Z</time>
      </trkpt>
      <trkpt lat="43.58317" lon="5.8917">
        <ele>552</ele>
        <time>2018-06-10T06:55:45Z</time>
      </trkpt>
      <trkpt lat="43.58303" lon="5.89188">
        <ele>552</ele>
        <time>2018-06-10T06:55:51Z</time>
      </trkpt>
      <trkpt lat="43.58288" lon="5.89206">
        <ele>552</ele>
        <time>2018-06-10T06:55:57Z</time>
      </trkpt>
      <trkpt lat="43.58272" lon="5.89221">
        <ele>552</ele>
        <time>2018-06-10T06:56:04Z</time>
      </trkpt>
      <trkpt lat="43.58256" lon="5.89233">
        <ele>553</ele>
        <time>2018-06-10T06:56:11Z</time>
      </trkpt>
      <trkpt lat="43.5824" lon="5.89245">
        <ele>555</ele>
        <time>2018-06-10T06:56:19Z</time>
      </trkpt>
      <trkpt lat="43.58224" lon="5.89265">
        <ele>555</ele>
        <time>2018-06-10T06:56:27Z</time>
      </trkpt>
      <trkpt lat="43.58209" lon="5.89284">
        <ele>555</ele>
        <time>2018-06-10T06:56:34Z</time>
      </trkpt>
      <trkpt lat="43.582" lon="5.8931">
        <ele>556</ele>
        <time>2018-06-10T06:56:41Z</time>
      </trkpt>
      <trkpt lat="43.58191" lon="5.89335">
        <ele>554</ele>
        <time>2018-06-10T06:56:48Z</time>
      </trkpt>
      <trkpt lat="43.58183" lon="5.89359">
        <ele>553</ele>
        <time>2018-06-10T06:56:55Z</time>
      </trkpt>
      <trkpt lat="43.58173" lon="5.89382">
        <ele>552</ele>
        <time>2018-06-10T06:57:01Z</time>
      </trkpt>
      <trkpt lat="43.58161" lon="5.89405">
        <ele>557</ele>
        <time>2018-06-10T06:57:07Z</time>
      </trkpt>
      <trkpt lat="43.58151" lon="5.89428">
        <ele>557</ele>
        <time>2018-06-10T06:57:14Z</time>
      </trkpt>
      <trkpt lat="43.58141" lon="5.89452">
        <ele>557</ele>
        <time>2018-06-10T06:57:21Z</time>
      </trkpt>
      <trkpt lat="43.5813" lon="5.89472">
        <ele>557</ele>
        <time>2018-06-10T07:02:30Z</time>
      </trkpt>
      <trkpt lat="43.5812" lon="5.89493">
        <ele>558</ele>
        <time>2018-06-10T07:02:43Z</time>
      </trkpt>
      <trkpt lat="43.58107" lon="5.89513">
        <ele>556</ele>
        <time>2018-06-10T07:02:56Z</time>
      </trkpt>
      <trkpt lat="43.58096" lon="5.89533">
        <ele>555</ele>
        <time>2018-06-10T07:03:05Z</time>
      </trkpt>
      <trkpt lat="43.58088" lon="5.89556">
        <ele>555</ele>
        <time>2018-06-10T07:03:14Z</time>
      </trkpt>
      <trkpt lat="43.58079" lon="5.8958">
        <ele>560</ele>
        <time>2018-06-10T07:03:22Z</time>
      </trkpt>
      <trkpt lat="43.58072" lon="5.89605">
        <ele>559</ele>
        <time>2018-06-10T07:03:29Z</time>
      </trkpt>
      <trkpt lat="43.58066" lon="5.89631">
        <ele>558</ele>
        <time>2018-06-10T07:03:35Z</time>
      </trkpt>
      <trkpt lat="43.58059" lon="5.89658">
        <ele>557</ele>
        <time>2018-06-10T07:03:41Z</time>
      </trkpt>
      <trkpt lat="43.5805" lon="5.89684">
        <ele>551</ele>
        <time>2018-06-10T07:03:47Z</time>
      </trkpt>
      <trkpt lat="43.58042" lon="5.89712">
        <ele>550</ele>
        <time>2018-06-10T07:03:52Z</time>
      </trkpt>
      <trkpt lat="43.58035" lon="5.89735">
        <ele>550</ele>
        <time>2018-06-10T07:03:56Z</time>
      </trkpt>
      <trkpt lat="43.58026" lon="5.89757">
        <ele>546</ele>
        <time>2018-06-10T07:04:00Z</time>
      </trkpt>
      <trkpt lat="43.58017" lon="5.8978">
        <ele>546</ele>
        <time>2018-06-10T07:04:04Z</time>
      </trkpt>
      <trkpt lat="43.58012" lon="5.89804">
        <ele>546</ele>
        <time>2018-06-10T07:04:08Z</time>
      </trkpt>
      <trkpt lat="43.58009" lon="5.89829">
        <ele>550</ele>
        <time>2018-06-10T07:04:14Z</time>
      </trkpt>
      <trkpt lat="43.58002" lon="5.89854">
        <ele>547</ele>
        <time>2018-06-10T07:04:23Z</time>
      </trkpt>
      <trkpt lat="43.57995" lon="5.89879">
        <ele>554</ele>
        <time>2018-06-10T07:04:33Z</time>
      </trkpt>
      <trkpt lat="43.57988" lon="5.89902">
        <ele>554</ele>
        <time>2018-06-10T07:04:42Z</time>
      </trkpt>
      <trkpt lat="43.57982" lon="5.89927">
        <ele>557</ele>
        <time>2018-06-10T07:04:51Z</time>
      </trkpt>
      <trkpt lat="43.57976" lon="5.8995">
        <ele>558</ele>
        <time>2018-06-10T07:04:59Z</time>
      </trkpt>
      <trkpt lat="43.57969" lon="5.89975">
        <ele>559</ele>
        <time>2018-06-10T07:05:08Z</time>
      </trkpt>
      <trkpt lat="43.57964" lon="5.90002">
        <ele>560</ele>
        <time>2018-06-10T07:05:17Z</time>
      </trkpt>
      <trkpt lat="43.57953" lon="5.90025">
        <ele>562</ele>
        <time>2018-06-10T07:05:26Z</time>
      </trkpt>
      <trkpt lat="43.57945" lon="5.90049">
        <ele>563</ele>
        <time>2018-06-10T07:05:34Z</time>
      </trkpt>
      <trkpt lat="43.57939" lon="5.90073">
        <ele>565</ele>
        <time>2018-06-10T07:05:41Z</time>
      </trkpt>
      <trkpt lat="43.57931" lon="5.90098">
        <ele>564</ele>
        <time>2018-06-10T07:05:48Z</time>
      </trkpt>
      <trkpt lat="43.57926" lon="5.90122">
        <ele>561</ele>
        <time>2018-06-10T07:05:55Z</time>
      </trkpt>
      <trkpt lat="43.5792" lon="5.90148">
        <ele>563</ele>
        <time>2018-06-10T07:06:02Z</time>
      </trkpt>
      <trkpt lat="43.57914" lon="5.90172">
        <ele>569</ele>
        <time>2018-06-10T07:06:09Z</time>
      </trkpt>
      <trkpt lat="43.57906" lon="5.90195">
        <ele>567</ele>
        <time>2018-06-10T07:06:16Z</time>
      </trkpt>
      <trkpt lat="43.57897" lon="5.90217">
        <ele>565</ele>
        <time>2018-06-10T07:06:23Z</time>
      </trkpt>
      <trkpt lat="43.57888" lon="5.90242">
        <ele>564</ele>
        <time>2018-06-10T07:06:30Z</time>
      </trkpt>
      <trkpt lat="43.57882" lon="5.90269">
        <ele>560</ele>
        <time>2018-06-10T07:06:37Z</time>
      </trkpt>
      <trkpt lat="43.5788" lon="5.90294">
        <ele>560</ele>
        <time>2018-06-10T07:06:47Z</time>
      </trkpt>
      <trkpt lat="43.57883" lon="5.90323">
        <ele>559</ele>
        <time>2018-06-10T07:06:54Z</time>
      </trkpt>
      <trkpt lat="43.57881" lon="5.90349">
        <ele>558</ele>
        <time>2018-06-10T07:07:00Z</time>
      </trkpt>
      <trkpt lat="43.57877" lon="5.90373">
        <ele>558</ele>
        <time>2018-06-10T07:07:05Z</time>
      </trkpt>
      <trkpt lat="43.57872" lon="5.904">
        <ele>558</ele>
        <time>2018-06-10T07:07:11Z</time>
      </trkpt>
      <trkpt lat="43.57867" lon="5.90427">
        <ele>555</ele>
        <time>2018-06-10T07:07:18Z</time>
      </trkpt>
      <trkpt lat="43.57864" lon="5.90454">
        <ele>554</ele>
        <time>2018-06-10T07:07:24Z</time>
      </trkpt>
      <trkpt lat="43.57864" lon="5.90479">
        <ele>553</ele>
        <time>2018-06-10T07:07:29Z</time>
      </trkpt>
      <trkpt lat="43.57864" lon="5.90504">
        <ele>547</ele>
        <time>2018-06-10T07:08:25Z</time>
      </trkpt>
      <trkpt lat="43.57855" lon="5.90531">
        <ele>546</ele>
        <time>2018-06-10T07:08:33Z</time>
      </trkpt>
      <trkpt lat="43.5785" lon="5.90555">
        <ele>544</ele>
        <time>2018-06-10T07:08:38Z</time>
      </trkpt>
      <trkpt lat="43.5785" lon="5.9058">
        <ele>544</ele>
        <time>2018-06-10T07:09:16Z</time>
      </trkpt>
      <trkpt lat="43.57849" lon="5.90608">
        <ele>539</ele>
        <time>2018-06-10T07:09:22Z</time>
      </trkpt>
      <trkpt lat="43.57849" lon="5.90637">
        <ele>537</ele>
        <time>2018-06-10T07:09:27Z</time>
      </trkpt>
      <trkpt lat="43.57844" lon="5.90664">
        <ele>538</ele>
        <time>2018-06-10T07:09:31Z</time>
      </trkpt>
      <trkpt lat="43.57833" lon="5.90685">
        <ele>538</ele>
        <time>2018-06-10T07:09:35Z</time>
      </trkpt>
      <trkpt lat="43.57816" lon="5.90707">
        <ele>538</ele>
        <time>2018-06-10T07:09:40Z</time>
      </trkpt>
      <trkpt lat="43.57802" lon="5.90724">
        <ele>538</ele>
        <time>2018-06-10T07:09:44Z</time>
      </trkpt>
      <trkpt lat="43.57784" lon="5.90741">
        <ele>537</ele>
        <time>2018-06-10T07:09:49Z</time>
      </trkpt>
      <trkpt lat="43.57769" lon="5.90759">
        <ele>542</ele>
        <time>2018-06-10T07:09:54Z</time>
      </trkpt>
      <trkpt lat="43.57752" lon="5.90774">
        <ele>542</ele>
        <time>2018-06-10T07:10:00Z</time>
      </trkpt>
      <trkpt lat="43.57736" lon="5.90786">
        <ele>536</ele>
        <time>2018-06-10T07:10:06Z</time>
      </trkpt>
      <trkpt lat="43.57717" lon="5.90796">
        <ele>536</ele>
        <time>2018-06-10T07:10:11Z</time>
      </trkpt>
      <trkpt lat="43.577" lon="5.90809">
        <ele>536</ele>
        <time>2018-06-10T07:10:16Z</time>
      </trkpt>
      <trkpt lat="43.57684" lon="5.90831">
        <ele>536</ele>
        <time>2018-06-10T07:10:21Z</time>
      </trkpt>
      <trkpt lat="43.57672" lon="5.90853">
        <ele>542</ele>
        <time>2018-06-10T07:10:25Z</time>
      </trkpt>
      <trkpt lat="43.57661" lon="5.90873">
        <ele>534</ele>
        <time>2018-06-10T07:10:29Z</time>
      </trkpt>
      <trkpt lat="43.57651" lon="5.90895">
        <ele>536</ele>
        <time>2018-06-10T07:10:34Z</time>
      </trkpt>
      <trkpt lat="43.57639" lon="5.90914">
        <ele>536</ele>
        <time>2018-06-10T07:10:39Z</time>
      </trkpt>
      <trkpt lat="43.57623" lon="5.90934">
        <ele>538</ele>
        <time>2018-06-10T07:10:44Z</time>
      </trkpt>
      <trkpt lat="43.5761" lon="5.90956">
        <ele>538</ele>
        <time>2018-06-10T07:10:48Z</time>
      </trkpt>
      <trkpt lat="43.57597" lon="5.90982">
        <ele>537</ele>
        <time>2018-06-10T07:10:52Z</time>
      </trkpt>
      <trkpt lat="43.57587" lon="5.91004">
        <ele>536</ele>
        <time>2018-06-10T07:10:56Z</time>
      </trkpt>
      <trkpt lat="43.57582" lon="5.91029">
        <ele>530</ele>
        <time>2018-06-10T07:11:02Z</time>
      </trkpt>
      <trkpt lat="43.5758" lon="5.91056">
        <ele>530</ele>
        <time>2018-06-10T07:11:07Z</time>
      </trkpt>
      <trkpt lat="43.57585" lon="5.91082">
        <ele>537</ele>
        <time>2018-06-10T07:11:12Z</time>
      </trkpt>
      <trkpt lat="43.57592" lon="5.91106">
        <ele>539</ele>
        <time>2018-06-10T07:11:18Z</time>
      </trkpt>
      <trkpt lat="43.57603" lon="5.9113">
        <ele>540</ele>
        <time>2018-06-10T07:11:24Z</time>
      </trkpt>
      <trkpt lat="43.57619" lon="5.91146">
        <ele>541</ele>
        <time>2018-06-10T07:11:31Z</time>
      </trkpt>
      <trkpt lat="43.57634" lon="5.91163">
        <ele>543</ele>
        <time>2018-06-10T07:11:39Z</time>
      </trkpt>
      <trkpt lat="43.57652" lon="5.91171">
        <ele>542</ele>
        <time>2018-06-10T07:11:48Z</time>
      </trkpt>
      <trkpt lat="43.57671" lon="5.91168">
        <ele>548</ele>
        <time>2018-06-10T07:12:00Z</time>
      </trkpt>
      <trkpt lat="43.57689" lon="5.91163">
        <ele>554</ele>
        <time>2018-06-10T07:12:14Z</time>
      </trkpt>
      <trkpt lat="43.57707" lon="5.91164">
        <ele>557</ele>
        <time>2018-06-10T07:12:27Z</time>
      </trkpt>
      <trkpt lat="43.57726" lon="5.91164">
        <ele>558</ele>
        <time>2018-06-10T07:12:40Z</time>
      </trkpt>
      <trkpt lat="43.57744" lon="5.91163">
        <ele>560</ele>
        <time>2018-06-10T07:12:51Z</time>
      </trkpt>
      <trkpt lat="43.57763" lon="5.91165">
        <ele>562</ele>
        <time>2018-06-10T07:13:02Z</time>
      </trkpt>
      <trkpt lat="43.57782" lon="5.91166">
        <ele>563</ele>
        <time>2018-06-10T07:13:11Z</time>
      </trkpt>
      <trkpt lat="43.578" lon="5.91162">
        <ele>563</ele>
        <time>2018-06-10T07:13:20Z</time>
      </trkpt>
      <trkpt lat="43.5782" lon="5.91158">
        <ele>563</ele>
        <time>2018-06-10T07:13:30Z</time>
      </trkpt>
      <trkpt lat="43.57839" lon="5.91165">
        <ele>560</ele>
        <time>2018-06-10T07:13:39Z</time>
      </trkpt>
      <trkpt lat="43.57847" lon="5.91189">
        <ele>555</ele>
        <time>2018-06-10T07:13:47Z</time>
      </trkpt>
      <trkpt lat="43.57857" lon="5.91214">
        <ele>553</ele>
        <time>2018-06-10T07:13:55Z</time>
      </trkpt>
      <trkpt lat="43.57857" lon="5.9124">
        <ele>554</ele>
        <time>2018-06-10T07:14:03Z</time>
      </trkpt>
      <trkpt lat="43.57848" lon="5.91263">
        <ele>555</ele>
        <time>2018-06-10T07:14:11Z</time>
      </trkpt>
      <trkpt lat="43.57839" lon="5.91287">
        <ele>555</ele>
        <time>2018-06-10T07:14:21Z</time>
      </trkpt>
      <trkpt lat="43.57832" lon="5.91312">
        <ele>562</ele>
        <time>2018-06-10T07:14:31Z</time>
      </trkpt>
      <trkpt lat="43.5782" lon="5.91333">
        <ele>563</ele>
        <time>2018-06-10T07:14:40Z</time>
      </trkpt>
      <trkpt lat="43.57813" lon="5.91358">
        <ele>564</ele>
        <time>2018-06-10T07:14:49Z</time>
      </trkpt>
      <trkpt lat="43.57806" lon="5.91382">
        <ele>564</ele>
        <time>2018-06-10T07:14:58Z</time>
      </trkpt>
      <trkpt lat="43.57797" lon="5.91404">
        <ele>565</ele>
        <time>2018-06-10T07:15:06Z</time>
      </trkpt>
      <trkpt lat="43.57787" lon="5.91427">
        <ele>565</ele>
        <time>2018-06-10T07:15:14Z</time>
      </trkpt>
      <trkpt lat="43.57775" lon="5.91446">
        <ele>565</ele>
        <time>2018-06-10T07:15:22Z</time>
      </trkpt>
      <trkpt lat="43.57761" lon="5.91466">
        <ele>566</ele>
        <time>2018-06-10T07:15:31Z</time>
      </trkpt>
      <trkpt lat="43.5775" lon="5.91488">
        <ele>567</ele>
        <time>2018-06-10T07:15:39Z</time>
      </trkpt>
      <trkpt lat="43.57739" lon="5.9151">
        <ele>566</ele>
        <time>2018-06-10T07:15:47Z</time>
      </trkpt>
      <trkpt lat="43.57727" lon="5.91529">
        <ele>563</ele>
        <time>2018-06-10T07:15:53Z</time>
      </trkpt>
      <trkpt lat="43.57713" lon="5.9155">
        <ele>562</ele>
        <time>2018-06-10T07:15:59Z</time>
      </trkpt>
      <trkpt lat="43.57705" lon="5.91573">
        <ele>561</ele>
        <time>2018-06-10T07:16:06Z</time>
      </trkpt>
      <trkpt lat="43.57701" lon="5.91598">
        <ele>554</ele>
        <time>2018-06-10T07:16:15Z</time>
      </trkpt>
      <trkpt lat="43.57698" lon="5.91627">
        <ele>552</ele>
        <time>2018-06-10T07:16:22Z</time>
      </trkpt>
      <trkpt lat="43.57691" lon="5.91652">
        <ele>550</ele>
        <time>2018-06-10T07:16:29Z</time>
      </trkpt>
      <trkpt lat="43.57682" lon="5.91674">
        <ele>543</ele>
        <time>2018-06-10T07:16:35Z</time>
      </trkpt>
      <trkpt lat="43.57675" lon="5.91701">
        <ele>540</ele>
        <time>2018-06-10T07:16:41Z</time>
      </trkpt>
      <trkpt lat="43.57668" lon="5.91725">
        <ele>539</ele>
        <time>2018-06-10T07:16:46Z</time>
      </trkpt>
      <trkpt lat="43.57658" lon="5.91746">
        <ele>539</ele>
        <time>2018-06-10T07:16:50Z</time>
      </trkpt>
      <trkpt lat="43.57654" lon="5.91771">
        <ele>533</ele>
        <time>2018-06-10T07:16:57Z</time>
      </trkpt>
      <trkpt lat="43.57648" lon="5.91796">
        <ele>530</ele>
        <time>2018-06-10T07:17:03Z</time>
      </trkpt>
      <trkpt lat="43.57646" lon="5.91822">
        <ele>528</ele>
        <time>2018-06-10T07:17:07Z</time>
      </trkpt>
      <trkpt lat="43.57647" lon="5.91847">
        <ele>522</ele>
        <time>2018-06-10T07:17:10Z</time>
      </trkpt>
      <trkpt lat="43.57644" lon="5.91874">
        <ele>519</ele>
        <time>2018-06-10T07:17:14Z</time>
      </trkpt>
      <trkpt lat="43.57638" lon="5.919">
        <ele>518</ele>
        <time>2018-06-10T07:17:20Z</time>
      </trkpt>
      <trkpt lat="43.57624" lon="5.91919">
        <ele>511</ele>
        <time>2018-06-10T07:17:26Z</time>
      </trkpt>
      <trkpt lat="43.57611" lon="5.91943">
        <ele>511</ele>
        <time>2018-06-10T07:17:35Z</time>
      </trkpt>
      <trkpt lat="43.576" lon="5.91963">
        <ele>510</ele>
        <time>2018-06-10T07:17:40Z</time>
      </trkpt>
      <trkpt lat="43.57604" lon="5.91989">
        <ele>508</ele>
        <time>2018-06-10T07:17:44Z</time>
      </trkpt>
      <trkpt lat="43.57611" lon="5.92019">
        <ele>501</ele>
        <time>2018-06-10T07:17:48Z</time>
      </trkpt>
      <trkpt lat="43.57613" lon="5.92044">
        <ele>499</ele>
        <time>2018-06-10T07:17:52Z</time>
      </trkpt>
      <trkpt lat="43.57602" lon="5.9207">
        <ele>499</ele>
        <time>2018-06-10T07:17:56Z</time>
      </trkpt>
      <trkpt lat="43.57599" lon="5.92101">
        <ele>495</ele>
        <time>2018-06-10T07:23:11Z</time>
      </trkpt>
      <trkpt lat="43.57593" lon="5.92125">
        <ele>494</ele>
        <time>2018-06-10T07:23:55Z</time>
      </trkpt>
      <trkpt lat="43.57587" lon="5.92149">
        <ele>495</ele>
        <time>2018-06-10T07:24:00Z</time>
      </trkpt>
      <trkpt lat="43.57588" lon="5.92174">
        <ele>495</ele>
        <time>2018-06-10T07:24:05Z</time>
      </trkpt>
      <trkpt lat="43.57591" lon="5.92201">
        <ele>492</ele>
        <time>2018-06-10T07:24:10Z</time>
      </trkpt>
      <trkpt lat="43.57596" lon="5.92226">
        <ele>491</ele>
        <time>2018-06-10T07:24:15Z</time>
      </trkpt>
      <trkpt lat="43.57605" lon="5.92251">
        <ele>490</ele>
        <time>2018-06-10T07:24:20Z</time>
      </trkpt>
      <trkpt lat="43.57616" lon="5.92276">
        <ele>489</ele>
        <time>2018-06-10T07:24:26Z</time>
      </trkpt>
      <trkpt lat="43.57627" lon="5.92298">
        <ele>489</ele>
        <time>2018-06-10T07:24:32Z</time>
      </trkpt>
      <trkpt lat="43.57639" lon="5.92318">
        <ele>488</ele>
        <time>2018-06-10T07:24:39Z</time>
      </trkpt>
      <trkpt lat="43.57625" lon="5.923">
        <ele>489</ele>
        <time>2018-06-10T07:26:05Z</time>
      </trkpt>
      <trkpt lat="43.57615" lon="5.92277">
        <ele>489</ele>
        <time>2018-06-10T07:26:12Z</time>
      </trkpt>
      <trkpt lat="43.57607" lon="5.92255">
        <ele>490</ele>
        <time>2018-06-10T07:26:19Z</time>
      </trkpt>
      <trkpt lat="43.57597" lon="5.92232">
        <ele>491</ele>
        <time>2018-06-10T07:26:26Z</time>
      </trkpt>
      <trkpt lat="43.57592" lon="5.92205">
        <ele>491</ele>
        <time>2018-06-10T07:26:34Z</time>
      </trkpt>
      <trkpt lat="43.57588" lon="5.9218">
        <ele>494</ele>
        <time>2018-06-10T07:26:41Z</time>
      </trkpt>
      <trkpt lat="43.57587" lon="5.92153">
        <ele>495</ele>
        <time>2018-06-10T07:26:49Z</time>
      </trkpt>
      <trkpt lat="43.57593" lon="5.9213">
        <ele>494</ele>
        <time>2018-06-10T07:26:57Z</time>
      </trkpt>
      <trkpt lat="43.57601" lon="5.92107">
        <ele>494</ele>
        <time>2018-06-10T07:27:07Z</time>
      </trkpt>
      <trkpt lat="43.57615" lon="5.92091">
        <ele>493</ele>
        <time>2018-06-10T07:27:15Z</time>
      </trkpt>
      <trkpt lat="43.57633" lon="5.92079">
        <ele>495</ele>
        <time>2018-06-10T07:27:22Z</time>
      </trkpt>
      <trkpt lat="43.57648" lon="5.92065">
        <ele>494</ele>
        <time>2018-06-10T07:27:28Z</time>
      </trkpt>
      <trkpt lat="43.57655" lon="5.9204">
        <ele>496</ele>
        <time>2018-06-10T07:27:36Z</time>
      </trkpt>
      <trkpt lat="43.57665" lon="5.92018">
        <ele>497</ele>
        <time>2018-06-10T07:27:42Z</time>
      </trkpt>
      <trkpt lat="43.57681" lon="5.92004">
        <ele>489</ele>
        <time>2018-06-10T07:27:45Z</time>
      </trkpt>
      <trkpt lat="43.57695" lon="5.91988">
        <ele>491</ele>
        <time>2018-06-10T07:27:49Z</time>
      </trkpt>
      <trkpt lat="43.57705" lon="5.91966">
        <ele>490</ele>
        <time>2018-06-10T07:28:12Z</time>
      </trkpt>
      <trkpt lat="43.57718" lon="5.91943">
        <ele>489</ele>
        <time>2018-06-10T07:28:21Z</time>
      </trkpt>
      <trkpt lat="43.57735" lon="5.91924">
        <ele>486</ele>
        <time>2018-06-10T07:28:26Z</time>
      </trkpt>
      <trkpt lat="43.5775" lon="5.91907">
        <ele>481</ele>
        <time>2018-06-10T07:28:30Z</time>
      </trkpt>
      <trkpt lat="43.57766" lon="5.91887">
        <ele>480</ele>
        <time>2018-06-10T07:28:35Z</time>
      </trkpt>
      <trkpt lat="43.57777" lon="5.91865">
        <ele>481</ele>
        <time>2018-06-10T07:28:39Z</time>
      </trkpt>
      <trkpt lat="43.57795" lon="5.91849">
        <ele>479</ele>
        <time>2018-06-10T07:28:44Z</time>
      </trkpt>
      <trkpt lat="43.57813" lon="5.91844">
        <ele>477</ele>
        <time>2018-06-10T07:28:48Z</time>
      </trkpt>
      <trkpt lat="43.57832" lon="5.91836">
        <ele>475</ele>
        <time>2018-06-10T07:28:53Z</time>
      </trkpt>
      <trkpt lat="43.5785" lon="5.91818">
        <ele>474</ele>
        <time>2018-06-10T07:28:58Z</time>
      </trkpt>
      <trkpt lat="43.57864" lon="5.91801">
        <ele>473</ele>
        <time>2018-06-10T07:29:02Z</time>
      </trkpt>
      <trkpt lat="43.57875" lon="5.91779">
        <ele>474</ele>
        <time>2018-06-10T07:29:07Z</time>
      </trkpt>
      <trkpt lat="43.57895" lon="5.91761">
        <ele>472</ele>
        <time>2018-06-10T07:29:11Z</time>
      </trkpt>
      <trkpt lat="43.57914" lon="5.91749">
        <ele>472</ele>
        <time>2018-06-10T07:29:14Z</time>
      </trkpt>
      <trkpt lat="43.57933" lon="5.91738">
        <ele>467</ele>
        <time>2018-06-10T07:29:17Z</time>
      </trkpt>
      <trkpt lat="43.57951" lon="5.91727">
        <ele>465</ele>
        <time>2018-06-10T07:29:20Z</time>
      </trkpt>
      <trkpt lat="43.57969" lon="5.9171">
        <ele>464</ele>
        <time>2018-06-10T07:29:24Z</time>
      </trkpt>
      <trkpt lat="43.57985" lon="5.91696">
        <ele>463</ele>
        <time>2018-06-10T07:29:27Z</time>
      </trkpt>
      <trkpt lat="43.58" lon="5.91679">
        <ele>454</ele>
        <time>2018-06-10T07:29:31Z</time>
      </trkpt>
      <trkpt lat="43.58016" lon="5.91655">
        <ele>456</ele>
        <time>2018-06-10T07:29:36Z</time>
      </trkpt>
      <trkpt lat="43.58028" lon="5.91632">
        <ele>456</ele>
        <time>2018-06-10T07:29:40Z</time>
      </trkpt>
      <trkpt lat="43.58044" lon="5.91607">
        <ele>455</ele>
        <time>2018-06-10T07:29:45Z</time>
      </trkpt>
      <trkpt lat="43.58062" lon="5.91588">
        <ele>452</ele>
        <time>2018-06-10T07:29:48Z</time>
      </trkpt>
      <trkpt lat="43.58079" lon="5.91568">
        <ele>456</ele>
        <time>2018-06-10T07:29:51Z</time>
      </trkpt>
      <trkpt lat="43.58093" lon="5.91544">
        <ele>444</ele>
        <time>2018-06-10T07:29:55Z</time>
      </trkpt>
      <trkpt lat="43.58103" lon="5.91524">
        <ele>446</ele>
        <time>2018-06-10T07:29:58Z</time>
      </trkpt>
      <trkpt lat="43.58118" lon="5.91501">
        <ele>444</ele>
        <time>2018-06-10T07:30:02Z</time>
      </trkpt>
      <trkpt lat="43.58133" lon="5.91483">
        <ele>448</ele>
        <time>2018-06-10T07:30:05Z</time>
      </trkpt>
      <trkpt lat="43.5815" lon="5.9146">
        <ele>448</ele>
        <time>2018-06-10T07:30:09Z</time>
      </trkpt>
      <trkpt lat="43.58163" lon="5.91442">
        <ele>448</ele>
        <time>2018-06-10T07:30:13Z</time>
      </trkpt>
      <trkpt lat="43.58184" lon="5.91429">
        <ele>434</ele>
        <time>2018-06-10T07:30:17Z</time>
      </trkpt>
      <trkpt lat="43.58203" lon="5.91416">
        <ele>435</ele>
        <time>2018-06-10T07:30:21Z</time>
      </trkpt>
      <trkpt lat="43.5822" lon="5.91406">
        <ele>432</ele>
        <time>2018-06-10T07:30:24Z</time>
      </trkpt>
      <trkpt lat="43.5824" lon="5.91408">
        <ele>428</ele>
        <time>2018-06-10T07:30:29Z</time>
      </trkpt>
      <trkpt lat="43.5826" lon="5.91415">
        <ele>422</ele>
        <time>2018-06-10T07:30:34Z</time>
      </trkpt>
      <trkpt lat="43.5828" lon="5.91421">
        <ele>419</ele>
        <time>2018-06-10T07:30:39Z</time>
      </trkpt>
      <trkpt lat="43.583" lon="5.91437">
        <ele>418</ele>
        <time>2018-06-10T07:30:44Z</time>
      </trkpt>
      <trkpt lat="43.58313" lon="5.91455">
        <ele>417</ele>
        <time>2018-06-10T07:30:47Z</time>
      </trkpt>
      <trkpt lat="43.5833" lon="5.91471">
        <ele>416</ele>
        <time>2018-06-10T07:30:51Z</time>
      </trkpt>
      <trkpt lat="43.58349" lon="5.91472">
        <ele>415</ele>
        <time>2018-06-10T07:30:58Z</time>
      </trkpt>
      <trkpt lat="43.58369" lon="5.91464">
        <ele>415</ele>
        <time>2018-06-10T07:31:04Z</time>
      </trkpt>
      <trkpt lat="43.58391" lon="5.91466">
        <ele>415</ele>
        <time>2018-06-10T07:31:09Z</time>
      </trkpt>
      <trkpt lat="43.5841" lon="5.91452">
        <ele>415</ele>
        <time>2018-06-10T07:31:14Z</time>
      </trkpt>
      <trkpt lat="43.58429" lon="5.91439">
        <ele>412</ele>
        <time>2018-06-10T07:31:19Z</time>
      </trkpt>
      <trkpt lat="43.58434" lon="5.91409">
        <ele>409</ele>
        <time>2018-06-10T07:31:25Z</time>
      </trkpt>
      <trkpt lat="43.58419" lon="5.91396">
        <ele>409</ele>
        <time>2018-06-10T07:31:30Z</time>
      </trkpt>
      <trkpt lat="43.584" lon="5.91391">
        <ele>411</ele>
        <time>2018-06-10T07:31:36Z</time>
      </trkpt>
      <trkpt lat="43.58412" lon="5.9137">
        <ele>409</ele>
        <time>2018-06-10T07:31:43Z</time>
      </trkpt>
      <trkpt lat="43.58426" lon="5.91351">
        <ele>405</ele>
        <time>2018-06-10T07:31:50Z</time>
      </trkpt>
      <trkpt lat="43.58441" lon="5.91332">
        <ele>402</ele>
        <time>2018-06-10T07:31:56Z</time>
      </trkpt>
      <trkpt lat="43.58459" lon="5.91318">
        <ele>402</ele>
        <time>2018-06-10T07:32:02Z</time>
      </trkpt>
      <trkpt lat="43.58476" lon="5.91303">
        <ele>401</ele>
        <time>2018-06-10T07:32:08Z</time>
      </trkpt>
      <trkpt lat="43.58494" lon="5.91292">
        <ele>400</ele>
        <time>2018-06-10T07:32:15Z</time>
      </trkpt>
      <trkpt lat="43.58511" lon="5.91284">
        <ele>397</ele>
        <time>2018-06-10T07:32:21Z</time>
      </trkpt>
      <trkpt lat="43.58531" lon="5.91278">
        <ele>396</ele>
        <time>2018-06-10T07:32:26Z</time>
      </trkpt>
      <trkpt lat="43.58551" lon="5.91284">
        <ele>396</ele>
        <time>2018-06-10T07:32:32Z</time>
      </trkpt>
      <trkpt lat="43.58552" lon="5.91257">
        <ele>395</ele>
        <time>2018-06-10T07:33:05Z</time>
      </trkpt>
      <trkpt lat="43.58542" lon="5.91242">
        <ele>396</ele>
        <time>2018-06-10T07:36:01Z</time>
      </trkpt>
      <trkpt lat="43.5856" lon="5.91237">
        <ele>396</ele>
        <time>2018-06-10T07:36:18Z</time>
      </trkpt>
      <trkpt lat="43.58578" lon="5.91242">
        <ele>395</ele>
        <time>2018-06-10T07:36:27Z</time>
      </trkpt>
      <trkpt lat="43.58596" lon="5.91251">
        <ele>393</ele>
        <time>2018-06-10T07:36:33Z</time>
      </trkpt>
      <trkpt lat="43.58615" lon="5.91252">
        <ele>392</ele>
        <time>2018-06-10T07:36:38Z</time>
      </trkpt>
      <trkpt lat="43.58636" lon="5.91251">
        <ele>391</ele>
        <time>2018-06-10T07:36:43Z</time>
      </trkpt>
      <trkpt lat="43.58655" lon="5.91255">
        <ele>391</ele>
        <time>2018-06-10T07:36:47Z</time>
      </trkpt>
      <trkpt lat="43.58675" lon="5.91267">
        <ele>390</ele>
        <time>2018-06-10T07:36:51Z</time>
      </trkpt>
      <trkpt lat="43.58692" lon="5.91281">
        <ele>389</ele>
        <time>2018-06-10T07:36:55Z</time>
      </trkpt>
      <trkpt lat="43.58707" lon="5.91299">
        <ele>389</ele>
        <time>2018-06-10T07:36:58Z</time>
      </trkpt>
      <trkpt lat="43.58722" lon="5.91326">
        <ele>388</ele>
        <time>2018-06-10T07:37:02Z</time>
      </trkpt>
      <trkpt lat="43.58733" lon="5.91348">
        <ele>388</ele>
        <time>2018-06-10T07:37:05Z</time>
      </trkpt>
      <trkpt lat="43.58752" lon="5.91366">
        <ele>385</ele>
        <time>2018-06-10T07:37:09Z</time>
      </trkpt>
      <trkpt lat="43.58768" lon="5.91379">
        <ele>385</ele>
        <time>2018-06-10T07:37:12Z</time>
      </trkpt>
      <trkpt lat="43.58779" lon="5.91401">
        <ele>385</ele>
        <time>2018-06-10T07:37:15Z</time>
      </trkpt>
      <trkpt lat="43.58793" lon="5.91423">
        <ele>384</ele>
        <time>2018-06-10T07:37:19Z</time>
      </trkpt>
      <trkpt lat="43.58812" lon="5.91426">
        <ele>383</ele>
        <time>2018-06-10T07:37:23Z</time>
      </trkpt>
      <trkpt lat="43.58831" lon="5.91443">
        <ele>383</ele>
        <time>2018-06-10T07:37:27Z</time>
      </trkpt>
      <trkpt lat="43.5884" lon="5.91468">
        <ele>380</ele>
        <time>2018-06-10T07:37:31Z</time>
      </trkpt>
      <trkpt lat="43.58858" lon="5.91479">
        <ele>380</ele>
        <time>2018-06-10T07:37:36Z</time>
      </trkpt>
      <trkpt lat="43.58875" lon="5.91489">
        <ele>380</ele>
        <time>2018-06-10T07:37:40Z</time>
      </trkpt>
      <trkpt lat="43.58895" lon="5.91503">
        <ele>378</ele>
        <time>2018-06-10T07:37:45Z</time>
      </trkpt>
      <trkpt lat="43.58912" lon="5.91514">
        <ele>377</ele>
        <time>2018-06-10T07:37:49Z</time>
      </trkpt>
      <trkpt lat="43.58927" lon="5.91531">
        <ele>376</ele>
        <time>2018-06-10T07:37:53Z</time>
      </trkpt>
      <trkpt lat="43.58942" lon="5.91547">
        <ele>375</ele>
        <time>2018-06-10T07:37:57Z</time>
      </trkpt>
      <trkpt lat="43.58957" lon="5.91563">
        <ele>375</ele>
        <time>2018-06-10T07:38:01Z</time>
      </trkpt>
      <trkpt lat="43.58978" lon="5.9158">
        <ele>374</ele>
        <time>2018-06-10T07:38:05Z</time>
      </trkpt>
      <trkpt lat="43.58995" lon="5.91592">
        <ele>373</ele>
        <time>2018-06-10T07:38:09Z</time>
      </trkpt>
      <trkpt lat="43.59011" lon="5.91605">
        <ele>373</ele>
        <time>2018-06-10T07:38:13Z</time>
      </trkpt>
      <trkpt lat="43.59027" lon="5.91621">
        <ele>374</ele>
        <time>2018-06-10T07:38:17Z</time>
      </trkpt>
      <trkpt lat="43.59039" lon="5.91641">
        <ele>374</ele>
        <time>2018-06-10T07:38:21Z</time>
      </trkpt>
      <trkpt lat="43.5905" lon="5.91663">
        <ele>374</ele>
        <time>2018-06-10T07:38:25Z</time>
      </trkpt>
      <trkpt lat="43.59058" lon="5.91688">
        <ele>373</ele>
        <time>2018-06-10T07:38:29Z</time>
      </trkpt>
      <trkpt lat="43.59063" lon="5.91716">
        <ele>372</ele>
        <time>2018-06-10T07:38:33Z</time>
      </trkpt>
      <trkpt lat="43.59073" lon="5.91739">
        <ele>371</ele>
        <time>2018-06-10T07:38:37Z</time>
      </trkpt>
      <trkpt lat="43.59078" lon="5.91769">
        <ele>370</ele>
        <time>2018-06-10T07:38:42Z</time>
      </trkpt>
      <trkpt lat="43.59085" lon="5.91797">
        <ele>372</ele>
        <time>2018-06-10T07:38:47Z</time>
      </trkpt>
      <trkpt lat="43.59095" lon="5.91823">
        <ele>371</ele>
        <time>2018-06-10T07:38:53Z</time>
      </trkpt>
      <trkpt lat="43.59101" lon="5.91849">
        <ele>369</ele>
        <time>2018-06-10T07:38:59Z</time>
      </trkpt>
      <trkpt lat="43.59116" lon="5.91863">
        <ele>369</ele>
        <time>2018-06-10T07:39:30Z</time>
      </trkpt>
      <trkpt lat="43.5913" lon="5.91879">
        <ele>370</ele>
        <time>2018-06-10T07:39:51Z</time>
      </trkpt>
      <trkpt lat="43.59142" lon="5.91901">
        <ele>369</ele>
        <time>2018-06-10T07:39:57Z</time>
      </trkpt>
      <trkpt lat="43.59149" lon="5.9193">
        <ele>368</ele>
        <time>2018-06-10T07:40:03Z</time>
      </trkpt>
      <trkpt lat="43.5915" lon="5.91956">
        <ele>368</ele>
        <time>2018-06-10T07:40:07Z</time>
      </trkpt>
      <trkpt lat="43.59153" lon="5.91986">
        <ele>368</ele>
        <time>2018-06-10T07:40:11Z</time>
      </trkpt>
      <trkpt lat="43.59155" lon="5.92011">
        <ele>368</ele>
        <time>2018-06-10T07:40:14Z</time>
      </trkpt>
      <trkpt lat="43.59158" lon="5.92037">
        <ele>368</ele>
        <time>2018-06-10T07:40:17Z</time>
      </trkpt>
      <trkpt lat="43.59161" lon="5.92063">
        <ele>368</ele>
        <time>2018-06-10T07:40:21Z</time>
      </trkpt>
      <trkpt lat="43.59167" lon="5.92089">
        <ele>368</ele>
        <time>2018-06-10T07:40:25Z</time>
      </trkpt>
      <trkpt lat="43.59176" lon="5.92113">
        <ele>371</ele>
        <time>2018-06-10T07:40:31Z</time>
      </trkpt>
      <trkpt lat="43.59182" lon="5.92138">
        <ele>370</ele>
        <time>2018-06-10T07:40:39Z</time>
      </trkpt>
      <trkpt lat="43.59186" lon="5.92163">
        <ele>369</ele>
        <time>2018-06-10T07:40:45Z</time>
      </trkpt>
      <trkpt lat="43.59192" lon="5.9219">
        <ele>368</ele>
        <time>2018-06-10T07:40:50Z</time>
      </trkpt>
      <trkpt lat="43.59195" lon="5.92214">
        <ele>369</ele>
        <time>2018-06-10T07:40:56Z</time>
      </trkpt>
      <trkpt lat="43.59198" lon="5.9224">
        <ele>369</ele>
        <time>2018-06-10T07:41:03Z</time>
      </trkpt>
      <trkpt lat="43.59202" lon="5.92266">
        <ele>367</ele>
        <time>2018-06-10T07:41:11Z</time>
      </trkpt>
      <trkpt lat="43.5921" lon="5.92292">
        <ele>367</ele>
        <time>2018-06-10T07:41:17Z</time>
      </trkpt>
      <trkpt lat="43.59216" lon="5.92316">
        <ele>367</ele>
        <time>2018-06-10T07:41:25Z</time>
      </trkpt>
      <trkpt lat="43.59226" lon="5.92338">
        <ele>365</ele>
        <time>2018-06-10T07:41:33Z</time>
      </trkpt>
      <trkpt lat="43.59236" lon="5.92359">
        <ele>365</ele>
        <time>2018-06-10T07:41:41Z</time>
      </trkpt>
      <trkpt lat="43.59242" lon="5.92382">
        <ele>363</ele>
        <time>2018-06-10T07:42:08Z</time>
      </trkpt>
      <trkpt lat="43.5925" lon="5.92406">
        <ele>362</ele>
        <time>2018-06-10T07:42:42Z</time>
      </trkpt>
      <trkpt lat="43.59268" lon="5.92413">
        <ele>362</ele>
        <time>2018-06-10T07:43:48Z</time>
      </trkpt>
      <trkpt lat="43.59272" lon="5.92438">
        <ele>357</ele>
        <time>2018-06-10T07:43:56Z</time>
      </trkpt>
      <trkpt lat="43.59272" lon="5.92465">
        <ele>355</ele>
        <time>2018-06-10T07:44:05Z</time>
      </trkpt>
      <trkpt lat="43.59276" lon="5.9249">
        <ele>354</ele>
        <time>2018-06-10T07:44:15Z</time>
      </trkpt>
      <trkpt lat="43.5926" lon="5.92505">
        <ele>353</ele>
        <time>2018-06-10T07:44:39Z</time>
      </trkpt>
      <trkpt lat="43.59245" lon="5.92518">
        <ele>354</ele>
        <time>2018-06-10T07:45:24Z</time>
      </trkpt>
      <trkpt lat="43.59225" lon="5.92521">
        <ele>354</ele>
        <time>2018-06-10T07:45:33Z</time>
      </trkpt>
      <trkpt lat="43.59208" lon="5.92533">
        <ele>354</ele>
        <time>2018-06-10T07:45:42Z</time>
      </trkpt>
      <trkpt lat="43.59193" lon="5.92548">
        <ele>354</ele>
        <time>2018-06-10T07:45:50Z</time>
      </trkpt>
      <trkpt lat="43.59175" lon="5.92563">
        <ele>354</ele>
        <time>2018-06-10T07:45:59Z</time>
      </trkpt>
      <trkpt lat="43.5916" lon="5.92575">
        <ele>354</ele>
        <time>2018-06-10T07:46:07Z</time>
      </trkpt>
      <trkpt lat="43.59146" lon="5.92591">
        <ele>354</ele>
        <time>2018-06-10T07:46:15Z</time>
      </trkpt>
      <trkpt lat="43.5913" lon="5.9261">
        <ele>354</ele>
        <time>2018-06-10T07:46:22Z</time>
      </trkpt>
      <trkpt lat="43.59116" lon="5.92626">
        <ele>354</ele>
        <time>2018-06-10T07:46:27Z</time>
      </trkpt>
      <trkpt lat="43.59103" lon="5.92644">
        <ele>354</ele>
        <time>2018-06-10T07:46:33Z</time>
      </trkpt>
      <trkpt lat="43.5909" lon="5.92663">
        <ele>355</ele>
        <time>2018-06-10T07:46:42Z</time>
      </trkpt>
      <trkpt lat="43.59075" lon="5.92679">
        <ele>356</ele>
        <time>2018-06-10T07:46:51Z</time>
      </trkpt>
      <trkpt lat="43.59058" lon="5.9269">
        <ele>356</ele>
        <time>2018-06-10T07:46:59Z</time>
      </trkpt>
      <trkpt lat="43.59042" lon="5.927">
        <ele>356</ele>
        <time>2018-06-10T07:47:07Z</time>
      </trkpt>
      <trkpt lat="43.59024" lon="5.92713">
        <ele>356</ele>
        <time>2018-06-10T07:47:15Z</time>
      </trkpt>
      <trkpt lat="43.59007" lon="5.92724">
        <ele>357</ele>
        <time>2018-06-10T07:47:22Z</time>
      </trkpt>
      <trkpt lat="43.5899" lon="5.92736">
        <ele>358</ele>
        <time>2018-06-10T07:47:27Z</time>
      </trkpt>
      <trkpt lat="43.58972" lon="5.92746">
        <ele>358</ele>
        <time>2018-06-10T07:47:35Z</time>
      </trkpt>
      <trkpt lat="43.58953" lon="5.92751">
        <ele>359</ele>
        <time>2018-06-10T07:47:42Z</time>
      </trkpt>
      <trkpt lat="43.58934" lon="5.92747">
        <ele>359</ele>
        <time>2018-06-10T07:47:51Z</time>
      </trkpt>
      <trkpt lat="43.58914" lon="5.92744">
        <ele>360</ele>
        <time>2018-06-10T07:47:59Z</time>
      </trkpt>
      <trkpt lat="43.58897" lon="5.92752">
        <ele>361</ele>
        <time>2018-06-10T07:48:05Z</time>
      </trkpt>
      <trkpt lat="43.58878" lon="5.92755">
        <ele>362</ele>
        <time>2018-06-10T07:48:11Z</time>
      </trkpt>
      <trkpt lat="43.58859" lon="5.92758">
        <ele>363</ele>
        <time>2018-06-10T07:48:23Z</time>
      </trkpt>
      <trkpt lat="43.58841" lon="5.92765">
        <ele>363</ele>
        <time>2018-06-10T07:51:02Z</time>
      </trkpt>
      <trkpt lat="43.58822" lon="5.92767">
        <ele>365</ele>
        <time>2018-06-10T07:51:13Z</time>
      </trkpt>
      <trkpt lat="43.58802" lon="5.92768">
        <ele>366</ele>
        <time>2018-06-10T07:51:20Z</time>
      </trkpt>
      <trkpt lat="43.58783" lon="5.9277">
        <ele>366</ele>
        <time>2018-06-10T07:51:27Z</time>
      </trkpt>
      <trkpt lat="43.58764" lon="5.92786">
        <ele>367</ele>
        <time>2018-06-10T07:51:33Z</time>
      </trkpt>
      <trkpt lat="43.58749" lon="5.92803">
        <ele>369</ele>
        <time>2018-06-10T07:51:39Z</time>
      </trkpt>
      <trkpt lat="43.58734" lon="5.92821">
        <ele>369</ele>
        <time>2018-06-10T07:51:45Z</time>
      </trkpt>
      <trkpt lat="43.5872" lon="5.92841">
        <ele>367</ele>
        <time>2018-06-10T07:51:53Z</time>
      </trkpt>
      <trkpt lat="43.5871" lon="5.92863">
        <ele>367</ele>
        <time>2018-06-10T07:52:00Z</time>
      </trkpt>
      <trkpt lat="43.58703" lon="5.92888">
        <ele>367</ele>
        <time>2018-06-10T07:52:05Z</time>
      </trkpt>
      <trkpt lat="43.58694" lon="5.9291">
        <ele>366</ele>
        <time>2018-06-10T07:52:10Z</time>
      </trkpt>
      <trkpt lat="43.5868" lon="5.92928">
        <ele>367</ele>
        <time>2018-06-10T07:52:17Z</time>
      </trkpt>
      <trkpt lat="43.58661" lon="5.9293">
        <ele>366</ele>
        <time>2018-06-10T07:52:24Z</time>
      </trkpt>
      <trkpt lat="43.58644" lon="5.9292">
        <ele>367</ele>
        <time>2018-06-10T07:52:32Z</time>
      </trkpt>
      <trkpt lat="43.58625" lon="5.92912">
        <ele>366</ele>
        <time>2018-06-10T07:52:42Z</time>
      </trkpt>
      <trkpt lat="43.58607" lon="5.929">
        <ele>366</ele>
        <time>2018-06-10T07:52:50Z</time>
      </trkpt>
      <trkpt lat="43.58589" lon="5.92887">
        <ele>366</ele>
        <time>2018-06-10T07:52:58Z</time>
      </trkpt>
      <trkpt lat="43.58572" lon="5.92874">
        <ele>367</ele>
        <time>2018-06-10T07:53:05Z</time>
      </trkpt>
      <trkpt lat="43.58554" lon="5.92876">
        <ele>368</ele>
        <time>2018-06-10T07:53:15Z</time>
      </trkpt>
      <trkpt lat="43.58537" lon="5.92888">
        <ele>368</ele>
        <time>2018-06-10T07:53:49Z</time>
      </trkpt>
      <trkpt lat="43.5852" lon="5.92898">
        <ele>369</ele>
        <time>2018-06-10T07:53:58Z</time>
      </trkpt>
      <trkpt lat="43.58501" lon="5.92895">
        <ele>369</ele>
        <time>2018-06-10T07:54:09Z</time>
      </trkpt>
      <trkpt lat="43.58484" lon="5.92882">
        <ele>373</ele>
        <time>2018-06-10T07:54:20Z</time>
      </trkpt>
      <trkpt lat="43.58467" lon="5.9287">
        <ele>373</ele>
        <time>2018-06-10T07:54:51Z</time>
      </trkpt>
      <trkpt lat="43.58449" lon="5.92862">
        <ele>374</ele>
        <time>2018-06-10T07:55:09Z</time>
      </trkpt>
      <trkpt lat="43.58431" lon="5.92859">
        <ele>376</ele>
        <time>2018-06-10T07:55:48Z</time>
      </trkpt>
      <trkpt lat="43.58413" lon="5.92854">
        <ele>380</ele>
        <time>2018-06-10T07:56:04Z</time>
      </trkpt>
      <trkpt lat="43.58395" lon="5.92848">
        <ele>380</ele>
        <time>2018-06-10T07:56:18Z</time>
      </trkpt>
      <trkpt lat="43.58376" lon="5.92844">
        <ele>381</ele>
        <time>2018-06-10T07:56:33Z</time>
      </trkpt>
      <trkpt lat="43.58358" lon="5.92839">
        <ele>383</ele>
        <time>2018-06-10T07:56:44Z</time>
      </trkpt>
      <trkpt lat="43.58339" lon="5.92834">
        <ele>385</ele>
        <time>2018-06-10T07:56:56Z</time>
      </trkpt>
      <trkpt lat="43.58318" lon="5.92839">
        <ele>387</ele>
        <time>2018-06-10T07:57:07Z</time>
      </trkpt>
      <trkpt lat="43.58299" lon="5.92846">
        <ele>387</ele>
        <time>2018-06-10T07:57:19Z</time>
      </trkpt>
      <trkpt lat="43.58281" lon="5.92848">
        <ele>388</ele>
        <time>2018-06-10T07:57:27Z</time>
      </trkpt>
      <trkpt lat="43.58263" lon="5.92846">
        <ele>390</ele>
        <time>2018-06-10T07:57:35Z</time>
      </trkpt>
      <trkpt lat="43.58244" lon="5.92843">
        <ele>393</ele>
        <time>2018-06-10T07:57:44Z</time>
      </trkpt>
      <trkpt lat="43.58225" lon="5.9284">
        <ele>394</ele>
        <time>2018-06-10T07:57:53Z</time>
      </trkpt>
      <trkpt lat="43.58206" lon="5.92831">
        <ele>394</ele>
        <time>2018-06-10T07:58:03Z</time>
      </trkpt>
      <trkpt lat="43.58188" lon="5.92822">
        <ele>395</ele>
        <time>2018-06-10T07:58:16Z</time>
      </trkpt>
      <trkpt lat="43.58169" lon="5.92813">
        <ele>396</ele>
        <time>2018-06-10T07:58:29Z</time>
      </trkpt>
      <trkpt lat="43.58153" lon="5.92801">
        <ele>401</ele>
        <time>2018-06-10T07:58:40Z</time>
      </trkpt>
      <trkpt lat="43.58136" lon="5.92789">
        <ele>402</ele>
        <time>2018-06-10T07:58:52Z</time>
      </trkpt>
      <trkpt lat="43.5812" lon="5.92778">
        <ele>403</ele>
        <time>2018-06-10T07:59:06Z</time>
      </trkpt>
      <trkpt lat="43.58103" lon="5.9279">
        <ele>405</ele>
        <time>2018-06-10T07:59:17Z</time>
      </trkpt>
      <trkpt lat="43.58087" lon="5.92806">
        <ele>406</ele>
        <time>2018-06-10T07:59:30Z</time>
      </trkpt>
      <trkpt lat="43.58083" lon="5.92832">
        <ele>412</ele>
        <time>2018-06-10T07:59:44Z</time>
      </trkpt>
      <trkpt lat="43.58088" lon="5.92858">
        <ele>411</ele>
        <time>2018-06-10T07:59:58Z</time>
      </trkpt>
      <trkpt lat="43.58097" lon="5.92882">
        <ele>411</ele>
        <time>2018-06-10T08:00:10Z</time>
      </trkpt>
      <trkpt lat="43.58106" lon="5.92906">
        <ele>413</ele>
        <time>2018-06-10T08:00:21Z</time>
      </trkpt>
      <trkpt lat="43.58118" lon="5.9293">
        <ele>416</ele>
        <time>2018-06-10T08:00:33Z</time>
      </trkpt>
      <trkpt lat="43.58121" lon="5.92955">
        <ele>417</ele>
        <time>2018-06-10T08:00:45Z</time>
      </trkpt>
      <trkpt lat="43.58112" lon="5.92933">
        <ele>417</ele>
        <time>2018-06-10T08:01:19Z</time>
      </trkpt>
      <trkpt lat="43.58101" lon="5.92913">
        <ele>415</ele>
        <time>2018-06-10T08:01:32Z</time>
      </trkpt>
      <trkpt lat="43.58087" lon="5.92895">
        <ele>414</ele>
        <time>2018-06-10T08:01:45Z</time>
      </trkpt>
      <trkpt lat="43.58072" lon="5.92878">
        <ele>426</ele>
        <time>2018-06-10T08:01:58Z</time>
      </trkpt>
      <trkpt lat="43.58054" lon="5.92868">
        <ele>428</ele>
        <time>2018-06-10T08:02:07Z</time>
      </trkpt>
      <trkpt lat="43.58038" lon="5.92855">
        <ele>430</ele>
        <time>2018-06-10T08:02:20Z</time>
      </trkpt>
      <trkpt lat="43.58022" lon="5.9284">
        <ele>433</ele>
        <time>2018-06-10T08:02:35Z</time>
      </trkpt>
      <trkpt lat="43.58006" lon="5.92828">
        <ele>434</ele>
        <time>2018-06-10T08:02:43Z</time>
      </trkpt>
      <trkpt lat="43.57995" lon="5.92807">
        <ele>442</ele>
        <time>2018-06-10T08:02:59Z</time>
      </trkpt>
      <trkpt lat="43.57982" lon="5.92791">
        <ele>443</ele>
        <time>2018-06-10T08:03:12Z</time>
      </trkpt>
      <trkpt lat="43.57971" lon="5.9277">
        <ele>443</ele>
        <time>2018-06-10T08:03:27Z</time>
      </trkpt>
      <trkpt lat="43.57965" lon="5.92745">
        <ele>441</ele>
        <time>2018-06-10T08:03:41Z</time>
      </trkpt>
      <trkpt lat="43.57966" lon="5.9272">
        <ele>442</ele>
        <time>2018-06-10T08:03:55Z</time>
      </trkpt>
      <trkpt lat="43.57964" lon="5.92695">
        <ele>442</ele>
        <time>2018-06-10T08:04:10Z</time>
      </trkpt>
      <trkpt lat="43.5796" lon="5.9267">
        <ele>443</ele>
        <time>2018-06-10T08:04:23Z</time>
      </trkpt>
      <trkpt lat="43.57956" lon="5.92645">
        <ele>441</ele>
        <time>2018-06-10T08:04:33Z</time>
      </trkpt>
      <trkpt lat="43.57941" lon="5.9263">
        <ele>442</ele>
        <time>2018-06-10T08:04:41Z</time>
      </trkpt>
      <trkpt lat="43.57927" lon="5.92614">
        <ele>443</ele>
        <time>2018-06-10T08:04:49Z</time>
      </trkpt>
      <trkpt lat="43.57908" lon="5.92606">
        <ele>454</ele>
        <time>2018-06-10T08:04:59Z</time>
      </trkpt>
      <trkpt lat="43.57891" lon="5.92597">
        <ele>456</ele>
        <time>2018-06-10T08:05:10Z</time>
      </trkpt>
      <trkpt lat="43.57875" lon="5.92581">
        <ele>450</ele>
        <time>2018-06-10T08:05:22Z</time>
      </trkpt>
      <trkpt lat="43.5786" lon="5.92567">
        <ele>452</ele>
        <time>2018-06-10T08:05:35Z</time>
      </trkpt>
      <trkpt lat="43.57842" lon="5.92559">
        <ele>454</ele>
        <time>2018-06-10T08:05:46Z</time>
      </trkpt>
      <trkpt lat="43.57825" lon="5.92549">
        <ele>465</ele>
        <time>2018-06-10T08:06:00Z</time>
      </trkpt>
      <trkpt lat="43.57808" lon="5.92537">
        <ele>465</ele>
        <time>2018-06-10T08:06:15Z</time>
      </trkpt>
      <trkpt lat="43.57792" lon="5.92522">
        <ele>466</ele>
        <time>2018-06-10T08:06:29Z</time>
      </trkpt>
      <trkpt lat="43.57779" lon="5.92505">
        <ele>468</ele>
        <time>2018-06-10T08:06:44Z</time>
      </trkpt>
      <trkpt lat="43.57765" lon="5.92486">
        <ele>466</ele>
        <time>2018-06-10T08:06:57Z</time>
      </trkpt>
      <trkpt lat="43.57755" lon="5.92464">
        <ele>464</ele>
        <time>2018-06-10T08:07:12Z</time>
      </trkpt>
      <trkpt lat="43.57746" lon="5.9244">
        <ele>474</ele>
        <time>2018-06-10T08:07:27Z</time>
      </trkpt>
      <trkpt lat="43.57737" lon="5.92418">
        <ele>472</ele>
        <time>2018-06-10T08:07:41Z</time>
      </trkpt>
      <trkpt lat="43.57725" lon="5.92399">
        <ele>474</ele>
        <time>2018-06-10T08:07:53Z</time>
      </trkpt>
      <trkpt lat="43.57712" lon="5.92382">
        <ele>476</ele>
        <time>2018-06-10T08:08:07Z</time>
      </trkpt>
      <trkpt lat="43.57697" lon="5.92366">
        <ele>478</ele>
        <time>2018-06-10T08:08:20Z</time>
      </trkpt>
      <trkpt lat="43.57681" lon="5.92348">
        <ele>481</ele>
        <time>2018-06-10T08:08:33Z</time>
      </trkpt>
      <trkpt lat="43.57663" lon="5.92349">
        <ele>488</ele>
        <time>2018-06-10T08:09:04Z</time>
      </trkpt>
      <trkpt lat="43.57645" lon="5.92342">
        <ele>488</ele>
        <time>2018-06-10T08:10:20Z</time>
      </trkpt>
      <trkpt lat="43.5764" lon="5.92316">
        <ele>488</ele>
        <time>2018-06-10T08:10:29Z</time>
      </trkpt>
      <trkpt lat="43.57627" lon="5.92297">
        <ele>489</ele>
        <time>2018-06-10T08:10:37Z</time>
      </trkpt>
      <trkpt lat="43.57617" lon="5.92275">
        <ele>489</ele>
        <time>2018-06-10T08:10:43Z</time>
      </trkpt>
      <trkpt lat="43.57607" lon="5.92253">
        <ele>490</ele>
        <time>2018-06-10T08:10:50Z</time>
      </trkpt>
      <trkpt lat="43.57598" lon="5.92231">
        <ele>491</ele>
        <time>2018-06-10T08:10:56Z</time>
      </trkpt>
      <trkpt lat="43.57592" lon="5.92205">
        <ele>491</ele>
        <time>2018-06-10T08:11:06Z</time>
      </trkpt>
      <trkpt lat="43.57589" lon="5.9218">
        <ele>494</ele>
        <time>2018-06-10T08:11:17Z</time>
      </trkpt>
      <trkpt lat="43.57588" lon="5.92153">
        <ele>495</ele>
        <time>2018-06-10T08:11:28Z</time>
      </trkpt>
      <trkpt lat="43.57594" lon="5.92129">
        <ele>494</ele>
        <time>2018-06-10T08:11:37Z</time>
      </trkpt>
      <trkpt lat="43.57599" lon="5.92103">
        <ele>495</ele>
        <time>2018-06-10T08:11:48Z</time>
      </trkpt>
      <trkpt lat="43.57587" lon="5.92085">
        <ele>500</ele>
        <time>2018-06-10T08:11:57Z</time>
      </trkpt>
      <trkpt lat="43.57572" lon="5.92065">
        <ele>500</ele>
        <time>2018-06-10T08:12:04Z</time>
      </trkpt>
      <trkpt lat="43.57562" lon="5.92044">
        <ele>501</ele>
        <time>2018-06-10T08:12:12Z</time>
      </trkpt>
      <trkpt lat="43.57553" lon="5.92021">
        <ele>501</ele>
        <time>2018-06-10T08:12:20Z</time>
      </trkpt>
      <trkpt lat="43.57542" lon="5.91999">
        <ele>504</ele>
        <time>2018-06-10T08:12:27Z</time>
      </trkpt>
      <trkpt lat="43.57531" lon="5.91977">
        <ele>504</ele>
        <time>2018-06-10T08:12:33Z</time>
      </trkpt>
      <trkpt lat="43.57521" lon="5.91956">
        <ele>504</ele>
        <time>2018-06-10T08:12:40Z</time>
      </trkpt>
      <trkpt lat="43.57513" lon="5.91933">
        <ele>503</ele>
        <time>2018-06-10T08:12:47Z</time>
      </trkpt>
      <trkpt lat="43.57505" lon="5.91909">
        <ele>504</ele>
        <time>2018-06-10T08:12:54Z</time>
      </trkpt>
      <trkpt lat="43.57497" lon="5.91884">
        <ele>500</ele>
        <time>2018-06-10T08:13:02Z</time>
      </trkpt>
      <trkpt lat="43.5749" lon="5.9186">
        <ele>502</ele>
        <time>2018-06-10T08:13:10Z</time>
      </trkpt>
      <trkpt lat="43.57482" lon="5.91835">
        <ele>503</ele>
        <time>2018-06-10T08:13:18Z</time>
      </trkpt>
      <trkpt lat="43.57476" lon="5.91811">
        <ele>506</ele>
        <time>2018-06-10T08:13:26Z</time>
      </trkpt>
      <trkpt lat="43.57472" lon="5.91785">
        <ele>507</ele>
        <time>2018-06-10T08:13:34Z</time>
      </trkpt>
      <trkpt lat="43.57468" lon="5.91759">
        <ele>508</ele>
        <time>2018-06-10T08:13:42Z</time>
      </trkpt>
      <trkpt lat="43.57464" lon="5.91732">
        <ele>511</ele>
        <time>2018-06-10T08:13:50Z</time>
      </trkpt>
      <trkpt lat="43.57458" lon="5.91706">
        <ele>510</ele>
        <time>2018-06-10T08:13:58Z</time>
      </trkpt>
      <trkpt lat="43.57454" lon="5.91682">
        <ele>511</ele>
        <time>2018-06-10T08:18:19Z</time>
      </trkpt>
      <trkpt lat="43.57453" lon="5.91656">
        <ele>510</ele>
        <time>2018-06-10T08:18:33Z</time>
      </trkpt>
      <trkpt lat="43.57457" lon="5.91631">
        <ele>510</ele>
        <time>2018-06-10T08:18:39Z</time>
      </trkpt>
      <trkpt lat="43.57461" lon="5.91602">
        <ele>510</ele>
        <time>2018-06-10T08:18:45Z</time>
      </trkpt>
      <trkpt lat="43.57461" lon="5.91577">
        <ele>509</ele>
        <time>2018-06-10T08:18:50Z</time>
      </trkpt>
      <trkpt lat="43.57462" lon="5.91547">
        <ele>509</ele>
        <time>2018-06-10T08:18:55Z</time>
      </trkpt>
      <trkpt lat="43.57462" lon="5.91521">
        <ele>509</ele>
        <time>2018-06-10T08:19:00Z</time>
      </trkpt>
      <trkpt lat="43.5746" lon="5.91492">
        <ele>509</ele>
        <time>2018-06-10T08:19:05Z</time>
      </trkpt>
      <trkpt lat="43.5746" lon="5.91464">
        <ele>508</ele>
        <time>2018-06-10T08:19:09Z</time>
      </trkpt>
      <trkpt lat="43.57464" lon="5.91436">
        <ele>508</ele>
        <time>2018-06-10T08:19:14Z</time>
      </trkpt>
      <trkpt lat="43.57466" lon="5.9141">
        <ele>506</ele>
        <time>2018-06-10T08:19:21Z</time>
      </trkpt>
      <trkpt lat="43.57468" lon="5.9138">
        <ele>505</ele>
        <time>2018-06-10T08:19:28Z</time>
      </trkpt>
      <trkpt lat="43.57474" lon="5.91356">
        <ele>506</ele>
        <time>2018-06-10T08:19:33Z</time>
      </trkpt>
      <trkpt lat="43.5748" lon="5.9133">
        <ele>506</ele>
        <time>2018-06-10T08:19:38Z</time>
      </trkpt>
      <trkpt lat="43.57489" lon="5.91305">
        <ele>505</ele>
        <time>2018-06-10T08:19:43Z</time>
      </trkpt>
      <trkpt lat="43.57485" lon="5.91279">
        <ele>505</ele>
        <time>2018-06-10T08:19:49Z</time>
      </trkpt>
      <trkpt lat="43.57474" lon="5.91255">
        <ele>505</ele>
        <time>2018-06-10T08:19:55Z</time>
      </trkpt>
      <trkpt lat="43.57475" lon="5.9123">
        <ele>506</ele>
        <time>2018-06-10T08:20:05Z</time>
      </trkpt>
      <trkpt lat="43.57484" lon="5.91206">
        <ele>507</ele>
        <time>2018-06-10T08:20:14Z</time>
      </trkpt>
      <trkpt lat="43.57492" lon="5.9118">
        <ele>509</ele>
        <time>2018-06-10T08:20:24Z</time>
      </trkpt>
      <trkpt lat="43.57498" lon="5.91156">
        <ele>512</ele>
        <time>2018-06-10T08:20:34Z</time>
      </trkpt>
      <trkpt lat="43.575" lon="5.9113">
        <ele>520</ele>
        <time>2018-06-10T08:20:44Z</time>
      </trkpt>
      <trkpt lat="43.57495" lon="5.91103">
        <ele>515</ele>
        <time>2018-06-10T08:20:51Z</time>
      </trkpt>
      <trkpt lat="43.57488" lon="5.91076">
        <ele>517</ele>
        <time>2018-06-10T08:20:58Z</time>
      </trkpt>
      <trkpt lat="43.57482" lon="5.91052">
        <ele>516</ele>
        <time>2018-06-10T08:21:06Z</time>
      </trkpt>
      <trkpt lat="43.57477" lon="5.91028">
        <ele>516</ele>
        <time>2018-06-10T08:23:01Z</time>
      </trkpt>
      <trkpt lat="43.57471" lon="5.91001">
        <ele>515</ele>
        <time>2018-06-10T08:23:09Z</time>
      </trkpt>
      <trkpt lat="43.57468" lon="5.90976">
        <ele>511</ele>
        <time>2018-06-10T08:23:13Z</time>
      </trkpt>
      <trkpt lat="43.57463" lon="5.90949">
        <ele>509</ele>
        <time>2018-06-10T08:23:17Z</time>
      </trkpt>
      <trkpt lat="43.57457" lon="5.90922">
        <ele>508</ele>
        <time>2018-06-10T08:23:22Z</time>
      </trkpt>
      <trkpt lat="43.5745" lon="5.90891">
        <ele>503</ele>
        <time>2018-06-10T08:23:27Z</time>
      </trkpt>
      <trkpt lat="43.57447" lon="5.90867">
        <ele>502</ele>
        <time>2018-06-10T08:23:31Z</time>
      </trkpt>
      <trkpt lat="43.57442" lon="5.90839">
        <ele>500</ele>
        <time>2018-06-10T08:23:35Z</time>
      </trkpt>
      <trkpt lat="43.57434" lon="5.90816">
        <ele>496</ele>
        <time>2018-06-10T08:23:39Z</time>
      </trkpt>
      <trkpt lat="43.57416" lon="5.90814">
        <ele>491</ele>
        <time>2018-06-10T08:23:45Z</time>
      </trkpt>
      <trkpt lat="43.574" lon="5.90789">
        <ele>489</ele>
        <time>2018-06-10T08:23:50Z</time>
      </trkpt>
      <trkpt lat="43.57386" lon="5.90772">
        <ele>487</ele>
        <time>2018-06-10T08:23:54Z</time>
      </trkpt>
      <trkpt lat="43.5737" lon="5.90759">
        <ele>486</ele>
        <time>2018-06-10T08:23:58Z</time>
      </trkpt>
      <trkpt lat="43.57353" lon="5.9075">
        <ele>481</ele>
        <time>2018-06-10T08:24:02Z</time>
      </trkpt>
      <trkpt lat="43.57333" lon="5.90738">
        <ele>478</ele>
        <time>2018-06-10T08:24:06Z</time>
      </trkpt>
      <trkpt lat="43.57315" lon="5.90744">
        <ele>478</ele>
        <time>2018-06-10T08:24:11Z</time>
      </trkpt>
      <trkpt lat="43.573" lon="5.90762">
        <ele>478</ele>
        <time>2018-06-10T08:24:15Z</time>
      </trkpt>
      <trkpt lat="43.57291" lon="5.90788">
        <ele>477</ele>
        <time>2018-06-10T08:24:21Z</time>
      </trkpt>
      <trkpt lat="43.57277" lon="5.90805">
        <ele>477</ele>
        <time>2018-06-10T08:24:25Z</time>
      </trkpt>
      <trkpt lat="43.57263" lon="5.90824">
        <ele>476</ele>
        <time>2018-06-10T08:24:29Z</time>
      </trkpt>
      <trkpt lat="43.57252" lon="5.90844">
        <ele>476</ele>
        <time>2018-06-10T08:24:33Z</time>
      </trkpt>
      <trkpt lat="43.57245" lon="5.90868">
        <ele>474</ele>
        <time>2018-06-10T08:24:37Z</time>
      </trkpt>
      <trkpt lat="43.57244" lon="5.90895">
        <ele>474</ele>
        <time>2018-06-10T08:24:42Z</time>
      </trkpt>
      <trkpt lat="43.57235" lon="5.90919">
        <ele>474</ele>
        <time>2018-06-10T08:24:51Z</time>
      </trkpt>
      <trkpt lat="43.57228" lon="5.90946">
        <ele>473</ele>
        <time>2018-06-10T08:24:58Z</time>
      </trkpt>
      <trkpt lat="43.57223" lon="5.9097">
        <ele>473</ele>
        <time>2018-06-10T08:25:06Z</time>
      </trkpt>
      <trkpt lat="43.57219" lon="5.90973">
        <ele>472</ele>
        <time>2018-06-10T08:28:39Z</time>
      </trkpt>
      <trkpt lat="43.57201" lon="5.90987">
        <ele>471</ele>
        <time>2018-06-10T08:29:04Z</time>
      </trkpt>
      <trkpt lat="43.57183" lon="5.90999">
        <ele>468</ele>
        <time>2018-06-10T08:29:09Z</time>
      </trkpt>
      <trkpt lat="43.57172" lon="5.9102">
        <ele>472</ele>
        <time>2018-06-10T08:29:16Z</time>
      </trkpt>
      <trkpt lat="43.57152" lon="5.91021">
        <ele>468</ele>
        <time>2018-06-10T08:29:21Z</time>
      </trkpt>
      <trkpt lat="43.57128" lon="5.91015">
        <ele>468</ele>
        <time>2018-06-10T08:29:25Z</time>
      </trkpt>
      <trkpt lat="43.57109" lon="5.91015">
        <ele>467</ele>
        <time>2018-06-10T08:29:28Z</time>
      </trkpt>
      <trkpt lat="43.57085" lon="5.91018">
        <ele>467</ele>
        <time>2018-06-10T08:29:32Z</time>
      </trkpt>
      <trkpt lat="43.57071" lon="5.91038">
        <ele>465</ele>
        <time>2018-06-10T08:29:36Z</time>
      </trkpt>
      <trkpt lat="43.57051" lon="5.91053">
        <ele>465</ele>
        <time>2018-06-10T08:29:40Z</time>
      </trkpt>
      <trkpt lat="43.57032" lon="5.9106">
        <ele>464</ele>
        <time>2018-06-10T08:29:44Z</time>
      </trkpt>
      <trkpt lat="43.57013" lon="5.91069">
        <ele>463</ele>
        <time>2018-06-10T08:29:48Z</time>
      </trkpt>
      <trkpt lat="43.56993" lon="5.91077">
        <ele>461</ele>
        <time>2018-06-10T08:29:53Z</time>
      </trkpt>
      <trkpt lat="43.56973" lon="5.9108">
        <ele>461</ele>
        <time>2018-06-10T08:30:02Z</time>
      </trkpt>
      <trkpt lat="43.56956" lon="5.91075">
        <ele>462</ele>
        <time>2018-06-10T08:30:12Z</time>
      </trkpt>
      <trkpt lat="43.56939" lon="5.91056">
        <ele>462</ele>
        <time>2018-06-10T08:30:18Z</time>
      </trkpt>
      <trkpt lat="43.56929" lon="5.91034">
        <ele>461</ele>
        <time>2018-06-10T08:30:24Z</time>
      </trkpt>
      <trkpt lat="43.56912" lon="5.91027">
        <ele>459</ele>
        <time>2018-06-10T08:30:30Z</time>
      </trkpt>
      <trkpt lat="43.56892" lon="5.91034">
        <ele>459</ele>
        <time>2018-06-10T08:30:35Z</time>
      </trkpt>
      <trkpt lat="43.56878" lon="5.91056">
        <ele>459</ele>
        <time>2018-06-10T08:30:41Z</time>
      </trkpt>
      <trkpt lat="43.56868" lon="5.91079">
        <ele>459</ele>
        <time>2018-06-10T08:30:46Z</time>
      </trkpt>
      <trkpt lat="43.56859" lon="5.91101">
        <ele>460</ele>
        <time>2018-06-10T08:30:53Z</time>
      </trkpt>
      <trkpt lat="43.56862" lon="5.91128">
        <ele>461</ele>
        <time>2018-06-10T08:30:59Z</time>
      </trkpt>
      <trkpt lat="43.56859" lon="5.91156">
        <ele>461</ele>
        <time>2018-06-10T08:31:05Z</time>
      </trkpt>
      <trkpt lat="43.56856" lon="5.91181">
        <ele>462</ele>
        <time>2018-06-10T08:31:10Z</time>
      </trkpt>
      <trkpt lat="43.56848" lon="5.91205">
        <ele>462</ele>
        <time>2018-06-10T08:31:15Z</time>
      </trkpt>
      <trkpt lat="43.56834" lon="5.91226">
        <ele>461</ele>
        <time>2018-06-10T08:31:20Z</time>
      </trkpt>
      <trkpt lat="43.56822" lon="5.9125">
        <ele>458</ele>
        <time>2018-06-10T08:31:25Z</time>
      </trkpt>
      <trkpt lat="43.56812" lon="5.91271">
        <ele>457</ele>
        <time>2018-06-10T08:31:32Z</time>
      </trkpt>
      <trkpt lat="43.56794" lon="5.9126">
        <ele>456</ele>
        <time>2018-06-10T08:32:40Z</time>
      </trkpt>
      <trkpt lat="43.56775" lon="5.91259">
        <ele>455</ele>
        <time>2018-06-10T08:32:48Z</time>
      </trkpt>
      <trkpt lat="43.56755" lon="5.91268">
        <ele>455</ele>
        <time>2018-06-10T08:32:54Z</time>
      </trkpt>
      <trkpt lat="43.56733" lon="5.91262">
        <ele>451</ele>
        <time>2018-06-10T08:32:59Z</time>
      </trkpt>
      <trkpt lat="43.56713" lon="5.9125">
        <ele>450</ele>
        <time>2018-06-10T08:33:03Z</time>
      </trkpt>
      <trkpt lat="43.56692" lon="5.91238">
        <ele>451</ele>
        <time>2018-06-10T08:33:07Z</time>
      </trkpt>
      <trkpt lat="43.56676" lon="5.91224">
        <ele>450</ele>
        <time>2018-06-10T08:33:11Z</time>
      </trkpt>
      <trkpt lat="43.56662" lon="5.91207">
        <ele>449</ele>
        <time>2018-06-10T08:33:19Z</time>
      </trkpt>
      <trkpt lat="43.56648" lon="5.91191">
        <ele>449</ele>
        <time>2018-06-10T08:33:45Z</time>
      </trkpt>
      <trkpt lat="43.56643" lon="5.91166">
        <ele>449</ele>
        <time>2018-06-10T08:33:54Z</time>
      </trkpt>
      <trkpt lat="43.5663" lon="5.91145">
        <ele>449</ele>
        <time>2018-06-10T08:34:00Z</time>
      </trkpt>
      <trkpt lat="43.56613" lon="5.91136">
        <ele>449</ele>
        <time>2018-06-10T08:34:06Z</time>
      </trkpt>
      <trkpt lat="43.56594" lon="5.9114">
        <ele>449</ele>
        <time>2018-06-10T08:34:13Z</time>
      </trkpt>
      <trkpt lat="43.56575" lon="5.91137">
        <ele>449</ele>
        <time>2018-06-10T08:34:20Z</time>
      </trkpt>
      <trkpt lat="43.56555" lon="5.91137">
        <ele>449</ele>
        <time>2018-06-10T08:34:28Z</time>
      </trkpt>
      <trkpt lat="43.56535" lon="5.91143">
        <ele>449</ele>
        <time>2018-06-10T08:34:35Z</time>
      </trkpt>
      <trkpt lat="43.56517" lon="5.91151">
        <ele>450</ele>
        <time>2018-06-10T08:34:39Z</time>
      </trkpt>
      <trkpt lat="43.56495" lon="5.91158">
        <ele>451</ele>
        <time>2018-06-10T08:34:44Z</time>
      </trkpt>
      <trkpt lat="43.56475" lon="5.91164">
        <ele>449</ele>
        <time>2018-06-10T08:34:48Z</time>
      </trkpt>
      <trkpt lat="43.56455" lon="5.91169">
        <ele>450</ele>
        <time>2018-06-10T08:34:54Z</time>
      </trkpt>
      <trkpt lat="43.56437" lon="5.91171">
        <ele>449</ele>
        <time>2018-06-10T08:34:59Z</time>
      </trkpt>
      <trkpt lat="43.56418" lon="5.91172">
        <ele>448</ele>
        <time>2018-06-10T08:35:04Z</time>
      </trkpt>
      <trkpt lat="43.56398" lon="5.91169">
        <ele>448</ele>
        <time>2018-06-10T08:35:10Z</time>
      </trkpt>
      <trkpt lat="43.56377" lon="5.9117">
        <ele>448</ele>
        <time>2018-06-10T08:35:16Z</time>
      </trkpt>
      <trkpt lat="43.56358" lon="5.91181">
        <ele>448</ele>
        <time>2018-06-10T08:35:21Z</time>
      </trkpt>
      <trkpt lat="43.56336" lon="5.9119">
        <ele>447</ele>
        <time>2018-06-10T08:35:26Z</time>
      </trkpt>
      <trkpt lat="43.56318" lon="5.91196">
        <ele>445</ele>
        <time>2018-06-10T08:35:30Z</time>
      </trkpt>
      <trkpt lat="43.56298" lon="5.91199">
        <ele>444</ele>
        <time>2018-06-10T08:35:34Z</time>
      </trkpt>
      <trkpt lat="43.5628" lon="5.912">
        <ele>443</ele>
        <time>2018-06-10T08:35:37Z</time>
      </trkpt>
      <trkpt lat="43.56259" lon="5.91204">
        <ele>443</ele>
        <time>2018-06-10T08:35:40Z</time>
      </trkpt>
      <trkpt lat="43.56243" lon="5.91216">
        <ele>437</ele>
        <time>2018-06-10T08:35:43Z</time>
      </trkpt>
      <trkpt lat="43.56231" lon="5.91234">
        <ele>437</ele>
        <time>2018-06-10T08:35:46Z</time>
      </trkpt>
      <trkpt lat="43.56216" lon="5.91251">
        <ele>433</ele>
        <time>2018-06-10T08:35:49Z</time>
      </trkpt>
      <trkpt lat="43.56202" lon="5.91277">
        <ele>432</ele>
        <time>2018-06-10T08:35:53Z</time>
      </trkpt>
      <trkpt lat="43.56193" lon="5.91308">
        <ele>431</ele>
        <time>2018-06-10T08:35:57Z</time>
      </trkpt>
      <trkpt lat="43.56186" lon="5.91333">
        <ele>430</ele>
        <time>2018-06-10T08:36:00Z</time>
      </trkpt>
      <trkpt lat="43.56172" lon="5.91361">
        <ele>430</ele>
        <time>2018-06-10T08:36:04Z</time>
      </trkpt>
      <trkpt lat="43.56158" lon="5.91379">
        <ele>426</ele>
        <time>2018-06-10T08:36:07Z</time>
      </trkpt>
      <trkpt lat="43.56143" lon="5.91399">
        <ele>426</ele>
        <time>2018-06-10T08:36:10Z</time>
      </trkpt>
      <trkpt lat="43.56131" lon="5.91419">
        <ele>425</ele>
        <time>2018-06-10T08:36:13Z</time>
      </trkpt>
      <trkpt lat="43.56131" lon="5.91449">
        <ele>425</ele>
        <time>2018-06-10T08:36:20Z</time>
      </trkpt>
      <trkpt lat="43.5613" lon="5.91477">
        <ele>425</ele>
        <time>2018-06-10T08:36:26Z</time>
      </trkpt>
      <trkpt lat="43.5612" lon="5.91503">
        <ele>425</ele>
        <time>2018-06-10T08:36:32Z</time>
      </trkpt>
      <trkpt lat="43.56114" lon="5.91528">
        <ele>424</ele>
        <time>2018-06-10T08:36:39Z</time>
      </trkpt>
      <trkpt lat="43.56105" lon="5.91551">
        <ele>424</ele>
        <time>2018-06-10T08:36:47Z</time>
      </trkpt>
      <trkpt lat="43.56101" lon="5.91576">
        <ele>423</ele>
        <time>2018-06-10T08:36:56Z</time>
      </trkpt>
      <trkpt lat="43.56081" lon="5.91579">
        <ele>420</ele>
        <time>2018-06-10T08:39:54Z</time>
      </trkpt>
      <trkpt lat="43.56061" lon="5.9158">
        <ele>421</ele>
        <time>2018-06-10T08:40:00Z</time>
      </trkpt>
      <trkpt lat="43.56042" lon="5.91581">
        <ele>422</ele>
        <time>2018-06-10T08:40:05Z</time>
      </trkpt>
      <trkpt lat="43.56025" lon="5.91575">
        <ele>422</ele>
        <time>2018-06-10T08:40:11Z</time>
      </trkpt>
      <trkpt lat="43.56007" lon="5.91569">
        <ele>422</ele>
        <time>2018-06-10T08:40:18Z</time>
      </trkpt>
      <trkpt lat="43.55988" lon="5.9157">
        <ele>423</ele>
        <time>2018-06-10T08:40:24Z</time>
      </trkpt>
      <trkpt lat="43.55969" lon="5.91566">
        <ele>423</ele>
        <time>2018-06-10T08:40:29Z</time>
      </trkpt>
      <trkpt lat="43.55948" lon="5.91564">
        <ele>422</ele>
        <time>2018-06-10T08:40:53Z</time>
      </trkpt>
      <trkpt lat="43.55942" lon="5.91539">
        <ele>423</ele>
        <time>2018-06-10T08:42:25Z</time>
      </trkpt>
      <trkpt lat="43.55927" lon="5.91524">
        <ele>423</ele>
        <time>2018-06-10T08:42:42Z</time>
      </trkpt>
      <trkpt lat="43.55911" lon="5.9151">
        <ele>425</ele>
        <time>2018-06-10T08:43:02Z</time>
      </trkpt>
      <trkpt lat="43.55898" lon="5.91493">
        <ele>428</ele>
        <time>2018-06-10T08:43:21Z</time>
      </trkpt>
      <trkpt lat="43.55884" lon="5.91475">
        <ele>430</ele>
        <time>2018-06-10T08:43:37Z</time>
      </trkpt>
      <trkpt lat="43.55871" lon="5.91458">
        <ele>432</ele>
        <time>2018-06-10T08:43:54Z</time>
      </trkpt>
      <trkpt lat="43.55858" lon="5.9144">
        <ele>434</ele>
        <time>2018-06-10T08:44:57Z</time>
      </trkpt>
      <trkpt lat="43.55843" lon="5.91423">
        <ele>437</ele>
        <time>2018-06-10T08:45:09Z</time>
      </trkpt>
      <trkpt lat="43.55829" lon="5.91406">
        <ele>441</ele>
        <time>2018-06-10T08:45:19Z</time>
      </trkpt>
      <trkpt lat="43.55815" lon="5.91389">
        <ele>441</ele>
        <time>2018-06-10T08:45:29Z</time>
      </trkpt>
      <trkpt lat="43.558" lon="5.9137">
        <ele>442</ele>
        <time>2018-06-10T08:45:38Z</time>
      </trkpt>
      <trkpt lat="43.55784" lon="5.91355">
        <ele>442</ele>
        <time>2018-06-10T08:45:48Z</time>
      </trkpt>
      <trkpt lat="43.55766" lon="5.91348">
        <ele>442</ele>
        <time>2018-06-10T08:45:57Z</time>
      </trkpt>
      <trkpt lat="43.55748" lon="5.91342">
        <ele>442</ele>
        <time>2018-06-10T08:46:06Z</time>
      </trkpt>
      <trkpt lat="43.55729" lon="5.91337">
        <ele>442</ele>
        <time>2018-06-10T08:46:14Z</time>
      </trkpt>
      <trkpt lat="43.5571" lon="5.91329">
        <ele>442</ele>
        <time>2018-06-10T08:46:22Z</time>
      </trkpt>
      <trkpt lat="43.55693" lon="5.91323">
        <ele>441</ele>
        <time>2018-06-10T08:46:28Z</time>
      </trkpt>
      <trkpt lat="43.55671" lon="5.91321">
        <ele>441</ele>
        <time>2018-06-10T08:46:36Z</time>
      </trkpt>
      <trkpt lat="43.55652" lon="5.91323">
        <ele>441</ele>
        <time>2018-06-10T08:46:42Z</time>
      </trkpt>
      <trkpt lat="43.55633" lon="5.91317">
        <ele>440</ele>
        <time>2018-06-10T08:46:47Z</time>
      </trkpt>
      <trkpt lat="43.55613" lon="5.91308">
        <ele>440</ele>
        <time>2018-06-10T08:46:53Z</time>
      </trkpt>
      <trkpt lat="43.55595" lon="5.91301">
        <ele>440</ele>
        <time>2018-06-10T08:46:58Z</time>
      </trkpt>
      <trkpt lat="43.55575" lon="5.91293">
        <ele>439</ele>
        <time>2018-06-10T08:47:04Z</time>
      </trkpt>
      <trkpt lat="43.55556" lon="5.913">
        <ele>439</ele>
        <time>2018-06-10T08:47:11Z</time>
      </trkpt>
      <trkpt lat="43.55542" lon="5.9132">
        <ele>439</ele>
        <time>2018-06-10T08:47:17Z</time>
      </trkpt>
      <trkpt lat="43.55521" lon="5.91325">
        <ele>439</ele>
        <time>2018-06-10T08:48:08Z</time>
      </trkpt>
      <trkpt lat="43.55506" lon="5.91308">
        <ele>439</ele>
        <time>2018-06-10T08:49:27Z</time>
      </trkpt>
      <trkpt lat="43.5549" lon="5.91291">
        <ele>438</ele>
        <time>2018-06-10T08:49:35Z</time>
      </trkpt>
      <trkpt lat="43.55472" lon="5.9128">
        <ele>438</ele>
        <time>2018-06-10T08:49:43Z</time>
      </trkpt>
      <trkpt lat="43.55453" lon="5.9127">
        <ele>438</ele>
        <time>2018-06-10T08:49:52Z</time>
      </trkpt>
      <trkpt lat="43.55437" lon="5.91261">
        <ele>437</ele>
        <time>2018-06-10T08:49:58Z</time>
      </trkpt>
      <trkpt lat="43.55425" lon="5.9124">
        <ele>435</ele>
        <time>2018-06-10T08:50:04Z</time>
      </trkpt>
      <trkpt lat="43.55436" lon="5.91218">
        <ele>436</ele>
        <time>2018-06-10T08:50:12Z</time>
      </trkpt>
      <trkpt lat="43.55449" lon="5.91201">
        <ele>436</ele>
        <time>2018-06-10T08:50:18Z</time>
      </trkpt>
      <trkpt lat="43.55461" lon="5.91181">
        <ele>436</ele>
        <time>2018-06-10T08:50:23Z</time>
      </trkpt>
      <trkpt lat="43.55476" lon="5.91161">
        <ele>436</ele>
        <time>2018-06-10T08:50:30Z</time>
      </trkpt>
      <trkpt lat="43.5549" lon="5.91142">
        <ele>436</ele>
        <time>2018-06-10T08:50:35Z</time>
      </trkpt>
      <trkpt lat="43.55503" lon="5.91119">
        <ele>437</ele>
        <time>2018-06-10T08:50:40Z</time>
      </trkpt>
      <trkpt lat="43.55513" lon="5.91097">
        <ele>437</ele>
        <time>2018-06-10T08:50:45Z</time>
      </trkpt>
      <trkpt lat="43.55524" lon="5.91072">
        <ele>436</ele>
        <time>2018-06-10T08:50:51Z</time>
      </trkpt>
      <trkpt lat="43.55539" lon="5.91057">
        <ele>436</ele>
        <time>2018-06-10T08:50:56Z</time>
      </trkpt>
      <trkpt lat="43.55552" lon="5.9104">
        <ele>436</ele>
        <time>2018-06-10T08:51:01Z</time>
      </trkpt>
      <trkpt lat="43.55562" lon="5.91015">
        <ele>436</ele>
        <time>2018-06-10T08:51:07Z</time>
      </trkpt>
      <trkpt lat="43.55556" lon="5.9099">
        <ele>436</ele>
        <time>2018-06-10T08:51:15Z</time>
      </trkpt>
      <trkpt lat="43.55538" lon="5.90981">
        <ele>435</ele>
        <time>2018-06-10T08:51:22Z</time>
      </trkpt>
      <trkpt lat="43.55521" lon="5.90965">
        <ele>435</ele>
        <time>2018-06-10T08:51:28Z</time>
      </trkpt>
      <trkpt lat="43.55504" lon="5.90957">
        <ele>435</ele>
        <time>2018-06-10T08:51:34Z</time>
      </trkpt>
      <trkpt lat="43.55486" lon="5.90954">
        <ele>435</ele>
        <time>2018-06-10T08:51:39Z</time>
      </trkpt>
      <trkpt lat="43.55469" lon="5.90939">
        <ele>436</ele>
        <time>2018-06-10T08:51:44Z</time>
      </trkpt>
      <trkpt lat="43.55456" lon="5.90916">
        <ele>438</ele>
        <time>2018-06-10T08:51:49Z</time>
      </trkpt>
      <trkpt lat="43.55439" lon="5.90904">
        <ele>438</ele>
        <time>2018-06-10T08:51:55Z</time>
      </trkpt>
      <trkpt lat="43.55421" lon="5.90891">
        <ele>439</ele>
        <time>2018-06-10T08:52:04Z</time>
      </trkpt>
      <trkpt lat="43.55413" lon="5.90868">
        <ele>440</ele>
        <time>2018-06-10T08:52:10Z</time>
      </trkpt>
      <trkpt lat="43.5541" lon="5.90843">
        <ele>439</ele>
        <time>2018-06-10T08:52:15Z</time>
      </trkpt>
      <trkpt lat="43.55405" lon="5.90817">
        <ele>437</ele>
        <time>2018-06-10T08:52:20Z</time>
      </trkpt>
      <trkpt lat="43.554" lon="5.90792">
        <ele>436</ele>
        <time>2018-06-10T08:52:26Z</time>
      </trkpt>
      <trkpt lat="43.55391" lon="5.90767">
        <ele>435</ele>
        <time>2018-06-10T08:52:31Z</time>
      </trkpt>
      <trkpt lat="43.55388" lon="5.90737">
        <ele>432</ele>
        <time>2018-06-10T08:52:36Z</time>
      </trkpt>
      <trkpt lat="43.55381" lon="5.90713">
        <ele>431</ele>
        <time>2018-06-10T08:52:40Z</time>
      </trkpt>
      <trkpt lat="43.5537" lon="5.90691">
        <ele>431</ele>
        <time>2018-06-10T08:52:45Z</time>
      </trkpt>
      <trkpt lat="43.55372" lon="5.90664">
        <ele>428</ele>
        <time>2018-06-10T08:52:50Z</time>
      </trkpt>
      <trkpt lat="43.55376" lon="5.90637">
        <ele>428</ele>
        <time>2018-06-10T08:52:57Z</time>
      </trkpt>
      <trkpt lat="43.55362" lon="5.90617">
        <ele>428</ele>
        <time>2018-06-10T08:53:03Z</time>
      </trkpt>
      <trkpt lat="43.55342" lon="5.9061">
        <ele>428</ele>
        <time>2018-06-10T08:53:08Z</time>
      </trkpt>
      <trkpt lat="43.55326" lon="5.90589">
        <ele>427</ele>
        <time>2018-06-10T08:53:13Z</time>
      </trkpt>
      <trkpt lat="43.55312" lon="5.90566">
        <ele>426</ele>
        <time>2018-06-10T08:53:18Z</time>
      </trkpt>
      <trkpt lat="43.553" lon="5.90548">
        <ele>426</ele>
        <time>2018-06-10T08:53:23Z</time>
      </trkpt>
      <trkpt lat="43.55283" lon="5.9053">
        <ele>426</ele>
        <time>2018-06-10T08:53:29Z</time>
      </trkpt>
      <trkpt lat="43.55263" lon="5.90523">
        <ele>426</ele>
        <time>2018-06-10T08:53:34Z</time>
      </trkpt>
      <trkpt lat="43.55246" lon="5.90516">
        <ele>427</ele>
        <time>2018-06-10T08:53:39Z</time>
      </trkpt>
      <trkpt lat="43.55226" lon="5.9051">
        <ele>427</ele>
        <time>2018-06-10T08:53:44Z</time>
      </trkpt>
      <trkpt lat="43.55209" lon="5.90501">
        <ele>427</ele>
        <time>2018-06-10T08:53:49Z</time>
      </trkpt>
      <trkpt lat="43.55193" lon="5.90487">
        <ele>426</ele>
        <time>2018-06-10T08:53:56Z</time>
      </trkpt>
      <trkpt lat="43.55178" lon="5.90471">
        <ele>426</ele>
        <time>2018-06-10T08:54:04Z</time>
      </trkpt>
      <trkpt lat="43.55161" lon="5.90462">
        <ele>425</ele>
        <time>2018-06-10T08:55:07Z</time>
      </trkpt>
      <trkpt lat="43.55149" lon="5.90441">
        <ele>424</ele>
        <time>2018-06-10T08:55:15Z</time>
      </trkpt>
      <trkpt lat="43.55133" lon="5.90422">
        <ele>424</ele>
        <time>2018-06-10T08:55:21Z</time>
      </trkpt>
      <trkpt lat="43.55119" lon="5.90406">
        <ele>422</ele>
        <time>2018-06-10T08:55:26Z</time>
      </trkpt>
      <trkpt lat="43.55105" lon="5.90388">
        <ele>422</ele>
        <time>2018-06-10T08:55:31Z</time>
      </trkpt>
      <trkpt lat="43.55088" lon="5.90375">
        <ele>422</ele>
        <time>2018-06-10T08:55:37Z</time>
      </trkpt>
      <trkpt lat="43.55068" lon="5.90374">
        <ele>420</ele>
        <time>2018-06-10T08:55:42Z</time>
      </trkpt>
      <trkpt lat="43.55049" lon="5.90377">
        <ele>421</ele>
        <time>2018-06-10T08:55:48Z</time>
      </trkpt>
      <trkpt lat="43.55035" lon="5.90359">
        <ele>421</ele>
        <time>2018-06-10T08:57:32Z</time>
      </trkpt>
      <trkpt lat="43.55036" lon="5.90333">
        <ele>421</ele>
        <time>2018-06-10T08:57:42Z</time>
      </trkpt>
      <trkpt lat="43.55044" lon="5.90308">
        <ele>420</ele>
        <time>2018-06-10T08:57:50Z</time>
      </trkpt>
      <trkpt lat="43.5505" lon="5.90281">
        <ele>420</ele>
        <time>2018-06-10T08:57:57Z</time>
      </trkpt>
      <trkpt lat="43.55058" lon="5.90259">
        <ele>420</ele>
        <time>2018-06-10T08:58:03Z</time>
      </trkpt>
      <trkpt lat="43.55058" lon="5.90233">
        <ele>421</ele>
        <time>2018-06-10T08:58:10Z</time>
      </trkpt>
      <trkpt lat="43.55059" lon="5.90206">
        <ele>421</ele>
        <time>2018-06-10T08:58:19Z</time>
      </trkpt>
      <trkpt lat="43.55065" lon="5.90181">
        <ele>421</ele>
        <time>2018-06-10T08:58:27Z</time>
      </trkpt>
      <trkpt lat="43.55077" lon="5.90161">
        <ele>421</ele>
        <time>2018-06-10T08:58:35Z</time>
      </trkpt>
      <trkpt lat="43.55087" lon="5.90138">
        <ele>424</ele>
        <time>2018-06-10T08:58:42Z</time>
      </trkpt>
      <trkpt lat="43.55095" lon="5.90112">
        <ele>425</ele>
        <time>2018-06-10T08:59:09Z</time>
      </trkpt>
      <trkpt lat="43.55082" lon="5.90094">
        <ele>423</ele>
        <time>2018-06-10T08:59:22Z</time>
      </trkpt>
      <trkpt lat="43.55069" lon="5.90074">
        <ele>424</ele>
        <time>2018-06-10T08:59:28Z</time>
      </trkpt>
      <trkpt lat="43.55047" lon="5.90076">
        <ele>423</ele>
        <time>2018-06-10T08:59:33Z</time>
      </trkpt>
      <trkpt lat="43.55028" lon="5.90082">
        <ele>422</ele>
        <time>2018-06-10T08:59:38Z</time>
      </trkpt>
      <trkpt lat="43.5501" lon="5.90072">
        <ele>422</ele>
        <time>2018-06-10T08:59:46Z</time>
      </trkpt>
      <trkpt lat="43.54991" lon="5.90065">
        <ele>421</ele>
        <time>2018-06-10T08:59:52Z</time>
      </trkpt>
      <trkpt lat="43.54975" lon="5.90051">
        <ele>422</ele>
        <time>2018-06-10T08:59:57Z</time>
      </trkpt>
      <trkpt lat="43.54957" lon="5.90042">
        <ele>422</ele>
        <time>2018-06-10T09:00:02Z</time>
      </trkpt>
      <trkpt lat="43.5494" lon="5.9003">
        <ele>422</ele>
        <time>2018-06-10T09:00:08Z</time>
      </trkpt>
      <trkpt lat="43.54927" lon="5.90013">
        <ele>422</ele>
        <time>2018-06-10T09:00:13Z</time>
      </trkpt>
      <trkpt lat="43.54913" lon="5.89994">
        <ele>422</ele>
        <time>2018-06-10T09:00:19Z</time>
      </trkpt>
      <trkpt lat="43.54896" lon="5.89982">
        <ele>421</ele>
        <time>2018-06-10T09:00:25Z</time>
      </trkpt>
      <trkpt lat="43.54876" lon="5.89982">
        <ele>420</ele>
        <time>2018-06-10T09:00:30Z</time>
      </trkpt>
      <trkpt lat="43.54855" lon="5.89987">
        <ele>418</ele>
        <time>2018-06-10T09:00:34Z</time>
      </trkpt>
      <trkpt lat="43.54834" lon="5.89989">
        <ele>417</ele>
        <time>2018-06-10T09:00:38Z</time>
      </trkpt>
      <trkpt lat="43.54811" lon="5.89992">
        <ele>414</ele>
        <time>2018-06-10T09:00:42Z</time>
      </trkpt>
      <trkpt lat="43.54787" lon="5.9">
        <ele>412</ele>
        <time>2018-06-10T09:00:46Z</time>
      </trkpt>
      <trkpt lat="43.54766" lon="5.90005">
        <ele>411</ele>
        <time>2018-06-10T09:00:50Z</time>
      </trkpt>
      <trkpt lat="43.54746" lon="5.90002">
        <ele>411</ele>
        <time>2018-06-10T09:00:54Z</time>
      </trkpt>
      <trkpt lat="43.54727" lon="5.90008">
        <ele>412</ele>
        <time>2018-06-10T09:00:59Z</time>
      </trkpt>
      <trkpt lat="43.54722" lon="5.89982">
        <ele>410</ele>
        <time>2018-06-10T09:01:04Z</time>
      </trkpt>
      <trkpt lat="43.54716" lon="5.89958">
        <ele>410</ele>
        <time>2018-06-10T09:01:08Z</time>
      </trkpt>
      <trkpt lat="43.54716" lon="5.89929">
        <ele>409</ele>
        <time>2018-06-10T09:01:13Z</time>
      </trkpt>
      <trkpt lat="43.54699" lon="5.89916">
        <ele>408</ele>
        <time>2018-06-10T09:01:19Z</time>
      </trkpt>
      <trkpt lat="43.54687" lon="5.89894">
        <ele>408</ele>
        <time>2018-06-10T09:01:25Z</time>
      </trkpt>
      <trkpt lat="43.54682" lon="5.89869">
        <ele>407</ele>
        <time>2018-06-10T09:01:59Z</time>
      </trkpt>
      <trkpt lat="43.54673" lon="5.89842">
        <ele>406</ele>
        <time>2018-06-10T09:02:06Z</time>
      </trkpt>
      <trkpt lat="43.54657" lon="5.8982">
        <ele>407</ele>
        <time>2018-06-10T09:02:11Z</time>
      </trkpt>
      <trkpt lat="43.54645" lon="5.89797">
        <ele>408</ele>
        <time>2018-06-10T09:02:16Z</time>
      </trkpt>
      <trkpt lat="43.54645" lon="5.89767">
        <ele>407</ele>
        <time>2018-06-10T09:02:21Z</time>
      </trkpt>
      <trkpt lat="43.5465" lon="5.89743">
        <ele>404</ele>
        <time>2018-06-10T09:02:25Z</time>
      </trkpt>
      <trkpt lat="43.54653" lon="5.89718">
        <ele>404</ele>
        <time>2018-06-10T09:02:29Z</time>
      </trkpt>
      <trkpt lat="43.54657" lon="5.89693">
        <ele>404</ele>
        <time>2018-06-10T09:02:33Z</time>
      </trkpt>
      <trkpt lat="43.54655" lon="5.89668">
        <ele>403</ele>
        <time>2018-06-10T09:02:37Z</time>
      </trkpt>
      <trkpt lat="43.54639" lon="5.89646">
        <ele>405</ele>
        <time>2018-06-10T09:02:42Z</time>
      </trkpt>
      <trkpt lat="43.5462" lon="5.89635">
        <ele>405</ele>
        <time>2018-06-10T09:02:47Z</time>
      </trkpt>
      <trkpt lat="43.54602" lon="5.89637">
        <ele>405</ele>
        <time>2018-06-10T09:02:51Z</time>
      </trkpt>
      <trkpt lat="43.54584" lon="5.89646">
        <ele>404</ele>
        <time>2018-06-10T09:02:55Z</time>
      </trkpt>
      <trkpt lat="43.54566" lon="5.89657">
        <ele>405</ele>
        <time>2018-06-10T09:02:59Z</time>
      </trkpt>
      <trkpt lat="43.54547" lon="5.89671">
        <ele>405</ele>
        <time>2018-06-10T09:03:04Z</time>
      </trkpt>
      <trkpt lat="43.54527" lon="5.89685">
        <ele>405</ele>
        <time>2018-06-10T09:03:09Z</time>
      </trkpt>
      <trkpt lat="43.5451" lon="5.897">
        <ele>405</ele>
        <time>2018-06-10T09:03:13Z</time>
      </trkpt>
      <trkpt lat="43.54491" lon="5.89715">
        <ele>402</ele>
        <time>2018-06-10T09:03:17Z</time>
      </trkpt>
      <trkpt lat="43.54474" lon="5.89733">
        <ele>401</ele>
        <time>2018-06-10T09:03:22Z</time>
      </trkpt>
      <trkpt lat="43.54457" lon="5.89742">
        <ele>401</ele>
        <time>2018-06-10T09:03:29Z</time>
      </trkpt>
      <trkpt lat="43.54438" lon="5.89732">
        <ele>400</ele>
        <time>2018-06-10T09:03:34Z</time>
      </trkpt>
      <trkpt lat="43.54417" lon="5.8973">
        <ele>399</ele>
        <time>2018-06-10T09:03:39Z</time>
      </trkpt>
      <trkpt lat="43.54399" lon="5.89725">
        <ele>399</ele>
        <time>2018-06-10T09:03:43Z</time>
      </trkpt>
      <trkpt lat="43.54381" lon="5.89711">
        <ele>400</ele>
        <time>2018-06-10T09:03:47Z</time>
      </trkpt>
      <trkpt lat="43.54374" lon="5.89687">
        <ele>400</ele>
        <time>2018-06-10T09:03:51Z</time>
      </trkpt>
      <trkpt lat="43.54382" lon="5.89659">
        <ele>398</ele>
        <time>2018-06-10T09:03:56Z</time>
      </trkpt>
      <trkpt lat="43.54395" lon="5.89638">
        <ele>398</ele>
        <time>2018-06-10T09:04:01Z</time>
      </trkpt>
      <trkpt lat="43.54407" lon="5.89615">
        <ele>397</ele>
        <time>2018-06-10T09:04:06Z</time>
      </trkpt>
      <trkpt lat="43.54418" lon="5.89592">
        <ele>397</ele>
        <time>2018-06-10T09:04:11Z</time>
      </trkpt>
      <trkpt lat="43.54425" lon="5.89565">
        <ele>398</ele>
        <time>2018-06-10T09:04:16Z</time>
      </trkpt>
      <trkpt lat="43.54431" lon="5.89537">
        <ele>399</ele>
        <time>2018-06-10T09:04:22Z</time>
      </trkpt>
      <trkpt lat="43.54433" lon="5.89511">
        <ele>398</ele>
        <time>2018-06-10T09:04:27Z</time>
      </trkpt>
      <trkpt lat="43.5443" lon="5.89481">
        <ele>396</ele>
        <time>2018-06-10T09:04:32Z</time>
      </trkpt>
      <trkpt lat="43.54423" lon="5.89455">
        <ele>396</ele>
        <time>2018-06-10T09:04:37Z</time>
      </trkpt>
      <trkpt lat="43.54416" lon="5.89431">
        <ele>389</ele>
        <time>2018-06-10T09:04:41Z</time>
      </trkpt>
      <trkpt lat="43.54406" lon="5.89408">
        <ele>388</ele>
        <time>2018-06-10T09:04:46Z</time>
      </trkpt>
      <trkpt lat="43.54417" lon="5.89382">
        <ele>393</ele>
        <time>2018-06-10T09:04:52Z</time>
      </trkpt>
      <trkpt lat="43.54423" lon="5.89358">
        <ele>393</ele>
        <time>2018-06-10T09:04:58Z</time>
      </trkpt>
      <trkpt lat="43.54402" lon="5.89359">
        <ele>389</ele>
        <time>2018-06-10T09:06:39Z</time>
      </trkpt>
      <trkpt lat="43.54383" lon="5.89364">
        <ele>388</ele>
        <time>2018-06-10T09:06:44Z</time>
      </trkpt>
      <trkpt lat="43.54362" lon="5.89362">
        <ele>388</ele>
        <time>2018-06-10T09:06:49Z</time>
      </trkpt>
      <trkpt lat="43.54343" lon="5.89362">
        <ele>388</ele>
        <time>2018-06-10T09:06:54Z</time>
      </trkpt>
      <trkpt lat="43.54323" lon="5.89357">
        <ele>386</ele>
        <time>2018-06-10T09:07:00Z</time>
      </trkpt>
      <trkpt lat="43.54304" lon="5.89352">
        <ele>386</ele>
        <time>2018-06-10T09:07:06Z</time>
      </trkpt>
      <trkpt lat="43.54284" lon="5.89346">
        <ele>386</ele>
        <time>2018-06-10T09:07:12Z</time>
      </trkpt>
      <trkpt lat="43.54265" lon="5.89348">
        <ele>385</ele>
        <time>2018-06-10T09:07:18Z</time>
      </trkpt>
      <trkpt lat="43.54247" lon="5.89345">
        <ele>385</ele>
        <time>2018-06-10T09:07:22Z</time>
      </trkpt>
      <trkpt lat="43.54225" lon="5.89334">
        <ele>385</ele>
        <time>2018-06-10T09:07:26Z</time>
      </trkpt>
      <trkpt lat="43.54202" lon="5.89324">
        <ele>390</ele>
        <time>2018-06-10T09:07:30Z</time>
      </trkpt>
      <trkpt lat="43.54182" lon="5.8932">
        <ele>389</ele>
        <time>2018-06-10T09:07:33Z</time>
      </trkpt>
      <trkpt lat="43.54162" lon="5.89319">
        <ele>388</ele>
        <time>2018-06-10T09:07:36Z</time>
      </trkpt>
      <trkpt lat="43.54144" lon="5.89325">
        <ele>389</ele>
        <time>2018-06-10T09:07:39Z</time>
      </trkpt>
      <trkpt lat="43.54124" lon="5.89337">
        <ele>385</ele>
        <time>2018-06-10T09:07:42Z</time>
      </trkpt>
      <trkpt lat="43.54104" lon="5.89347">
        <ele>385</ele>
        <time>2018-06-10T09:07:45Z</time>
      </trkpt>
      <trkpt lat="43.54084" lon="5.89355">
        <ele>385</ele>
        <time>2018-06-10T09:07:48Z</time>
      </trkpt>
      <trkpt lat="43.54063" lon="5.89361">
        <ele>383</ele>
        <time>2018-06-10T09:07:52Z</time>
      </trkpt>
      <trkpt lat="43.54044" lon="5.89357">
        <ele>383</ele>
        <time>2018-06-10T09:07:57Z</time>
      </trkpt>
      <trkpt lat="43.54023" lon="5.8935">
        <ele>382</ele>
        <time>2018-06-10T09:08:01Z</time>
      </trkpt>
      <trkpt lat="43.54" lon="5.89342">
        <ele>382</ele>
        <time>2018-06-10T09:08:04Z</time>
      </trkpt>
      <trkpt lat="43.53974" lon="5.89332">
        <ele>381</ele>
        <time>2018-06-10T09:08:07Z</time>
      </trkpt>
      <trkpt lat="43.53958" lon="5.89321">
        <ele>381</ele>
        <time>2018-06-10T09:08:09Z</time>
      </trkpt>
      <trkpt lat="43.53937" lon="5.89308">
        <ele>381</ele>
        <time>2018-06-10T09:08:12Z</time>
      </trkpt>
      <trkpt lat="43.53915" lon="5.89303">
        <ele>380</ele>
        <time>2018-06-10T09:08:15Z</time>
      </trkpt>
      <trkpt lat="43.53893" lon="5.89307">
        <ele>380</ele>
        <time>2018-06-10T09:08:19Z</time>
      </trkpt>
      <trkpt lat="43.53873" lon="5.89304">
        <ele>380</ele>
        <time>2018-06-10T09:08:22Z</time>
      </trkpt>
      <trkpt lat="43.5385" lon="5.89303">
        <ele>380</ele>
        <time>2018-06-10T09:08:25Z</time>
      </trkpt>
      <trkpt lat="43.5383" lon="5.89315">
        <ele>380</ele>
        <time>2018-06-10T09:08:28Z</time>
      </trkpt>
      <trkpt lat="43.53809" lon="5.89327">
        <ele>380</ele>
        <time>2018-06-10T09:08:31Z</time>
      </trkpt>
      <trkpt lat="43.53787" lon="5.89337">
        <ele>381</ele>
        <time>2018-06-10T09:08:34Z</time>
      </trkpt>
      <trkpt lat="43.53766" lon="5.89347">
        <ele>380</ele>
        <time>2018-06-10T09:08:37Z</time>
      </trkpt>
      <trkpt lat="43.53746" lon="5.89357">
        <ele>379</ele>
        <time>2018-06-10T09:08:40Z</time>
      </trkpt>
      <trkpt lat="43.53727" lon="5.89367">
        <ele>380</ele>
        <time>2018-06-10T09:08:43Z</time>
      </trkpt>
      <trkpt lat="43.53707" lon="5.89372">
        <ele>379</ele>
        <time>2018-06-10T09:08:46Z</time>
      </trkpt>
      <trkpt lat="43.53687" lon="5.89382">
        <ele>379</ele>
        <time>2018-06-10T09:08:49Z</time>
      </trkpt>
      <trkpt lat="43.53668" lon="5.89392">
        <ele>378</ele>
        <time>2018-06-10T09:08:52Z</time>
      </trkpt>
      <trkpt lat="43.53649" lon="5.894">
        <ele>377</ele>
        <time>2018-06-10T09:08:55Z</time>
      </trkpt>
      <trkpt lat="43.53629" lon="5.89404">
        <ele>376</ele>
        <time>2018-06-10T09:08:58Z</time>
      </trkpt>
      <trkpt lat="43.53608" lon="5.89394">
        <ele>376</ele>
        <time>2018-06-10T09:09:02Z</time>
      </trkpt>
      <trkpt lat="43.53591" lon="5.89385">
        <ele>376</ele>
        <time>2018-06-10T09:09:06Z</time>
      </trkpt>
      <trkpt lat="43.53573" lon="5.89374">
        <ele>378</ele>
        <time>2018-06-10T09:09:10Z</time>
      </trkpt>
      <trkpt lat="43.53554" lon="5.89365">
        <ele>379</ele>
        <time>2018-06-10T09:09:14Z</time>
      </trkpt>
      <trkpt lat="43.53534" lon="5.89366">
        <ele>379</ele>
        <time>2018-06-10T09:09:19Z</time>
      </trkpt>
      <trkpt lat="43.53516" lon="5.89369">
        <ele>380</ele>
        <time>2018-06-10T09:09:27Z</time>
      </trkpt>
      <trkpt lat="43.53498" lon="5.89375">
        <ele>383</ele>
        <time>2018-06-10T09:09:38Z</time>
      </trkpt>
      <trkpt lat="43.53481" lon="5.89389">
        <ele>383</ele>
        <time>2018-06-10T09:09:50Z</time>
      </trkpt>
      <trkpt lat="43.53464" lon="5.89401">
        <ele>383</ele>
        <time>2018-06-10T09:10:00Z</time>
      </trkpt>
      <trkpt lat="43.53445" lon="5.89405">
        <ele>384</ele>
        <time>2018-06-10T09:10:12Z</time>
      </trkpt>
      <trkpt lat="43.53431" lon="5.89388">
        <ele>385</ele>
        <time>2018-06-10T09:10:22Z</time>
      </trkpt>
      <trkpt lat="43.53414" lon="5.89372">
        <ele>385</ele>
        <time>2018-06-10T09:10:30Z</time>
      </trkpt>
      <trkpt lat="43.53398" lon="5.89353">
        <ele>386</ele>
        <time>2018-06-10T09:10:37Z</time>
      </trkpt>
      <trkpt lat="43.53384" lon="5.89333">
        <ele>388</ele>
        <time>2018-06-10T09:10:42Z</time>
      </trkpt>
      <trkpt lat="43.53369" lon="5.89314">
        <ele>388</ele>
        <time>2018-06-10T09:10:46Z</time>
      </trkpt>
      <trkpt lat="43.53351" lon="5.89297">
        <ele>388</ele>
        <time>2018-06-10T09:10:50Z</time>
      </trkpt>
      <trkpt lat="43.53333" lon="5.893">
        <ele>388</ele>
        <time>2018-06-10T09:10:55Z</time>
      </trkpt>
      <trkpt lat="43.53312" lon="5.89311">
        <ele>388</ele>
        <time>2018-06-10T09:11:00Z</time>
      </trkpt>
      <trkpt lat="43.53296" lon="5.89321">
        <ele>388</ele>
        <time>2018-06-10T09:11:04Z</time>
      </trkpt>
      <trkpt lat="43.53279" lon="5.89331">
        <ele>388</ele>
        <time>2018-06-10T09:11:08Z</time>
      </trkpt>
      <trkpt lat="43.53258" lon="5.89341">
        <ele>384</ele>
        <time>2018-06-10T09:11:12Z</time>
      </trkpt>
      <trkpt lat="43.53238" lon="5.8935">
        <ele>385</ele>
        <time>2018-06-10T09:11:16Z</time>
      </trkpt>
      <trkpt lat="43.53218" lon="5.89356">
        <ele>386</ele>
        <time>2018-06-10T09:11:20Z</time>
      </trkpt>
      <trkpt lat="43.53197" lon="5.89357">
        <ele>386</ele>
        <time>2018-06-10T09:11:24Z</time>
      </trkpt>
      <trkpt lat="43.53178" lon="5.89358">
        <ele>387</ele>
        <time>2018-06-10T09:11:28Z</time>
      </trkpt>
      <trkpt lat="43.53156" lon="5.89358">
        <ele>390</ele>
        <time>2018-06-10T09:11:33Z</time>
      </trkpt>
      <trkpt lat="43.53137" lon="5.89366">
        <ele>390</ele>
        <time>2018-06-10T09:11:40Z</time>
      </trkpt>
      <trkpt lat="43.5312" lon="5.89381">
        <ele>389</ele>
        <time>2018-06-10T09:11:45Z</time>
      </trkpt>
      <trkpt lat="43.53104" lon="5.89397">
        <ele>387</ele>
        <time>2018-06-10T09:11:49Z</time>
      </trkpt>
      <trkpt lat="43.53086" lon="5.89413">
        <ele>384</ele>
        <time>2018-06-10T09:11:53Z</time>
      </trkpt>
      <trkpt lat="43.53068" lon="5.89427">
        <ele>382</ele>
        <time>2018-06-10T09:11:57Z</time>
      </trkpt>
      <trkpt lat="43.53049" lon="5.89441">
        <ele>382</ele>
        <time>2018-06-10T09:12:01Z</time>
      </trkpt>
      <trkpt lat="43.53029" lon="5.89453">
        <ele>382</ele>
        <time>2018-06-10T09:12:05Z</time>
      </trkpt>
      <trkpt lat="43.53008" lon="5.89464">
        <ele>381</ele>
        <time>2018-06-10T09:12:09Z</time>
      </trkpt>
      <trkpt lat="43.52987" lon="5.89475">
        <ele>383</ele>
        <time>2018-06-10T09:12:13Z</time>
      </trkpt>
      <trkpt lat="43.52968" lon="5.89484">
        <ele>383</ele>
        <time>2018-06-10T09:12:17Z</time>
      </trkpt>
      <trkpt lat="43.52947" lon="5.89495">
        <ele>383</ele>
        <time>2018-06-10T09:12:21Z</time>
      </trkpt>
      <trkpt lat="43.52926" lon="5.89504">
        <ele>378</ele>
        <time>2018-06-10T09:12:25Z</time>
      </trkpt>
      <trkpt lat="43.52908" lon="5.89512">
        <ele>379</ele>
        <time>2018-06-10T09:12:28Z</time>
      </trkpt>
      <trkpt lat="43.5289" lon="5.89519">
        <ele>378</ele>
        <time>2018-06-10T09:12:31Z</time>
      </trkpt>
      <trkpt lat="43.52869" lon="5.8953">
        <ele>378</ele>
        <time>2018-06-10T09:12:35Z</time>
      </trkpt>
      <trkpt lat="43.52848" lon="5.89541">
        <ele>377</ele>
        <time>2018-06-10T09:12:39Z</time>
      </trkpt>
      <trkpt lat="43.52829" lon="5.89552">
        <ele>379</ele>
        <time>2018-06-10T09:12:43Z</time>
      </trkpt>
      <trkpt lat="43.52813" lon="5.89562">
        <ele>379</ele>
        <time>2018-06-10T09:12:48Z</time>
      </trkpt>
      <trkpt lat="43.52793" lon="5.89571">
        <ele>379</ele>
        <time>2018-06-10T09:12:54Z</time>
      </trkpt>
      <trkpt lat="43.52775" lon="5.89573">
        <ele>380</ele>
        <time>2018-06-10T09:12:59Z</time>
      </trkpt>
      <trkpt lat="43.52756" lon="5.89573">
        <ele>379</ele>
        <time>2018-06-10T09:13:04Z</time>
      </trkpt>
      <trkpt lat="43.52733" lon="5.89573">
        <ele>382</ele>
        <time>2018-06-10T09:13:09Z</time>
      </trkpt>
      <trkpt lat="43.52712" lon="5.89573">
        <ele>384</ele>
        <time>2018-06-10T09:13:13Z</time>
      </trkpt>
      <trkpt lat="43.52693" lon="5.89571">
        <ele>384</ele>
        <time>2018-06-10T09:13:17Z</time>
      </trkpt>
      <trkpt lat="43.52672" lon="5.89571">
        <ele>383</ele>
        <time>2018-06-10T09:13:22Z</time>
      </trkpt>
      <trkpt lat="43.52651" lon="5.89572">
        <ele>385</ele>
        <time>2018-06-10T09:13:27Z</time>
      </trkpt>
      <trkpt lat="43.52629" lon="5.8957">
        <ele>387</ele>
        <time>2018-06-10T09:13:32Z</time>
      </trkpt>
      <trkpt lat="43.5261" lon="5.8957">
        <ele>387</ele>
        <time>2018-06-10T09:13:36Z</time>
      </trkpt>
      <trkpt lat="43.52591" lon="5.89568">
        <ele>386</ele>
        <time>2018-06-10T09:13:40Z</time>
      </trkpt>
      <trkpt lat="43.52572" lon="5.89568">
        <ele>388</ele>
        <time>2018-06-10T09:13:43Z</time>
      </trkpt>
      <trkpt lat="43.5255" lon="5.89567">
        <ele>389</ele>
        <time>2018-06-10T09:13:47Z</time>
      </trkpt>
      <trkpt lat="43.52532" lon="5.89566">
        <ele>389</ele>
        <time>2018-06-10T09:13:51Z</time>
      </trkpt>
      <trkpt lat="43.52513" lon="5.89564">
        <ele>389</ele>
        <time>2018-06-10T09:13:57Z</time>
      </trkpt>
      <trkpt lat="43.52495" lon="5.89564">
        <ele>389</ele>
        <time>2018-06-10T09:14:03Z</time>
      </trkpt>
      <trkpt lat="43.52475" lon="5.89565">
        <ele>390</ele>
        <time>2018-06-10T09:14:10Z</time>
      </trkpt>
      <trkpt lat="43.52457" lon="5.89564">
        <ele>391</ele>
        <time>2018-06-10T09:14:14Z</time>
      </trkpt>
      <trkpt lat="43.52438" lon="5.89563">
        <ele>390</ele>
        <time>2018-06-10T09:14:19Z</time>
      </trkpt>
      <trkpt lat="43.52417" lon="5.89559">
        <ele>390</ele>
        <time>2018-06-10T09:14:25Z</time>
      </trkpt>
      <trkpt lat="43.52397" lon="5.89557">
        <ele>390</ele>
        <time>2018-06-10T09:14:30Z</time>
      </trkpt>
      <trkpt lat="43.52378" lon="5.89556">
        <ele>390</ele>
        <time>2018-06-10T09:14:34Z</time>
      </trkpt>
      <trkpt lat="43.52357" lon="5.89559">
        <ele>389</ele>
        <time>2018-06-10T09:14:38Z</time>
      </trkpt>
      <trkpt lat="43.52336" lon="5.8956">
        <ele>387</ele>
        <time>2018-06-10T09:14:42Z</time>
      </trkpt>
      <trkpt lat="43.52314" lon="5.89559">
        <ele>389</ele>
        <time>2018-06-10T09:14:46Z</time>
      </trkpt>
      <trkpt lat="43.52291" lon="5.89555">
        <ele>390</ele>
        <time>2018-06-10T09:14:51Z</time>
      </trkpt>
      <trkpt lat="43.52272" lon="5.89556">
        <ele>390</ele>
        <time>2018-06-10T09:14:55Z</time>
      </trkpt>
      <trkpt lat="43.52251" lon="5.8956">
        <ele>389</ele>
        <time>2018-06-10T09:15:00Z</time>
      </trkpt>
      <trkpt lat="43.52233" lon="5.89566">
        <ele>393</ele>
        <time>2018-06-10T09:15:05Z</time>
      </trkpt>
      <trkpt lat="43.52215" lon="5.89575">
        <ele>394</ele>
        <time>2018-06-10T09:15:11Z</time>
      </trkpt>
      <trkpt lat="43.52194" lon="5.89584">
        <ele>387</ele>
        <time>2018-06-10T09:15:17Z</time>
      </trkpt>
      <trkpt lat="43.52177" lon="5.89592">
        <ele>389</ele>
        <time>2018-06-10T09:15:22Z</time>
      </trkpt>
      <trkpt lat="43.52158" lon="5.89602">
        <ele>391</ele>
        <time>2018-06-10T09:15:27Z</time>
      </trkpt>
      <trkpt lat="43.5214" lon="5.8961">
        <ele>390</ele>
        <time>2018-06-10T09:15:32Z</time>
      </trkpt>
      <trkpt lat="43.52121" lon="5.89617">
        <ele>390</ele>
        <time>2018-06-10T09:15:37Z</time>
      </trkpt>
      <trkpt lat="43.52102" lon="5.89626">
        <ele>389</ele>
        <time>2018-06-10T09:15:42Z</time>
      </trkpt>
      <trkpt lat="43.52084" lon="5.89633">
        <ele>389</ele>
        <time>2018-06-10T09:15:46Z</time>
      </trkpt>
      <trkpt lat="43.52064" lon="5.89639">
        <ele>391</ele>
        <time>2018-06-10T09:15:50Z</time>
      </trkpt>
      <trkpt lat="43.52045" lon="5.89646">
        <ele>391</ele>
        <time>2018-06-10T09:15:54Z</time>
      </trkpt>
      <trkpt lat="43.52028" lon="5.89651">
        <ele>391</ele>
        <time>2018-06-10T09:15:58Z</time>
      </trkpt>
      <trkpt lat="43.52006" lon="5.8966">
        <ele>390</ele>
        <time>2018-06-10T09:16:03Z</time>
      </trkpt>
      <trkpt lat="43.51987" lon="5.89669">
        <ele>388</ele>
        <time>2018-06-10T09:16:07Z</time>
      </trkpt>
      <trkpt lat="43.51968" lon="5.89675">
        <ele>387</ele>
        <time>2018-06-10T09:16:11Z</time>
      </trkpt>
      <trkpt lat="43.51951" lon="5.89683">
        <ele>387</ele>
        <time>2018-06-10T09:16:15Z</time>
      </trkpt>
      <trkpt lat="43.51932" lon="5.8969">
        <ele>388</ele>
        <time>2018-06-10T09:16:19Z</time>
      </trkpt>
      <trkpt lat="43.51911" lon="5.89696">
        <ele>389</ele>
        <time>2018-06-10T09:16:24Z</time>
      </trkpt>
      <trkpt lat="43.5189" lon="5.89699">
        <ele>388</ele>
        <time>2018-06-10T09:16:29Z</time>
      </trkpt>
      <trkpt lat="43.51868" lon="5.89702">
        <ele>389</ele>
        <time>2018-06-10T09:16:34Z</time>
      </trkpt>
      <trkpt lat="43.51847" lon="5.89705">
        <ele>389</ele>
        <time>2018-06-10T09:16:39Z</time>
      </trkpt>
      <trkpt lat="43.51826" lon="5.89707">
        <ele>390</ele>
        <time>2018-06-10T09:16:44Z</time>
      </trkpt>
      <trkpt lat="43.51805" lon="5.89707">
        <ele>390</ele>
        <time>2018-06-10T09:16:49Z</time>
      </trkpt>
      <trkpt lat="43.51786" lon="5.89707">
        <ele>390</ele>
        <time>2018-06-10T09:16:54Z</time>
      </trkpt>
      <trkpt lat="43.51768" lon="5.89704">
        <ele>390</ele>
        <time>2018-06-10T09:16:59Z</time>
      </trkpt>
      <trkpt lat="43.5175" lon="5.89697">
        <ele>392</ele>
        <time>2018-06-10T09:17:04Z</time>
      </trkpt>
      <trkpt lat="43.51732" lon="5.89689">
        <ele>392</ele>
        <time>2018-06-10T09:17:09Z</time>
      </trkpt>
      <trkpt lat="43.51714" lon="5.8968">
        <ele>392</ele>
        <time>2018-06-10T09:17:15Z</time>
      </trkpt>
      <trkpt lat="43.51695" lon="5.89677">
        <ele>392</ele>
        <time>2018-06-10T09:17:21Z</time>
      </trkpt>
      <trkpt lat="43.51676" lon="5.89673">
        <ele>393</ele>
        <time>2018-06-10T09:17:27Z</time>
      </trkpt>
      <trkpt lat="43.51656" lon="5.89668">
        <ele>393</ele>
        <time>2018-06-10T09:17:33Z</time>
      </trkpt>
      <trkpt lat="43.51637" lon="5.89663">
        <ele>394</ele>
        <time>2018-06-10T09:17:38Z</time>
      </trkpt>
      <trkpt lat="43.51617" lon="5.89658">
        <ele>394</ele>
        <time>2018-06-10T09:17:45Z</time>
      </trkpt>
      <trkpt lat="43.51599" lon="5.89652">
        <ele>394</ele>
        <time>2018-06-10T09:17:50Z</time>
      </trkpt>
      <trkpt lat="43.51592" lon="5.89628">
        <ele>394</ele>
        <time>2018-06-10T09:17:58Z</time>
      </trkpt>
      <trkpt lat="43.51589" lon="5.89602">
        <ele>395</ele>
        <time>2018-06-10T09:18:07Z</time>
      </trkpt>
      <trkpt lat="43.51577" lon="5.89583">
        <ele>396</ele>
        <time>2018-06-10T09:18:14Z</time>
      </trkpt>
      <trkpt lat="43.51566" lon="5.89562">
        <ele>398</ele>
        <time>2018-06-10T09:18:23Z</time>
      </trkpt>
      <trkpt lat="43.51551" lon="5.89547">
        <ele>398</ele>
        <time>2018-06-10T09:18:30Z</time>
      </trkpt>
      <trkpt lat="43.51534" lon="5.89533">
        <ele>399</ele>
        <time>2018-06-10T09:18:38Z</time>
      </trkpt>
      <trkpt lat="43.51516" lon="5.89529">
        <ele>400</ele>
        <time>2018-06-10T09:18:46Z</time>
      </trkpt>
      <trkpt lat="43.515" lon="5.89518">
        <ele>402</ele>
        <time>2018-06-10T09:18:53Z</time>
      </trkpt>
      <trkpt lat="43.5148" lon="5.89511">
        <ele>402</ele>
        <time>2018-06-10T09:19:01Z</time>
      </trkpt>
      <trkpt lat="43.51462" lon="5.89506">
        <ele>402</ele>
        <time>2018-06-10T09:19:10Z</time>
      </trkpt>
      <trkpt lat="43.51444" lon="5.89495">
        <ele>406</ele>
        <time>2018-06-10T09:19:18Z</time>
      </trkpt>
      <trkpt lat="43.51426" lon="5.89484">
        <ele>406</ele>
        <time>2018-06-10T09:19:26Z</time>
      </trkpt>
      <trkpt lat="43.5141" lon="5.89469">
        <ele>409</ele>
        <time>2018-06-10T09:19:35Z</time>
      </trkpt>
      <trkpt lat="43.51394" lon="5.89456">
        <ele>410</ele>
        <time>2018-06-10T09:19:43Z</time>
      </trkpt>
      <trkpt lat="43.51377" lon="5.89444">
        <ele>410</ele>
        <time>2018-06-10T09:19:52Z</time>
      </trkpt>
      <trkpt lat="43.51358" lon="5.89439">
        <ele>411</ele>
        <time>2018-06-10T09:20:01Z</time>
      </trkpt>
      <trkpt lat="43.5134" lon="5.89441">
        <ele>411</ele>
        <time>2018-06-10T09:20:10Z</time>
      </trkpt>
      <trkpt lat="43.51321" lon="5.89441">
        <ele>412</ele>
        <time>2018-06-10T09:20:18Z</time>
      </trkpt>
      <trkpt lat="43.513" lon="5.89437">
        <ele>412</ele>
        <time>2018-06-10T09:20:25Z</time>
      </trkpt>
      <trkpt lat="43.51282" lon="5.89424">
        <ele>412</ele>
        <time>2018-06-10T09:20:31Z</time>
      </trkpt>
      <trkpt lat="43.51267" lon="5.89405">
        <ele>411</ele>
        <time>2018-06-10T09:20:37Z</time>
      </trkpt>
      <trkpt lat="43.51256" lon="5.89382">
        <ele>410</ele>
        <time>2018-06-10T09:20:42Z</time>
      </trkpt>
      <trkpt lat="43.5124" lon="5.89366">
        <ele>409</ele>
        <time>2018-06-10T09:20:47Z</time>
      </trkpt>
      <trkpt lat="43.51225" lon="5.89351">
        <ele>408</ele>
        <time>2018-06-10T09:20:52Z</time>
      </trkpt>
      <trkpt lat="43.51209" lon="5.89331">
        <ele>406</ele>
        <time>2018-06-10T09:20:57Z</time>
      </trkpt>
      <trkpt lat="43.5119" lon="5.89316">
        <ele>406</ele>
        <time>2018-06-10T09:21:02Z</time>
      </trkpt>
      <trkpt lat="43.51172" lon="5.89313">
        <ele>406</ele>
        <time>2018-06-10T09:21:07Z</time>
      </trkpt>
      <trkpt lat="43.51154" lon="5.89311">
        <ele>405</ele>
        <time>2018-06-10T09:21:12Z</time>
      </trkpt>
      <trkpt lat="43.51136" lon="5.89305">
        <ele>405</ele>
        <time>2018-06-10T09:21:17Z</time>
      </trkpt>
      <trkpt lat="43.51119" lon="5.89298">
        <ele>404</ele>
        <time>2018-06-10T09:21:22Z</time>
      </trkpt>
      <trkpt lat="43.51101" lon="5.89293">
        <ele>404</ele>
        <time>2018-06-10T09:21:27Z</time>
      </trkpt>
      <trkpt lat="43.51082" lon="5.89287">
        <ele>403</ele>
        <time>2018-06-10T09:21:34Z</time>
      </trkpt>
      <trkpt lat="43.51062" lon="5.89287">
        <ele>403</ele>
        <time>2018-06-10T09:21:42Z</time>
      </trkpt>
      <trkpt lat="43.51044" lon="5.89285">
        <ele>402</ele>
        <time>2018-06-10T09:21:48Z</time>
      </trkpt>
      <trkpt lat="43.51025" lon="5.89274">
        <ele>402</ele>
        <time>2018-06-10T09:21:54Z</time>
      </trkpt>
      <trkpt lat="43.51006" lon="5.89264">
        <ele>402</ele>
        <time>2018-06-10T09:21:59Z</time>
      </trkpt>
      <trkpt lat="43.50986" lon="5.89252">
        <ele>401</ele>
        <time>2018-06-10T09:22:04Z</time>
      </trkpt>
      <trkpt lat="43.50965" lon="5.89242">
        <ele>399</ele>
        <time>2018-06-10T09:22:10Z</time>
      </trkpt>
      <trkpt lat="43.50948" lon="5.89238">
        <ele>398</ele>
        <time>2018-06-10T09:22:14Z</time>
      </trkpt>
      <trkpt lat="43.50929" lon="5.89231">
        <ele>398</ele>
        <time>2018-06-10T09:22:18Z</time>
      </trkpt>
      <trkpt lat="43.50907" lon="5.89223">
        <ele>394</ele>
        <time>2018-06-10T09:22:22Z</time>
      </trkpt>
      <trkpt lat="43.50885" lon="5.8921">
        <ele>392</ele>
        <time>2018-06-10T09:22:26Z</time>
      </trkpt>
      <trkpt lat="43.50866" lon="5.89206">
        <ele>391</ele>
        <time>2018-06-10T09:22:29Z</time>
      </trkpt>
      <trkpt lat="43.50848" lon="5.89199">
        <ele>390</ele>
        <time>2018-06-10T09:22:33Z</time>
      </trkpt>
      <trkpt lat="43.50831" lon="5.89188">
        <ele>383</ele>
        <time>2018-06-10T09:22:38Z</time>
      </trkpt>
      <trkpt lat="43.50815" lon="5.89176">
        <ele>382</ele>
        <time>2018-06-10T09:22:42Z</time>
      </trkpt>
      <trkpt lat="43.50801" lon="5.89155">
        <ele>377</ele>
        <time>2018-06-10T09:22:47Z</time>
      </trkpt>
      <trkpt lat="43.50786" lon="5.89142">
        <ele>374</ele>
        <time>2018-06-10T09:22:53Z</time>
      </trkpt>
      <trkpt lat="43.50768" lon="5.89131">
        <ele>373</ele>
        <time>2018-06-10T09:22:58Z</time>
      </trkpt>
      <trkpt lat="43.50747" lon="5.89126">
        <ele>364</ele>
        <time>2018-06-10T09:23:03Z</time>
      </trkpt>
      <trkpt lat="43.50727" lon="5.89126">
        <ele>363</ele>
        <time>2018-06-10T09:23:07Z</time>
      </trkpt>
      <trkpt lat="43.50709" lon="5.89131">
        <ele>361</ele>
        <time>2018-06-10T09:23:11Z</time>
      </trkpt>
      <trkpt lat="43.5069" lon="5.89124">
        <ele>360</ele>
        <time>2018-06-10T09:23:17Z</time>
      </trkpt>
      <trkpt lat="43.50672" lon="5.89124">
        <ele>359</ele>
        <time>2018-06-10T09:23:23Z</time>
      </trkpt>
      <trkpt lat="43.50652" lon="5.89112">
        <ele>349</ele>
        <time>2018-06-10T09:23:30Z</time>
      </trkpt>
      <trkpt lat="43.50634" lon="5.89104">
        <ele>348</ele>
        <time>2018-06-10T09:23:36Z</time>
      </trkpt>
      <trkpt lat="43.50614" lon="5.89094">
        <ele>346</ele>
        <time>2018-06-10T09:23:42Z</time>
      </trkpt>
      <trkpt lat="43.50595" lon="5.89087">
        <ele>343</ele>
        <time>2018-06-10T09:23:48Z</time>
      </trkpt>
      <trkpt lat="43.50576" lon="5.8908">
        <ele>339</ele>
        <time>2018-06-10T09:23:54Z</time>
      </trkpt>
      <trkpt lat="43.5056" lon="5.89063">
        <ele>334</ele>
        <time>2018-06-10T09:24:00Z</time>
      </trkpt>
      <trkpt lat="43.50548" lon="5.89043">
        <ele>333</ele>
        <time>2018-06-10T09:24:05Z</time>
      </trkpt>
      <trkpt lat="43.50541" lon="5.89019">
        <ele>332</ele>
        <time>2018-06-10T09:24:11Z</time>
      </trkpt>
      <trkpt lat="43.5053" lon="5.88997">
        <ele>331</ele>
        <time>2018-06-10T09:24:17Z</time>
      </trkpt>
      <trkpt lat="43.50513" lon="5.88979">
        <ele>330</ele>
        <time>2018-06-10T09:24:22Z</time>
      </trkpt>
      <trkpt lat="43.50494" lon="5.88966">
        <ele>322</ele>
        <time>2018-06-10T09:24:26Z</time>
      </trkpt>
      <trkpt lat="43.50477" lon="5.88955">
        <ele>321</ele>
        <time>2018-06-10T09:24:30Z</time>
      </trkpt>
      <trkpt lat="43.5046" lon="5.88942">
        <ele>320</ele>
        <time>2018-06-10T09:24:34Z</time>
      </trkpt>
      <trkpt lat="43.50442" lon="5.8893">
        <ele>318</ele>
        <time>2018-06-10T09:24:38Z</time>
      </trkpt>
      <trkpt lat="43.50428" lon="5.88908">
        <ele>318</ele>
        <time>2018-06-10T09:24:42Z</time>
      </trkpt>
      <trkpt lat="43.50414" lon="5.88885">
        <ele>312</ele>
        <time>2018-06-10T09:24:46Z</time>
      </trkpt>
      <trkpt lat="43.50401" lon="5.88861">
        <ele>311</ele>
        <time>2018-06-10T09:24:51Z</time>
      </trkpt>
      <trkpt lat="43.50384" lon="5.88844">
        <ele>310</ele>
        <time>2018-06-10T09:24:56Z</time>
      </trkpt>
      <trkpt lat="43.50376" lon="5.88821">
        <ele>309</ele>
        <time>2018-06-10T09:25:00Z</time>
      </trkpt>
      <trkpt lat="43.50378" lon="5.88795">
        <ele>310</ele>
        <time>2018-06-10T09:25:07Z</time>
      </trkpt>
      <trkpt lat="43.50384" lon="5.88769">
        <ele>310</ele>
        <time>2018-06-10T09:25:14Z</time>
      </trkpt>
      <trkpt lat="43.50381" lon="5.88741">
        <ele>310</ele>
        <time>2018-06-10T09:25:22Z</time>
      </trkpt>
      <trkpt lat="43.50371" lon="5.8872">
        <ele>309</ele>
        <time>2018-06-10T09:25:28Z</time>
      </trkpt>
    </trkseg>
  </trk>
</gpx>